Provisional Data: Swatara Creek near Annville, PA


Please select a monitoring station.
Please select start date.
Please select start date.

Toggle Unit: C/F Toggle Unit: C/F
Sample Time Temperature (C) Temperature (F) Specific Conductivity (mS/cm) pH   Turbidity (NTU+) DO (mg/L)
6/11/2024 12:00:00 AM 21.08 69.944 0.218 7.86 60.44 7.94
6/11/2024 12:15:00 AM 21.05 69.89 0.224 7.86 64.74 7.91
6/11/2024 12:30:00 AM 20.99 69.782 0.223 7.84 68.16 7.88
6/11/2024 12:45:00 AM 20.95 69.71 0.219 7.83 62.76 7.84
6/11/2024 1:00:00 AM 20.9 69.62 0.223 7.83 66.01 7.8
6/11/2024 1:15:00 AM 20.85 69.53 0.223 7.83 65.2 7.76
6/11/2024 1:30:00 AM 20.82 69.476 0.223 7.82 66.52 7.73
6/11/2024 1:45:00 AM 20.78 69.404 0.222 7.81 68.34 7.7
6/11/2024 2:00:00 AM 20.73 69.314 0.22 7.81 63.14 7.66
6/11/2024 2:15:00 AM 20.69 69.242 0.217 7.8 65.3 7.67
6/11/2024 2:30:00 AM 20.62 69.116 0.223 7.79 66.43 7.64
6/11/2024 2:45:00 AM 20.58 69.044 0.223 7.78 63.61 7.62
6/11/2024 3:00:00 AM 20.53 68.954 0.223 7.77 64.16 7.61
6/11/2024 3:15:00 AM 20.45 68.81 0.223 7.79 65.62 7.59
6/11/2024 3:30:00 AM 20.39 68.702 0.222 7.78 68.56 7.57
6/11/2024 3:45:00 AM 20.34 68.612 0.222 7.78 71.17 7.57
6/11/2024 4:00:00 AM 20.3 68.54 0.223 7.77 70.23 7.51
6/11/2024 4:15:00 AM 20.24 68.432 0.222 7.77 105.1 7.51
6/11/2024 4:30:00 AM 20.19 68.342 0.222 7.76 108.8 7.53
6/11/2024 4:45:00 AM 20.16 68.288 0.222 7.78 66.78 7.52
6/11/2024 5:00:00 AM 20.11 68.198 0.221 7.76 66.3 7.48
6/11/2024 5:15:00 AM 20.06 68.108 0.221 7.75 67.59 7.48
6/11/2024 5:30:00 AM 20 68 0.221 7.75 69.74 7.45
6/11/2024 5:45:00 AM 19.97 67.946 0.219 7.74 68.66 7.41
6/11/2024 6:00:00 AM 19.94 67.892 0.218 7.73 74.83 7.46
6/11/2024 6:15:00 AM 19.91 67.838 0.218 7.72 75.32 7.45
6/11/2024 6:30:00 AM 19.88 67.784 0.218 7.74 68.83 7.44
6/11/2024 6:45:00 AM 19.83 67.694 0.218 7.73 71.79 7.42
6/11/2024 7:00:00 AM 19.8 67.64 0.218 7.72 72.62 7.43
6/11/2024 7:15:00 AM 19.78 67.604 0.219 7.7 75.9 7.44
6/11/2024 7:30:00 AM 19.77 67.586 0.218 7.71 76.91 7.43
6/11/2024 7:45:00 AM 19.75 67.55 0.217 7.71 79.19 7.44
6/11/2024 8:00:00 AM 19.75 67.55 0.218 7.67 78.84 7.49
6/11/2024 8:15:00 AM 19.77 67.586 0.22 7.66 82.67 7.54
6/11/2024 8:30:00 AM 19.76 67.568 0.22 7.65 84.05 7.58
6/11/2024 8:45:00 AM 19.77 67.586 0.22 7.64 86.83 7.62
6/11/2024 9:00:00 AM 19.78 67.604 0.221 7.64 89.33 7.65
6/11/2024 9:15:00 AM 19.78 67.604 0.221 7.64 89.29 7.66
6/11/2024 9:30:00 AM 19.79 67.622 0.221 7.63 90.34 7.67
6/11/2024 9:45:00 AM 19.78 67.604 0.221 7.61 89.45 7.69
6/11/2024 10:00:00 AM 19.75 67.55 0.22 7.61 93.35 7.73
6/11/2024 10:15:00 AM 19.75 67.55 0.218 7.6 91.15 7.75
6/11/2024 10:30:00 AM 19.75 67.55 0.219 7.59 89.19 7.79
6/11/2024 10:45:00 AM 19.77 67.586 0.219 7.58 89.26 7.84
6/11/2024 11:00:00 AM 19.79 67.622 0.22 7.59 88.94 7.96
6/11/2024 11:15:00 AM 19.83 67.694 0.221 7.57 89.11 8.02
6/11/2024 11:30:00 AM 19.9 67.82 0.22 7.58 90.19 8.12
6/11/2024 11:45:00 AM 19.9 67.82 0.22 7.55 97.19 8.21
6/11/2024 12:00:00 PM 19.94 67.892 0.221 7.57 92.49 8.27
6/11/2024 12:15:00 PM 20.02 68.036 0.221 7.56 94.26 8.4
6/11/2024 12:30:00 PM 20.08 68.144 0.221 7.55 94.46 8.49
6/11/2024 12:45:00 PM 20.09 68.162 0.221 7.56 95.25 8.53
6/11/2024 1:00:00 PM 20.12 68.216 0.221 7.59 96.42 8.58
6/11/2024 1:15:00 PM 20.16 68.288 0.221 7.58 96.47 8.66
6/11/2024 1:30:00 PM 20.18 68.324 0.22 7.53 99.99 8.71
6/11/2024 1:45:00 PM 20.22 68.396 0.22 7.53 100.7 8.76
6/11/2024 2:00:00 PM 20.25 68.45 0.219 7.55 100.3 8.81
6/11/2024 2:15:00 PM 20.31 68.558 0.219 7.54 101.1 8.91
6/11/2024 2:30:00 PM 20.4 68.72 0.219 7.56 102.5 9.06
6/11/2024 2:45:00 PM 20.57 69.026 0.219 7.55 105.4 9.17
6/11/2024 3:00:00 PM 20.75 69.35 0.219 7.61 106.6 9.3
6/11/2024 3:15:00 PM 20.87 69.566 0.219 7.64 109.8 9.38
6/11/2024 3:30:00 PM 20.84 69.512 0.221 7.64 110.8 9.41
6/11/2024 3:45:00 PM 20.97 69.746 0.223 7.67 110.4 9.48
6/11/2024 4:00:00 PM 21.04 69.872 0.224 7.7 111.3 9.6
6/11/2024 4:15:00 PM 21.03 69.854 0.223 7.76 112 9.66
6/11/2024 4:30:00 PM 21.13 70.034 0.224 7.8 113.7 9.68
6/11/2024 4:45:00 PM 21.22 70.196 0.223 7.94 115 9.81
6/11/2024 5:00:00 PM 21.19 70.142 0.223 8.05 117.1 9.74
6/11/2024 5:15:00 PM 21.16 70.088 0.223 8.11 118.7 9.81
6/11/2024 5:30:00 PM 21.29 70.32201 0.224 8.19 119.2 9.83
6/11/2024 5:45:00 PM 21.3 70.34 0.223 8.29 119.4 9.89
6/11/2024 6:00:00 PM 21.27 70.286 0.223 8.37 118.7 9.88
6/11/2024 6:15:00 PM 21.25 70.25 0.223 8.41 119.6 9.86
6/11/2024 6:30:00 PM 21.29 70.32201 0.223 8.44 118.8 9.86
6/11/2024 6:45:00 PM 21.19 70.142 0.223 8.47 123 9.76
6/11/2024 7:00:00 PM 21.08 69.944 0.22 8.47 124.1 9.65
6/11/2024 7:15:00 PM 21.01 69.818 0.219 8.43 124.7 9.57
6/11/2024 7:30:00 PM 20.92 69.656 0.218 8.4 126.4 9.54
6/11/2024 7:45:00 PM 20.84 69.512 0.215 8.32 128 9.48
6/11/2024 8:00:00 PM 20.78 69.404 0.221 8.22 129.7 9.37
6/11/2024 8:15:00 PM 20.69 69.242 0.221 8.17 128.6 9.32
6/11/2024 8:30:00 PM 20.62 69.116 0.218 8.12 131.5 9.27
6/11/2024 8:45:00 PM 20.55 68.99 0.222 8.08 134.6 9.17
6/11/2024 9:00:00 PM 20.49 68.882 0.219 8.04 130.5 9.14
6/11/2024 9:15:00 PM 20.41 68.738 0.224 8.02 130.3 9.1
6/11/2024 9:30:00 PM 20.38 68.684 0.223 8 133.2 9.02
6/11/2024 9:45:00 PM 20.31 68.558 0.22 8.01 132.1 8.97
6/11/2024 10:00:00 PM 20.25 68.45 0.22 8 131.3 8.95
6/11/2024 10:15:00 PM 20.2 68.36 0.22 7.98 134.6 8.89
6/11/2024 10:30:00 PM 20.14 68.252 0.221 7.96 135.1 8.81
6/11/2024 10:45:00 PM 20.09 68.162 0.22 7.94 136.2 8.77
6/11/2024 11:00:00 PM 20.03 68.054 0.217 7.93 138.5 8.67
6/11/2024 11:15:00 PM 19.96 67.92799 0.22 7.94 141 8.61
6/11/2024 11:30:00 PM 19.88 67.784 0.221 7.92 144.6 8.52
6/11/2024 11:45:00 PM 19.82 67.676 0.222 7.92 148.2 8.51
6/12/2024 12:00:00 AM 19.76 67.568 0.222 7.91 147.8 8.43
6/12/2024 12:15:00 AM 19.68 67.424 0.222 7.9 150.3 8.39
6/12/2024 12:30:00 AM 19.64 67.352 0.223 7.9 144.6 8.34
6/12/2024 12:45:00 AM 19.57 67.226 0.222 7.9 149 8.29
6/12/2024 1:00:00 AM 19.52 67.136 0.221 7.88 145.3 8.26
6/12/2024 1:15:00 AM 19.46 67.028 0.221 7.86 150 8.25
6/12/2024 1:30:00 AM 19.4 66.92 0.221 7.85 140.8 8.16
6/12/2024 1:45:00 AM 19.36 66.848 0.222 7.86 117.8 8.13
6/12/2024 2:00:00 AM 19.28 66.704 0.223 7.83 121.7 8.07
6/12/2024 2:15:00 AM 19.23 66.614 0.222 7.82 117.3 8.06
6/12/2024 2:30:00 AM 19.19 66.542 0.214 7.83 120.7 8.07
6/12/2024 2:45:00 AM 19.11 66.398 0.213 7.8 124.8 8.04
6/12/2024 3:00:00 AM 19.07 66.326 0.22 7.78 125.7 8.05
6/12/2024 3:15:00 AM 19.02 66.236 0.203 7.78 129.3 8.03
6/12/2024 3:30:00 AM 18.95 66.11 0.219 7.78 128.6 7.99
6/12/2024 3:45:00 AM 18.88 65.984 0.219 7.78 129 8.03
6/12/2024 4:00:00 AM 18.81 65.858 0.221 7.79 128 7.96
6/12/2024 4:15:00 AM 18.75 65.75 0.211 7.8 129.7 8.01
6/12/2024 4:30:00 AM 18.67 65.606 0.224 7.79 131.6 7.96
6/12/2024 4:45:00 AM 18.62 65.516 0.218 7.8 131.2 7.99
6/12/2024 5:00:00 AM 18.54 65.372 0.226 7.83 135.6 7.96
6/12/2024 5:15:00 AM 18.47 65.246 0.218 7.77 103.8 7.91
6/12/2024 5:30:00 AM 18.4 65.12 0.216 7.77 102.7 7.91
6/12/2024 5:45:00 AM 18.34 65.012 0.216 7.78 102.4 7.9
6/12/2024 6:00:00 AM 18.26 64.868 0.218 7.79 102.1 7.91
6/12/2024 6:15:00 AM 18.21 64.778 0.217 7.77 106.5 7.91
6/12/2024 6:30:00 AM 18.16 64.688 0.215 7.75 105.2 7.91
6/12/2024 6:45:00 AM 18.1 64.58 0.214 7.74 107.4 7.9
6/12/2024 7:00:00 AM 18.05 64.49 0.214 7.73 106.9 7.96
6/12/2024 7:15:00 AM 18.03 64.454 0.217 7.71 110.3 7.97
6/12/2024 7:30:00 AM 18.02 64.436 0.22 7.69 114.2 8
6/12/2024 7:45:00 AM 17.98 64.364 0.221 7.69 114.8 8
6/12/2024 8:00:00 AM 17.95 64.31 0.225 7.69 114.6 8.01
6/12/2024 8:15:00 AM 17.94 64.292 0.224 7.68 116.7 8.01
6/12/2024 8:30:00 AM 17.93 64.274 0.224 7.66 116.1 8.05
6/12/2024 8:45:00 AM 17.93 64.274 0.225 7.65 118.4 8.09
6/12/2024 9:00:00 AM 17.94 64.292 0.225 7.61 115.2 8.12
6/12/2024 9:15:00 AM 17.97 64.346 0.225 7.56 115.3 8.19
6/12/2024 9:30:00 AM 18.03 64.454 0.225 7.49 121 8.31
6/12/2024 9:45:00 AM 18.08 64.544 0.225 7.41 114.1 8.37
6/12/2024 10:00:00 AM 18.1 64.58 0.225 7.34 119.5 8.44
6/12/2024 10:15:00 AM 18.19 64.742 0.223 7.18 121.8 8.47
6/12/2024 10:30:00 AM 18.26 64.868 0.223 7.1 121.1 8.53
6/12/2024 10:45:00 AM 18.39 65.102 0.222 7 121 8.63
6/12/2024 11:00:00 AM 18.52 65.336 0.224 7.09 122.4 8.7
6/12/2024 11:15:00 AM 18.75 65.75 0.224 6.99 119.9 8.78
6/12/2024 11:30:00 AM 18.93 66.074 0.225 7.01 123.2 8.9
6/12/2024 11:45:00 AM 19.15 66.47 0.224 7.06 123.5 9.01
6/12/2024 12:00:00 PM 19.47 67.046 0.226 7.15 128.5 9.16
6/12/2024 12:15:00 PM 19.77 67.586 0.226 7.13 133.1 9.32
6/12/2024 12:30:00 PM 20.05 68.09 0.227 7.23 128.3 9.43
6/12/2024 12:45:00 PM 20.39 68.702 0.228 7.3 127.4 9.56
6/12/2024 1:00:00 PM 20.67 69.206 0.228 7.35 127.1 9.63
6/12/2024 1:15:00 PM 20.94 69.692 0.227 7.45 127.2 9.76
6/12/2024 1:30:00 PM 21.33 70.394 0.228 7.61 126.4 9.88
6/12/2024 1:45:00 PM 21.56 70.808 0.229 7.66 129.7 9.97
6/12/2024 2:00:00 PM 21.85 71.33 0.229 7.73 72.93 10.03
6/12/2024 2:15:00 PM 21.99 71.582 0.229 7.85 74.94 10.06
6/12/2024 2:30:00 PM 22.11 71.798 0.229 7.87 73.7 10.09
6/12/2024 2:45:00 PM 22.35 72.23 0.228 7.95 75.45 10.19
6/12/2024 3:00:00 PM 22.45 72.41 0.228 8 78.76 10.24
6/12/2024 3:15:00 PM 22.69 72.842 0.229 7.97 77.5 10.27
6/12/2024 3:30:00 PM 22.93 73.274 0.228 8.1 81.2 10.4
6/12/2024 3:45:00 PM 23.18 73.724 0.228 8.12 77.55 10.44
6/12/2024 4:00:00 PM 23.26 73.868 0.228 8.17 59.92 10.55
6/12/2024 4:15:00 PM 23.12 73.616 0.228 8.24 63.81 10.42
6/12/2024 4:30:00 PM 23.18 73.724 0.228 8.27 51.12 10.49
6/12/2024 4:45:00 PM 23.09 73.562 0.228 8.38 60.16 10.43
6/12/2024 5:00:00 PM 23 73.4 0.224 8.4 56.59 10.37
6/12/2024 5:15:00 PM 23.09 73.562 0.228 8.37 52.47 10.31
6/12/2024 5:30:00 PM 23.11 73.598 0.228 8.45 54.65 10.41
6/12/2024 5:45:00 PM 22.99 73.382 0.229 8.52 61.26 10.28
6/12/2024 6:00:00 PM 23.04 73.472 0.228 8.51 58.93 10.35
6/12/2024 6:15:00 PM 22.96 73.328 0.228 8.58 59.95 10.32
6/12/2024 6:30:00 PM 22.89 73.202 0.229 8.62 63.67 10.25
6/12/2024 6:45:00 PM 22.79 73.022 0.228 8.64 60.68 10.14
6/12/2024 7:00:00 PM 22.64 72.752 0.229 8.67 57.66 10.07
6/12/2024 7:15:00 PM 22.54 72.57201 0.231 8.66 58.92 9.91
6/12/2024 7:30:00 PM 22.46 72.42799 0.231 8.61 67.13 9.79
6/12/2024 7:45:00 PM 22.34 72.212 0.231 8.51 59.47 9.72
6/12/2024 8:00:00 PM 22.23 72.014 0.231 8.46 67.1 9.58
6/12/2024 8:15:00 PM 22.11 71.798 0.231 8.4 64.04 9.5
6/12/2024 8:30:00 PM 22.04 71.672 0.233 8.36 56.24 9.39
6/12/2024 8:45:00 PM 21.92 71.456 0.229 8.33 65.88 9.27
6/12/2024 9:00:00 PM 21.85 71.33 0.229 8.3 68.57 9.15
6/12/2024 9:15:00 PM 21.77 71.186 0.233 8.29 67.86 9.15
6/12/2024 9:30:00 PM 21.68 71.024 0.226 8.27 66.85 9.01
6/12/2024 9:45:00 PM 21.61 70.898 0.231 8.23 71.12 8.95
6/12/2024 10:00:00 PM 21.54 70.772 0.226 8.21 67.89 8.89
6/12/2024 10:15:00 PM 21.47 70.646 0.234 8.19 61.33 8.83
6/12/2024 10:30:00 PM 21.4 70.52 0.233 8.19 56.32 8.69
6/12/2024 10:45:00 PM 21.33 70.394 0.234 8.15 52.55 8.69
6/12/2024 11:00:00 PM 21.24 70.232 0.23 8.15 56.56 8.6
6/12/2024 11:15:00 PM 21.16 70.088 0.234 8.09 59.35 8.49
6/12/2024 11:30:00 PM 21.09 69.962 0.236 8.07 61.39 8.44
6/12/2024 11:45:00 PM 21.03 69.854 0.232 8.04 58.13 8.39
6/13/2024 12:00:00 AM 20.96 69.728 0.23 8.02 55.17 8.32
6/13/2024 12:15:00 AM 20.91 69.638 0.233 8 58.88 8.25
6/13/2024 12:30:00 AM 20.83 69.494 0.232 7.98 58.85 8.19
6/13/2024 12:45:00 AM 20.77 69.386 0.233 7.97 64.1 8.17
6/13/2024 1:00:00 AM 20.74 69.332 0.232 7.95 59.19 8.11
6/13/2024 1:15:00 AM 20.65 69.17 0.231 7.92 57.01 8.02
6/13/2024 1:30:00 AM 20.59 69.062 0.23 7.9 60.3 7.9
6/13/2024 1:45:00 AM 20.54 68.972 0.23 7.88 66.88 7.89
6/13/2024 2:00:00 AM 20.51 68.918 0.224 7.87 61.22 7.88
6/13/2024 2:15:00 AM 20.44 68.792 0.224 7.87 63.29 7.83
6/13/2024 2:30:00 AM 20.4 68.72 0.234 7.85 65.77 7.84
6/13/2024 2:45:00 AM 20.37 68.666 0.235 7.83 66.86 7.8
6/13/2024 3:00:00 AM 20.31 68.558 0.23 7.82 70.18 7.76
6/13/2024 3:15:00 AM 20.27 68.486 0.229 7.81 80.25 7.69
6/13/2024 3:30:00 AM 20.21 68.378 0.229 7.8 79.19 7.63
6/13/2024 3:45:00 AM 20.17 68.306 0.236 7.79 75.05 7.63
6/13/2024 4:00:00 AM 20.11 68.198 0.212 7.78 75.73 7.61
6/13/2024 4:15:00 AM 20.07 68.126 0.21 7.77 74.85 7.64
6/13/2024 4:30:00 AM 20.02 68.036 0.213 7.76 76.33 7.62
6/13/2024 4:45:00 AM 19.97 67.946 0.215 7.76 76.1 7.6
6/13/2024 5:00:00 AM 19.89 67.802 0.212 7.75 78.33 7.6
6/13/2024 5:15:00 AM 19.84 67.712 0.213 7.74 77.85 7.56
6/13/2024 5:30:00 AM 19.82 67.676 0.234 7.73 74.83 7.5
6/13/2024 5:45:00 AM 19.75 67.55 0.234 7.73 79.29 7.49
6/13/2024 6:00:00 AM 19.7 67.46 0.211 7.72 74.31 7.47
6/13/2024 6:15:00 AM 19.66 67.388 0.21 7.71 77.55 7.48
6/13/2024 6:30:00 AM 19.62 67.316 0.21 7.7 83.04 7.47
6/13/2024 6:45:00 AM 19.54 67.172 0.21 7.69 82.28 7.48
6/13/2024 7:00:00 AM 19.53 67.154 0.216 7.68 73.53 7.48
6/13/2024 7:15:00 AM 19.52 67.136 0.215 7.65 69.88 7.47
6/13/2024 7:30:00 AM 19.46 67.028 0.214 7.65 79.28 7.45
6/13/2024 7:45:00 AM 19.45 67.01 0.216 7.61 73.9 7.45
6/13/2024 8:00:00 AM 19.44 66.992 0.216 7.54 76.61 7.43
6/13/2024 8:15:00 AM 19.48 67.064 0.218 7.55 77.52 7.43
6/13/2024 8:30:00 AM 19.44 66.992 0.217 7.55 81.05 7.52
6/13/2024 8:45:00 AM 19.47 67.046 0.215 7.6 83.2 7.51
6/13/2024 9:00:00 AM 19.48 67.064 0.215 7.6 90.8 7.51
6/13/2024 9:15:00 AM 19.51 67.118 0.216 7.57 96.8 7.57
6/13/2024 9:30:00 AM 19.54 67.172 0.214 7.45 94.21 7.62
6/13/2024 9:45:00 AM 19.62 67.316 0.215 7.43 91.48 7.67
6/13/2024 10:00:00 AM 19.67 67.406 0.214 7.41 92.1 7.76
6/13/2024 10:15:00 AM 19.76 67.568 0.213 7.37 84.49 7.82
6/13/2024 10:30:00 AM 19.86 67.748 0.228 7.37 85.71 7.91
6/13/2024 10:45:00 AM 20.02 68.036 0.229 7.32 76.78 8.05
6/13/2024 11:00:00 AM 20.16 68.288 0.228 7.37 78.02 8.17
6/13/2024 11:15:00 AM 20.41 68.738 0.228 7.35 78.01 8.35
6/13/2024 11:30:00 AM 20.63 69.134 0.227 7.43 78.55 8.51
6/13/2024 11:45:00 AM 20.96 69.728 0.229 7.46 80.02 8.65
6/13/2024 12:00:00 PM 21.22 70.196 0.229 7.53 78.78 8.8
6/13/2024 12:15:00 PM 21.51 70.718 0.229 7.58 74.78 8.99
6/13/2024 12:30:00 PM 21.84 71.312 0.229 7.64 68.53 9.18
6/13/2024 12:45:00 PM 22.03 71.654 0.229 7.75 69.23 9.29
6/13/2024 1:00:00 PM 22.4 72.32 0.227 7.77 68.93 9.48
6/13/2024 1:15:00 PM 22.81 73.058 0.227 7.86 74.06 9.56
6/13/2024 1:30:00 PM 23.11 73.598 0.233 7.92 76.13 9.63
6/13/2024 1:45:00 PM 23.28 73.904 0.233 8 76.09 9.79
6/13/2024 2:00:00 PM 23.64 74.552 0.233 8.04 73.19 9.93
6/13/2024 2:15:00 PM 23.95 75.11 0.233 8.09 76.32 10.01
6/13/2024 2:30:00 PM 24.1 75.38 0.234 8.16 74.65 10.12
6/13/2024 2:45:00 PM 24.37 75.866 0.234 8.21 72.75 10.2
6/13/2024 3:00:00 PM 24.46 76.028 0.234 8.27 86.75 10.24
6/13/2024 3:15:00 PM 24.51 76.118 0.234 8.32 79.76 10.18
6/13/2024 3:30:00 PM 24.76 76.568 0.234 8.37 80.71 10.3
6/13/2024 3:45:00 PM 24.79 76.622 0.234 8.4 75.58 10.28
6/13/2024 4:00:00 PM 24.84 76.712 0.234 8.44 76.45 10.29
6/13/2024 4:15:00 PM 24.86 76.748 0.234 8.49 76.57 10.13
6/13/2024 4:30:00 PM 25.06 77.108 0.234 8.53 77.81 10.24
6/13/2024 4:45:00 PM 25.02 77.036 0.234 8.6 77.49 10.33
6/13/2024 5:00:00 PM 25.09 77.162 0.233 8.63 77.45 10.25
6/13/2024 5:15:00 PM 25.18 77.324 0.234 8.68 77.28 10.44
6/13/2024 5:30:00 PM 25.11 77.198 0.235 8.75 77.08 10.4
6/13/2024 5:45:00 PM 25.08 77.144 0.235 8.77 77.17 10.33
6/13/2024 6:00:00 PM 25.07 77.126 0.234 8.8 78.22 10.32
6/13/2024 6:15:00 PM 24.97 76.946 0.234 8.82 78.56 10.25
6/13/2024 6:30:00 PM 24.94 76.892 0.235 8.84 79.38 10.16
6/13/2024 6:45:00 PM 24.85 76.73 0.235 8.84 78.37 10.16
6/13/2024 7:00:00 PM 24.74 76.532 0.235 8.82 80.59 10.01
6/13/2024 7:15:00 PM 24.62 76.316 0.234 8.81 80.08 9.86
6/13/2024 7:30:00 PM 24.53 76.154 0.237 8.78 79.86 9.81
6/13/2024 7:45:00 PM 24.42 75.956 0.229 8.75 81.62 9.67
6/13/2024 8:00:00 PM 24.35 75.83 0.228 8.74 81.64 9.51
6/13/2024 8:15:00 PM 24.25 75.65 0.222 8.73 82.57 9.46
6/13/2024 8:30:00 PM 24.14 75.452 0.223 8.69 82.56 9.31
6/13/2024 8:45:00 PM 24.03 75.254 0.23 8.65 83.12 9.04
6/13/2024 9:00:00 PM 23.95 75.11 0.229 8.62 83.22 9
6/13/2024 9:15:00 PM 23.87 74.966 0.204 8.58 85.88 8.84
6/13/2024 9:30:00 PM 23.79 74.82201 0.234 8.54 64.88 8.77
6/13/2024 9:45:00 PM 23.72 74.696 0.234 8.49 59.77 8.55
6/13/2024 10:00:00 PM 23.67 74.606 0.234 8.45 61.32 8.53
6/13/2024 10:15:00 PM 23.61 74.498 0.228 8.43 51.71 8.56
6/13/2024 10:30:00 PM 23.55 74.39 0.23 8.4 52.79 8.47
6/13/2024 10:45:00 PM 23.49 74.282 0.231 8.37 53.14 8.35
6/13/2024 11:00:00 PM 23.44 74.192 0.224 8.33 69.04 8.24
6/13/2024 11:15:00 PM 23.38 74.084 0.225 8.3 61.87 8.15
6/13/2024 11:30:00 PM 23.33 73.994 0.223 8.26 60.31 8.08
6/13/2024 11:45:00 PM 23.27 73.886 0.231 8.23 60.06 7.93
6/14/2024 12:00:00 AM 23.22 73.796 0.216 8.2 62.64 7.86
6/14/2024 12:15:00 AM 23.16 73.688 0.217 8.16 56.26 7.8
6/14/2024 12:30:00 AM 23.11 73.598 0.232 8.12 55.37 7.68
6/14/2024 12:45:00 AM 23.06 73.508 0.234 8.09 59.36 7.63
6/14/2024 1:00:00 AM 23.02 73.436 0.235 8.06 57.99 7.64
6/14/2024 1:15:00 AM 22.97 73.346 0.236 8.03 60.75 7.51
6/14/2024 1:30:00 AM 22.93 73.274 0.235 8 61.36 7.48
6/14/2024 1:45:00 AM 22.88 73.184 0.238 7.98 61.98 7.3
6/14/2024 2:00:00 AM 22.87 73.166 0.237 7.96 61.85 7.32
6/14/2024 2:15:00 AM 22.79 73.022 0.24 7.93 70.04 7.21
6/14/2024 2:30:00 AM 22.77 72.986 0.238 7.91 65.42 7.18
6/14/2024 2:45:00 AM 22.74 72.932 0.241 7.9 64.23 7.15
6/14/2024 3:00:00 AM 22.69 72.842 0.236 7.88 72.55 7.13
6/14/2024 3:15:00 AM 22.65 72.77 0.238 7.86 67.46 7.05
6/14/2024 3:30:00 AM 22.62 72.716 0.239 7.85 70.21 7.03
6/14/2024 3:45:00 AM 22.58 72.644 0.239 7.83 63.93 6.98
6/14/2024 4:00:00 AM 22.54 72.57201 0.24 7.83 65.36 6.91
6/14/2024 4:15:00 AM 22.5 72.5 0.24 7.81 63.87 6.93
6/14/2024 4:30:00 AM 22.46 72.42799 0.241 7.8 68.41 6.93
6/14/2024 4:45:00 AM 22.42 72.356 0.238 7.79 61.77 6.89
6/14/2024 5:00:00 AM 22.38 72.284 0.237 7.78 65.94 6.81
6/14/2024 5:15:00 AM 22.35 72.23 0.241 7.78 66.73 6.9
6/14/2024 5:30:00 AM 22.33 72.194 0.24 7.77 68.38 6.89
6/14/2024 5:45:00 AM 22.26 72.068 0.24 7.75 64.95 6.86
6/14/2024 6:00:00 AM 22.21 71.978 0.24 7.72 82.99 6.84
6/14/2024 6:15:00 AM 22.17 71.906 0.24 7.7 66.6 6.76
6/14/2024 6:30:00 AM 22.12 71.816 0.24 7.69 67.3 6.71
6/14/2024 6:45:00 AM 22.1 71.78 0.239 7.68 2246 6.74
6/14/2024 7:00:00 AM 22.08 71.744 0.239 7.68 539.5 6.78
6/14/2024 7:15:00 AM 22.08 71.744 0.24 7.68 76.82 6.78
6/14/2024 7:30:00 AM 22.04 71.672 0.239 7.68 110.9 6.72
6/14/2024 7:45:00 AM 22.02 71.636 0.239 7.68 73.34 6.74
6/14/2024 8:00:00 AM 22.02 71.636 0.239 7.68 73.5 6.84
6/14/2024 8:15:00 AM 22.02 71.636 0.239 7.68 73.96 6.82
6/14/2024 8:30:00 AM 22.02 71.636 0.239 7.68 74.65 6.84
6/14/2024 8:45:00 AM 22.03 71.654 0.237 7.68 74.59 6.91
6/14/2024 9:00:00 AM 22.05 71.69 0.237 7.68 72.14 6.93
6/14/2024 9:15:00 AM 22.08 71.744 0.238 7.69 73.01 6.99
6/14/2024 9:30:00 AM 22.13 71.834 0.237 7.69 71.64 7.07
6/14/2024 9:45:00 AM 22.17 71.906 0.237 7.7 73.6 7.17
6/14/2024 10:00:00 AM 22.26 72.068 0.237 7.71 73.42 7.26
6/14/2024 10:15:00 AM 22.35 72.23 0.237 7.73 66.8 7.49
6/14/2024 10:30:00 AM 22.5 72.5 0.238 7.74 68.45 7.64
6/14/2024 10:45:00 AM 22.62 72.716 0.238 7.76 67.13 7.82
6/14/2024 11:00:00 AM 22.74 72.932 0.239 7.77 66.85 7.98
6/14/2024 11:15:00 AM 22.84 73.112 0.24 7.8 67.86 8.12
6/14/2024 11:30:00 AM 22.96 73.328 0.239 7.83 69.43 8.29
6/14/2024 11:45:00 AM 23.01 73.418 0.239 7.85 62.55 8.35
6/14/2024 12:00:00 PM 23.08 73.544 0.239 7.88 62 8.48
6/14/2024 12:15:00 PM 23.19 73.742 0.239 7.91 77.28 8.61
6/14/2024 12:30:00 PM 23.46 74.228 0.239 7.93 64.09 8.82
6/14/2024 12:45:00 PM 23.49 74.282 0.239 7.97 64.82 8.94
6/14/2024 1:00:00 PM 23.55 74.39 0.238 8.01 63.92 9.06
6/14/2024 1:15:00 PM 23.76 74.768 0.239 8.05 63.29 9.2
6/14/2024 1:30:00 PM 24.06 75.308 0.239 8.09 65.04 9.38
6/14/2024 1:45:00 PM 24.21 75.578 0.239 8.14 64.34 9.53
6/14/2024 2:00:00 PM 24.27 75.686 0.239 8.19 59.58 9.66
6/14/2024 2:15:00 PM 24.3 75.74 0.239 8.25 59.52 9.73
6/14/2024 2:30:00 PM 24.32 75.776 0.239 8.28 59.86 9.73
6/14/2024 2:45:00 PM 24.39 75.902 0.239 8.34 59.91 9.8
6/14/2024 3:00:00 PM 24.39 75.902 0.238 8.39 60.08 9.81
6/14/2024 3:15:00 PM 24.42 75.956 0.238 8.43 60.13 9.89
6/14/2024 3:30:00 PM 24.43 75.974 0.238 8.46 60.26 9.86
6/14/2024 3:45:00 PM 24.45 76.01 0.239 8.52 60.52 9.82
6/14/2024 4:00:00 PM 24.44 75.992 0.24 8.55 61.33 9.81
6/14/2024 4:15:00 PM 24.39 75.902 0.243 8.55 61.78 9.67
6/14/2024 4:30:00 PM 24.33 75.794 0.24 8.57 62.17 9.62
6/14/2024 4:45:00 PM 24.28 75.704 0.24 8.57 62.13 9.67
6/14/2024 5:00:00 PM 24.22 75.596 0.24 8.58 64.07 9.63
6/14/2024 5:15:00 PM 24.2 75.56 0.24 8.58 65.47 9.64
6/14/2024 5:30:00 PM 24.14 75.452 0.24 8.59 64.79 9.53
6/14/2024 5:45:00 PM 24.1 75.38 0.24 8.61 64.48 9.54
6/14/2024 6:00:00 PM 24.07 75.326 0.24 8.6 64.1 9.48
6/14/2024 6:15:00 PM 24.05 75.29 0.24 8.63 64.37 9.55
6/14/2024 6:30:00 PM 24.12 75.416 0.24 8.61 64.27 9.59
6/14/2024 6:45:00 PM 24.09 75.362 0.24 8.67 64.3 9.64
6/14/2024 7:00:00 PM 23.97 75.146 0.24 8.72 64.44 9.47
6/14/2024 7:15:00 PM 23.92 75.056 0.241 8.7 64.34 9.43
6/14/2024 7:30:00 PM 23.86 74.948 0.242 8.68 65.1 9.36
6/14/2024 7:45:00 PM 23.79 74.82201 0.241 8.64 65.28 9.2
6/14/2024 8:00:00 PM 23.71 74.67799 0.242 8.61 65.49 9.03
6/14/2024 8:15:00 PM 23.63 74.534 0.241 8.58 65.67 8.91
6/14/2024 8:30:00 PM 23.56 74.408 0.241 8.54 66.22 8.79
6/14/2024 8:45:00 PM 23.48 74.264 0.24 8.5 65.84 8.7
6/14/2024 9:00:00 PM 23.41 74.138 0.24 8.45 66.3 8.63
6/14/2024 9:15:00 PM 23.34 74.012 0.24 8.41 66.95 8.51
6/14/2024 9:30:00 PM 23.25 73.85 0.241 8.37 67.62 8.41
6/14/2024 9:45:00 PM 23.19 73.742 0.242 8.33 68.33 8.32
6/14/2024 10:00:00 PM 23.13 73.634 0.242 8.3 59.05 8.27
6/14/2024 10:15:00 PM 23.06 73.508 0.241 8.27 59.94 8.18
6/14/2024 10:30:00 PM 22.99 73.382 0.241 8.24 59.8 8.11
6/14/2024 10:45:00 PM 22.95 73.31 0.24 8.2 60.37 8.03
6/14/2024 11:00:00 PM 22.91 73.238 0.241 8.18 60.65 8.04
6/14/2024 11:15:00 PM 22.85 73.13 0.243 8.16 61.67 7.99
6/14/2024 11:30:00 PM 22.79 73.022 0.241 8.13 61.53 7.8
6/14/2024 11:45:00 PM 22.75 72.95 0.242 8.1 61.5 7.81
6/15/2024 12:00:00 AM 22.69 72.842 0.241 8.09 62.05 7.75
6/15/2024 12:15:00 AM 22.64 72.752 0.242 8.06 67.41 7.69
6/15/2024 12:30:00 AM 22.59 72.662 0.241 8.04 58.57 7.63
6/15/2024 12:45:00 AM 22.53 72.554 0.24 8.02 36.13 7.57
6/15/2024 1:00:00 AM 22.47 72.446 0.242 7.99 35.73 7.52
6/15/2024 1:15:00 AM 22.41 72.338 0.242 7.97 37.24 7.45
6/15/2024 1:30:00 AM 22.34 72.212 0.242 7.94 37.12 7.37
6/15/2024 1:45:00 AM 22.28 72.104 0.242 7.92 41.14 7.31
6/15/2024 2:00:00 AM 22.22 71.996 0.241 7.91 36.95 7.25
6/15/2024 2:15:00 AM 22.14 71.852 0.242 7.88 37.81 7.21
6/15/2024 2:30:00 AM 22.08 71.744 0.243 7.87 37.52 7.13
6/15/2024 2:45:00 AM 22.02 71.636 0.241 7.86 38.65 7.03
6/15/2024 3:00:00 AM 21.96 71.528 0.242 7.83 38.39 7.07
6/15/2024 3:15:00 AM 21.91 71.438 0.243 7.82 38.63 7.06
6/15/2024 3:30:00 AM 21.84 71.312 0.243 7.8 39.27 7.02
6/15/2024 3:45:00 AM 21.8 71.24 0.242 7.78 38.61 7.03
6/15/2024 4:00:00 AM 21.72 71.096 0.241 7.78 40.03 6.98
6/15/2024 4:15:00 AM 21.65 70.97 0.243 7.77 39.02 6.92
6/15/2024 4:30:00 AM 21.56 70.808 0.238 7.75 39.6 6.9
6/15/2024 4:45:00 AM 21.51 70.718 0.243 7.74 39.2 6.91
6/15/2024 5:00:00 AM 21.45 70.61 0.242 7.74 45.23 6.91
6/15/2024 5:15:00 AM 21.42 70.556 0.244 7.72 43.3 6.88
6/15/2024 5:30:00 AM 21.32 70.376 0.244 7.72 41.69 6.84
6/15/2024 5:45:00 AM 21.28 70.304 0.244 7.72 41.44 6.84
6/15/2024 6:00:00 AM 21.21 70.17799 0.243 7.7 44.84 6.82
6/15/2024 6:15:00 AM 21.13 70.034 0.244 7.69 44.8 6.8
6/15/2024 6:30:00 AM 21.08 69.944 0.244 7.66 45.18 6.83
6/15/2024 6:45:00 AM 21.01 69.818 0.243 7.67 45.39 6.8
6/15/2024 7:00:00 AM 21 69.8 0.243 7.57 45.51 6.82
6/15/2024 7:15:00 AM 20.96 69.728 0.243 7.59 45.98 6.8
6/15/2024 7:30:00 AM 20.96 69.728 0.243 7.64 46.89 6.77
6/15/2024 7:45:00 AM 20.91 69.638 0.241 7.61 47.11 6.85
6/15/2024 8:00:00 AM 20.91 69.638 0.242 7.6 47.44 6.86
6/15/2024 8:15:00 AM 20.86 69.548 0.242 7.61 47.98 6.84
6/15/2024 8:30:00 AM 20.86 69.548 0.242 7.63 48.44 6.89
6/15/2024 8:45:00 AM 20.84 69.512 0.242 7.61 48.37 6.9
6/15/2024 9:00:00 AM 20.84 69.512 0.242 7.63 48.13 6.93
6/15/2024 9:15:00 AM 20.83 69.494 0.241 7.63 48.36 6.95
6/15/2024 9:30:00 AM 20.85 69.53 0.241 7.64 51.5 6.99
6/15/2024 9:45:00 AM 20.84 69.512 0.242 7.64 51.49 7.08
6/15/2024 10:00:00 AM 20.91 69.638 0.241 7.63 51.92 7.17
6/15/2024 10:15:00 AM 20.97 69.746 0.241 7.63 52.37 7.34
6/15/2024 10:30:00 AM 21.06 69.908 0.241 7.64 52.44 7.42
6/15/2024 10:45:00 AM 21.23 70.214 0.231 7.75 52.69 7.6
6/15/2024 11:00:00 AM 21.37 70.466 0.24 7.72 52.99 7.68
6/15/2024 11:15:00 AM 21.65 70.97 0.238 7.69 53.1 7.89
6/15/2024 11:30:00 AM 21.76 71.168 0.24 7.7 40.02 8.04
6/15/2024 11:45:00 AM 22.02 71.636 0.24 7.77 39.85 8.19
6/15/2024 12:00:00 PM 22.27 72.086 0.24 7.76 42.38 8.36
6/15/2024 12:15:00 PM 22.59 72.662 0.239 7.8 42.16 8.56
6/15/2024 12:30:00 PM 22.7 72.86 0.239 7.86 42.58 8.66
6/15/2024 12:45:00 PM 22.95 73.31 0.239 7.9 43.48 8.86
6/15/2024 1:00:00 PM 23.27 73.886 0.239 7.94 43.21 9.06
6/15/2024 1:15:00 PM 23.55 74.39 0.239 7.99 43.5 9.17
6/15/2024 1:30:00 PM 23.86 74.948 0.239 8.03 43.83 9.26
6/15/2024 1:45:00 PM 23.84 74.912 0.239 8.09 43.67 9.37
6/15/2024 2:00:00 PM 24.16 75.488 0.239 8.12 44.77 9.59
6/15/2024 2:15:00 PM 24.48 76.064 0.239 8.17 45.25 9.72
6/15/2024 2:30:00 PM 24.7 76.46 0.235 8.22 45.49 9.89
6/15/2024 2:45:00 PM 24.84 76.712 0.235 8.3 42.98 9.99
6/15/2024 3:00:00 PM 24.94 76.892 0.239 8.34 44.01 10.01
6/15/2024 3:15:00 PM 25.3 77.54 0.238 8.4 43.99 10.17
6/15/2024 3:30:00 PM 25.59 78.062 0.235 8.45 47.99 10.28
6/15/2024 3:45:00 PM 25.66 78.188 0.235 8.5 48.08 10.36
6/15/2024 4:00:00 PM 25.64 78.152 0.236 8.56 48.82 10.34
6/15/2024 4:15:00 PM 25.59 78.062 0.237 8.62 50.74 10.31
6/15/2024 4:30:00 PM 25.73 78.314 0.239 8.69 50.89 10.46
6/15/2024 4:45:00 PM 25.73 78.314 0.239 8.76 51.26 10.45
6/15/2024 5:00:00 PM 25.74 78.332 0.239 8.78 50.83 10.42
6/15/2024 5:15:00 PM 25.68 78.224 0.239 8.84 50.49 10.44
6/15/2024 5:30:00 PM 25.69 78.242 0.24 8.88 51.46 10.41
6/15/2024 5:45:00 PM 25.5 77.9 0.239 8.92 52.03 10.34
6/15/2024 6:00:00 PM 25.47 77.846 0.239 8.93 51.52 10.31
6/15/2024 6:15:00 PM 25.36 77.648 0.24 8.95 51.71 10.29
6/15/2024 6:30:00 PM 25.34 77.612 0.239 8.96 51.96 10.22
6/15/2024 6:45:00 PM 25.24 77.432 0.24 8.98 52.14 10.13
6/15/2024 7:00:00 PM 25.11 77.198 0.24 8.98 51.93 10.03
6/15/2024 7:15:00 PM 24.96 76.92799 0.24 8.98 52.48 9.84
6/15/2024 7:30:00 PM 24.77 76.586 0.24 8.95 54.98 9.72
6/15/2024 7:45:00 PM 24.63 76.334 0.24 8.9 53.14 9.52
6/15/2024 8:00:00 PM 24.47 76.046 0.241 8.86 53.65 9.4
6/15/2024 8:15:00 PM 24.32 75.776 0.24 8.79 53.98 9.23
6/15/2024 8:30:00 PM 24.16 75.488 0.241 8.74 54.58 9.11
6/15/2024 8:45:00 PM 24 75.2 0.24 8.69 57.87 8.94
6/15/2024 9:00:00 PM 23.86 74.948 0.24 8.64 59.68 8.77
6/15/2024 9:15:00 PM 23.72 74.696 0.241 8.58 59.51 8.65
6/15/2024 9:30:00 PM 23.61 74.498 0.241 8.53 59.58 8.54
6/15/2024 9:45:00 PM 23.49 74.282 0.241 8.48 51.68 8.49
6/15/2024 10:00:00 PM 23.39 74.102 0.24 8.43 49.74 8.4
6/15/2024 10:15:00 PM 23.29 73.922 0.24 8.4 51.34 8.38
6/15/2024 10:30:00 PM 23.17 73.706 0.241 8.36 54.47 8.23
6/15/2024 10:45:00 PM 23.08 73.544 0.24 8.33 54.52 8.19
6/15/2024 11:00:00 PM 22.95 73.31 0.241 8.29 54.15 8.11
6/15/2024 11:15:00 PM 22.86 73.148 0.24 8.26 55.41 8.01
6/15/2024 11:30:00 PM 22.77 72.986 0.241 8.22 51.86 7.95
6/15/2024 11:45:00 PM 22.66 72.788 0.241 8.19 52.86 7.89
6/16/2024 12:00:00 AM 22.57 72.626 0.24 8.16 53.8 7.77
6/16/2024 12:15:00 AM 22.48 72.464 0.242 8.13 57.11 7.71
6/16/2024 12:30:00 AM 22.4 72.32 0.242 8.09 58.96 7.6
6/16/2024 12:45:00 AM 22.33 72.194 0.242 8.06 59.23 7.57
6/16/2024 1:00:00 AM 22.3 72.14 0.242 8.05 58.5 7.58
6/16/2024 1:15:00 AM 22.21 71.978 0.24 8.02 61.02 7.51
6/16/2024 1:30:00 AM 22.17 71.906 0.241 7.99 58.93 7.47
6/16/2024 1:45:00 AM 22.07 71.726 0.239 7.98 58.96 7.39
6/16/2024 2:00:00 AM 22.01 71.618 0.241 7.96 59.53 7.38
6/16/2024 2:15:00 AM 21.96 71.528 0.24 7.95 61.61 7.31
6/16/2024 2:30:00 AM 21.9 71.42 0.241 7.94 61.78 7.29
6/16/2024 2:45:00 AM 21.88 71.384 0.241 7.93 61.41 7.29
6/16/2024 3:00:00 AM 21.84 71.312 0.241 7.92 64.04 7.25
6/16/2024 3:15:00 AM 21.74 71.132 0.241 7.91 65.85 7.22
6/16/2024 3:30:00 AM 21.7 71.06 0.24 7.9 67.25 7.22
6/16/2024 3:45:00 AM 21.63 70.934 0.24 7.89 70.79 7.21
6/16/2024 4:00:00 AM 21.56 70.808 0.24 7.88 69.26 7.15
6/16/2024 4:15:00 AM 21.51 70.718 0.239 7.87 72.84 7.14
6/16/2024 4:30:00 AM 21.46 70.628 0.239 7.87 72.35 7.1
6/16/2024 4:45:00 AM 21.37 70.466 0.239 7.86 69.92 7.1
6/16/2024 5:00:00 AM 21.3 70.34 0.238 7.85 69.72 7.05
6/16/2024 5:15:00 AM 21.22 70.196 0.235 7.84 70.08 7.04
6/16/2024 5:30:00 AM 21.19 70.142 0.235 7.83 70.7 7.02
6/16/2024 5:45:00 AM 21.13 70.034 0.235 7.83 74 6.98
6/16/2024 6:00:00 AM 21.02 69.836 0.234 7.82 71.53 6.97
6/16/2024 6:15:00 AM 20.94 69.692 0.234 7.82 73.24 6.97
6/16/2024 6:30:00 AM 20.94 69.692 0.235 7.81 74.54 6.99
6/16/2024 6:45:00 AM 20.84 69.512 0.235 7.8 75.69 6.97
6/16/2024 7:00:00 AM 20.74 69.332 0.236 7.79 77.02 6.95
6/16/2024 7:15:00 AM 20.73 69.314 0.235 7.78 78.19 6.95
6/16/2024 7:30:00 AM 20.7 69.26 0.235 7.77 80.45 6.95
6/16/2024 7:45:00 AM 20.64 69.152 0.234 7.75 81.11 6.94
6/16/2024 8:00:00 AM 20.63 69.134 0.234 7.72 81.7 6.97
6/16/2024 8:15:00 AM 20.63 69.134 0.233 7.71 79.64 6.99
6/16/2024 8:30:00 AM 20.63 69.134 0.234 7.68 80.44 6.96
6/16/2024 8:45:00 AM 20.6 69.08 0.233 7.63 78.58 7.02
6/16/2024 9:00:00 AM 20.57 69.026 0.233 7.62 78.04 7.04
6/16/2024 9:15:00 AM 20.6 69.08 0.233 7.58 79.48 7.09
6/16/2024 9:30:00 AM 20.57 69.026 0.233 7.53 80.58 7.14
6/16/2024 9:45:00 AM 20.62 69.116 0.233 7.5 83.97 7.22
6/16/2024 10:00:00 AM 20.65 69.17 0.233 7.48 80.74 7.3
6/16/2024 10:15:00 AM 20.73 69.314 0.233 7.36 81.86 7.44
6/16/2024 10:30:00 AM 20.79 69.422 0.233 7.33 81.9 7.53
6/16/2024 10:45:00 AM 20.89 69.602 0.224 7.36 87.5 7.71
6/16/2024 11:00:00 AM 21.07 69.926 0.227 7.32 82.5 7.93
6/16/2024 11:15:00 AM 21.18 70.124 0.232 7.37 83.33 8.08
6/16/2024 11:30:00 AM 21.35 70.43 0.232 7.39 80.85 8.24
6/16/2024 11:45:00 AM 21.58 70.844 0.232 7.43 81.11 8.37
6/16/2024 12:00:00 PM 21.85 71.33 0.232 7.49 81.85 8.56
6/16/2024 12:15:00 PM 22.18 71.924 0.232 7.52 81.34 8.79
6/16/2024 12:30:00 PM 22.38 72.284 0.232 7.55 80.9 8.97
6/16/2024 12:45:00 PM 22.56 72.608 0.231 7.59 81.17 9.17
6/16/2024 1:00:00 PM 22.86 73.148 0.231 7.68 81.1 9.36
6/16/2024 1:15:00 PM 23.12 73.616 0.231 7.77 81.16 9.51
6/16/2024 1:30:00 PM 23.42 74.156 0.231 7.88 79.74 9.71
6/16/2024 1:45:00 PM 23.73 74.714 0.224 7.9 79.62 9.86
6/16/2024 2:00:00 PM 24.06 75.308 0.223 7.97 81.33 9.96
6/16/2024 2:15:00 PM 24.34 75.812 0.222 8.11 77.95 10.08
6/16/2024 2:30:00 PM 24.59 76.262 0.223 8.17 76.55 10.2
6/16/2024 2:45:00 PM 24.87 76.766 0.222 8.25 76.5 10.25
6/16/2024 3:00:00 PM 25.05 77.09 0.221 8.31 78.07 10.33
6/16/2024 3:15:00 PM 25.07 77.126 0.222 8.41 77.88 10.39
6/16/2024 3:30:00 PM 25.32 77.576 0.222 8.47 78.71 10.52
6/16/2024 3:45:00 PM 25.44 77.792 0.224 8.55 79.09 10.59
6/16/2024 4:00:00 PM 25.34 77.612 0.224 8.64 79.38 10.59
6/16/2024 4:15:00 PM 25.28 77.504 0.22 8.72 80.2 10.58
6/16/2024 4:30:00 PM 25.32 77.576 0.221 8.78 76.89 10.67
6/16/2024 4:45:00 PM 25.27 77.486 0.221 8.82 76.28 10.68
6/16/2024 5:00:00 PM 25.25 77.45 0.221 8.85 75.54 10.63
6/16/2024 5:15:00 PM 25.27 77.486 0.222 8.88 73.45 10.6
6/16/2024 5:30:00 PM 25.27 77.486 0.222 8.94 72.85 10.66
6/16/2024 5:45:00 PM 25.26 77.468 0.221 8.99 72.77 10.61
6/16/2024 6:00:00 PM 25.22 77.396 0.229 9.02 72.34 10.54
6/16/2024 6:15:00 PM 25.17 77.306 0.228 9.06 75.99 10.51
6/16/2024 6:30:00 PM 25.06 77.108 0.225 9.09 79.83 10.44
6/16/2024 6:45:00 PM 24.97 76.946 0.225 9.09 78.41 10.33
6/16/2024 7:00:00 PM 24.85 76.73 0.226 9.1 77.69 10.19
6/16/2024 7:15:00 PM 24.71 76.478 0.221 9.08 78.57 10.08
6/16/2024 7:30:00 PM 24.59 76.262 0.226 9.04 77.62 9.97
6/16/2024 7:45:00 PM 24.47 76.046 0.225 9 79.17 9.83
6/16/2024 8:00:00 PM 24.38 75.884 0.225 8.95 79.79 9.71
6/16/2024 8:15:00 PM 24.25 75.65 0.222 8.88 81.1 9.62
6/16/2024 8:30:00 PM 24.14 75.452 0.222 8.85 79.53 9.46
6/16/2024 8:45:00 PM 24.01 75.218 0.229 8.8 106.8 9.29
6/16/2024 9:00:00 PM 23.88 74.984 0.228 8.76 107.4 9.18
6/16/2024 9:15:00 PM 23.77 74.786 0.228 8.71 105.6 9.05
6/16/2024 9:30:00 PM 23.66 74.588 0.225 8.67 102.8 8.94
6/16/2024 9:45:00 PM 23.56 74.408 0.228 8.62 103.6 8.75
6/16/2024 10:00:00 PM 23.47 74.246 0.228 8.58 104.7 8.65
6/16/2024 10:15:00 PM 23.37 74.066 0.228 8.53 105.8 8.52
6/16/2024 10:30:00 PM 23.29 73.922 0.228 8.48 108.1 8.46
6/16/2024 10:45:00 PM 23.24 73.832 0.228 8.44 111.6 8.32
6/16/2024 11:00:00 PM 23.13 73.634 0.228 8.39 103.1 8.17
6/16/2024 11:15:00 PM 23.09 73.562 0.228 8.33 105.8 8.14
6/16/2024 11:30:00 PM 22.99 73.382 0.228 8.3 105.7 8.04
6/16/2024 11:45:00 PM 22.92 73.256 0.228 8.25 106.1 8
6/17/2024 12:00:00 AM 22.85 73.13 0.228 8.19 105.2 7.9
6/17/2024 12:15:00 AM 22.78 73.004 0.227 8.15 100.3 7.84
6/17/2024 12:30:00 AM 22.71 72.878 0.228 8.13 101.4 7.73
6/17/2024 12:45:00 AM 22.68 72.824 0.228 8.09 101.1 7.7
6/17/2024 1:00:00 AM 22.61 72.698 0.228 8.05 101 7.62
6/17/2024 1:15:00 AM 22.6 72.68 0.228 8.02 103.2 7.58
6/17/2024 1:30:00 AM 22.53 72.554 0.227 7.98 97 7.47
6/17/2024 1:45:00 AM 22.52 72.536 0.228 7.96 278.1 7.42
6/17/2024 2:00:00 AM 22.48 72.464 0.228 7.93 92.94 7.36
6/17/2024 2:15:00 AM 22.45 72.41 0.228 7.91 92.65 7.28
6/17/2024 2:30:00 AM 22.43 72.374 0.228 7.88 92.72 7.26
6/17/2024 2:45:00 AM 22.38 72.284 0.228 7.86 93.12 7.24
6/17/2024 3:00:00 AM 22.36 72.248 0.228 7.84 95 7.22
6/17/2024 3:15:00 AM 22.33 72.194 0.228 7.83 98.37 7.02
6/17/2024 3:30:00 AM 22.35 72.23 0.228 7.81 96.5 6.99
6/17/2024 3:45:00 AM 22.31 72.158 0.228 7.8 96.87 7.1
6/17/2024 4:00:00 AM 22.27 72.086 0.228 7.78 96.1 7.06
6/17/2024 4:15:00 AM 22.29 72.122 0.228 7.77 97.26 7.06
6/17/2024 4:30:00 AM 22.27 72.086 0.228 7.76 98.12 7.06
6/17/2024 4:45:00 AM 22.22 71.996 0.228 7.74 98.56 7.03
6/17/2024 5:00:00 AM 22.16 71.888 0.228 7.73 98.87 6.99
6/17/2024 5:15:00 AM 22.12 71.816 0.228 7.73 97.3 6.94
6/17/2024 5:30:00 AM 22.09 71.762 0.229 7.71 97.29 6.92
6/17/2024 5:45:00 AM 22.04 71.672 0.229 7.7 97.82 6.88
6/17/2024 6:00:00 AM 22.01 71.618 0.221 7.69 97.23 6.86
6/17/2024 6:15:00 AM 21.99 71.582 0.22 7.67 95.54 6.87
6/17/2024 6:30:00 AM 21.91 71.438 0.229 7.66 91.22 6.8
6/17/2024 6:45:00 AM 21.85 71.33 0.229 7.65 85.59 6.82
6/17/2024 7:00:00 AM 21.86 71.348 0.229 7.63 79.35 6.83
6/17/2024 7:15:00 AM 21.86 71.348 0.229 7.65 78.25 6.83
6/17/2024 7:30:00 AM 21.82 71.276 0.229 7.63 76.33 6.84
6/17/2024 7:45:00 AM 21.82 71.276 0.229 7.62 67.37 6.81
6/17/2024 8:00:00 AM 21.79 71.222 0.229 7.63 59.93 6.86
6/17/2024 8:15:00 AM 21.81 71.258 0.229 7.63 58.03 6.85
6/17/2024 8:30:00 AM 21.82 71.276 0.229 7.63 53.77 6.87
6/17/2024 8:45:00 AM 21.84 71.312 0.228 7.63 53.41 6.94
6/17/2024 9:00:00 AM 21.84 71.312 0.227 7.63 52.01 7
6/17/2024 9:15:00 AM 21.86 71.348 0.228 7.65 58.13 7.05
6/17/2024 9:30:00 AM 21.89 71.402 0.229 7.65 53.7 7.17
6/17/2024 9:45:00 AM 21.9 71.42 0.228 7.65 51.58 7.2
6/17/2024 10:00:00 AM 21.95 71.51 0.228 7.67 51.43 7.38
6/17/2024 10:15:00 AM 22.07 71.726 0.228 7.68 51.76 7.48
6/17/2024 10:30:00 AM 22.17 71.906 0.227 7.7 51.17 7.61
6/17/2024 10:45:00 AM 22.27 72.086 0.227 7.71 52.77 7.8
6/17/2024 11:00:00 AM 22.48 72.464 0.228 7.74 52.6 7.97
6/17/2024 11:15:00 AM 22.64 72.752 0.227 7.76 41.69 8.23
6/17/2024 11:30:00 AM 22.82 73.076 0.227 7.8 41.9 8.37
6/17/2024 11:45:00 AM 23.11 73.598 0.227 7.83 42.07 8.55
6/17/2024 12:00:00 PM 23.41 74.138 0.227 7.87 42.81 8.77
6/17/2024 12:15:00 PM 23.69 74.642 0.227 7.92 44.24 8.97
6/17/2024 12:30:00 PM 23.96 75.128 0.227 7.97 40.63 9.13
6/17/2024 12:45:00 PM 24.25 75.65 0.227 8.03 41.09 9.25
6/17/2024 1:00:00 PM 24.62 76.316 0.227 8.09 41.54 9.47
6/17/2024 1:15:00 PM 24.92 76.856 0.227 8.17 41.45 9.64
6/17/2024 1:30:00 PM 25.17 77.306 0.227 8.24 42.26 9.78
6/17/2024 1:45:00 PM 25.5 77.9 0.227 8.31 42.05 9.91
6/17/2024 2:00:00 PM 25.74 78.332 0.22 8.38 37.68 9.96
6/17/2024 2:15:00 PM 26.05 78.89 0.227 8.45 37.6 10.08
6/17/2024 2:30:00 PM 26.18 79.124 0.227 8.52 38.14 10.16
6/17/2024 2:45:00 PM 26.44 79.592 0.221 8.6 37.96 10.23
6/17/2024 3:00:00 PM 26.72 80.096 0.226 8.67 39.58 10.31
6/17/2024 3:15:00 PM 26.97 80.546 0.227 8.74 39.55 10.37
6/17/2024 3:30:00 PM 27.04 80.672 0.227 8.82 39.98 10.44
6/17/2024 3:45:00 PM 27.31 81.158 0.227 8.87 38.62 10.48
6/17/2024 4:00:00 PM 27.39 81.302 0.225 8.94 36.9 10.52
6/17/2024 4:15:00 PM 27.49 81.482 0.217 9.02 36.78 10.51
6/17/2024 4:30:00 PM 27.57 81.626 0.227 9.08 36.89 10.59
6/17/2024 4:45:00 PM 27.71 81.878 0.227 9.11 38.16 10.62
6/17/2024 5:00:00 PM 27.7 81.86 0.227 9.13 37.61 10.61
6/17/2024 5:15:00 PM 27.69 81.842 0.227 9.17 37.73 10.61
6/17/2024 5:30:00 PM 27.72 81.896 0.227 9.18 37.87 10.53
6/17/2024 5:45:00 PM 27.63 81.734 0.227 9.19 38.08 10.41
6/17/2024 6:00:00 PM 27.52 81.536 0.227 9.2 38.2 10.46
6/17/2024 6:15:00 PM 27.46 81.42799 0.22 9.2 38.17 10.34
6/17/2024 6:30:00 PM 27.29 81.122 0.215 9.22 37.89 10.28
6/17/2024 6:45:00 PM 27.18 80.924 0.224 9.22 38.66 10.24
6/17/2024 7:00:00 PM 27.05 80.69 0.227 9.21 37.98 10.17
6/17/2024 7:15:00 PM 26.93 80.474 0.227 9.16 38.05 10.01
6/17/2024 7:30:00 PM 26.83 80.294 0.227 9.16 38.69 9.86
6/17/2024 7:45:00 PM 26.72 80.096 0.227 9.14 38.83 9.72
6/17/2024 8:00:00 PM 26.6 79.88 0.228 9.11 38.43 9.55
6/17/2024 8:15:00 PM 26.51 79.718 0.228 9.07 38.79 9.43
6/17/2024 8:30:00 PM 26.42 79.556 0.228 9.04 39.16 9.25
6/17/2024 8:45:00 PM 26.32 79.376 0.228 9 39.1 9.15
6/17/2024 9:00:00 PM 26.24 79.232 0.228 8.95 39.22 8.99
6/17/2024 9:15:00 PM 26.15 79.07 0.228 8.91 40.64 8.86
6/17/2024 9:30:00 PM 26.07 78.926 0.228 8.85 40.96 8.72
6/17/2024 9:45:00 PM 26 78.8 0.228 8.79 39.7 8.61
6/17/2024 10:00:00 PM 25.93 78.674 0.228 8.74 40.58 8.51
6/17/2024 10:15:00 PM 25.86 78.548 0.229 8.69 40.55 8.3
6/17/2024 10:30:00 PM 25.79 78.422 0.228 8.64 40.22 8.17
6/17/2024 10:45:00 PM 25.72 78.296 0.229 8.58 40.85 8.09
6/17/2024 11:00:00 PM 25.66 78.188 0.229 8.53 41.79 7.98
6/17/2024 11:15:00 PM 25.6 78.08 0.229 8.48 41.49 7.85
6/17/2024 11:30:00 PM 25.53 77.954 0.229 8.43 41.9 7.79
6/17/2024 11:45:00 PM 25.46 77.828 0.229 8.38 39.83 7.68
6/18/2024 12:00:00 AM 25.4 77.72 0.229 8.33 40.19 7.58
6/18/2024 12:15:00 AM 25.33 77.594 0.229 8.28 40.65 7.47
6/18/2024 12:30:00 AM 25.27 77.486 0.229 8.24 41.34 7.3
6/18/2024 12:45:00 AM 25.2 77.36 0.229 8.19 41.8 7.22
6/18/2024 1:00:00 AM 25.13 77.234 0.229 8.15 42.29 7.1
6/18/2024 1:15:00 AM 25.07 77.126 0.229 8.12 42.18 7.02
6/18/2024 1:30:00 AM 25.01 77.018 0.228 8.08 42.61 6.95
6/18/2024 1:45:00 AM 24.97 76.946 0.229 8.05 42.84 6.91
6/18/2024 2:00:00 AM 24.92 76.856 0.229 8.02 43.37 6.84
6/18/2024 2:15:00 AM 24.87 76.766 0.229 7.98 43.41 6.77
6/18/2024 2:30:00 AM 24.84 76.712 0.229 7.96 43.77 6.68
6/18/2024 2:45:00 AM 24.77 76.586 0.229 7.93 44.19 6.64
6/18/2024 3:00:00 AM 24.74 76.532 0.229 7.91 45.05 6.57
6/18/2024 3:15:00 AM 24.72 76.496 0.229 7.89 45.07 6.56
6/18/2024 3:30:00 AM 24.68 76.424 0.23 7.88 45.61 6.51
6/18/2024 3:45:00 AM 24.62 76.316 0.23 7.86 45.93 6.49
6/18/2024 4:00:00 AM 24.57 76.226 0.23 7.84 46.45 6.49
6/18/2024 4:15:00 AM 24.55 76.19 0.23 7.82 46.58 6.44
6/18/2024 4:30:00 AM 24.52 76.136 0.23 7.81 46.62 6.45
6/18/2024 4:45:00 AM 24.48 76.064 0.23 7.8 48.11 6.44
6/18/2024 5:00:00 AM 24.44 75.992 0.23 7.79 47.83 6.41
6/18/2024 5:15:00 AM 24.39 75.902 0.23 7.78 45.78 6.37
6/18/2024 5:30:00 AM 24.38 75.884 0.231 7.76 46.72 6.32
6/18/2024 5:45:00 AM 24.33 75.794 0.231 7.75 46.81 6.31
6/18/2024 6:00:00 AM 24.29 75.722 0.231 7.74 47.56 6.29
6/18/2024 6:15:00 AM 24.23 75.614 0.231 7.72 48.07 6.28
6/18/2024 6:30:00 AM 24.21 75.578 0.231 7.72 48.58 6.3
6/18/2024 6:45:00 AM 24.17 75.506 0.231 7.72 49.41 6.3
6/18/2024 7:00:00 AM 24.14 75.452 0.232 7.71 48.69 6.27
6/18/2024 7:15:00 AM 24.11 75.398 0.232 7.7 50.61 6.21
6/18/2024 7:30:00 AM 24.08 75.344 0.232 7.69 50.58 6.23
6/18/2024 7:45:00 AM 24.07 75.326 0.233 7.68 50.47 6.25
6/18/2024 8:00:00 AM 24.06 75.308 0.233 7.69 50.44 6.24
6/18/2024 8:15:00 AM 24.06 75.308 0.233 7.7 50.48 6.26
6/18/2024 8:30:00 AM 24.04 75.272 0.233 7.7 51.04 6.27
6/18/2024 8:45:00 AM 24.03 75.254 0.233 7.7 51.79 6.34
6/18/2024 9:00:00 AM 24.03 75.254 0.233 7.7 51.33 6.35
6/18/2024 9:15:00 AM 24.04 75.272 0.233 7.71 51.52 6.43
6/18/2024 9:30:00 AM 24.07 75.326 0.233 7.72 52.02 6.5
6/18/2024 9:45:00 AM 24.11 75.398 0.257 7.73 52.77 6.57
6/18/2024 10:00:00 AM 24.18 75.524 0.233 7.74 52.65 6.81
6/18/2024 10:15:00 AM 24.26 75.668 0.233 7.75 53.07 6.9
6/18/2024 10:30:00 AM 24.36 75.848 0.233 7.77 52.96 7.07
6/18/2024 10:45:00 AM 24.46 76.028 0.233 7.79 53.02 7.29
6/18/2024 11:00:00 AM 24.69 76.442 0.233 7.81 57.46 7.45
6/18/2024 11:15:00 AM 24.85 76.73 0.233 7.84 53.47 7.69
6/18/2024 11:30:00 AM 25.08 77.144 0.234 7.87 54.03 7.92
6/18/2024 11:45:00 AM 25.33 77.594 0.233 7.9 54.4 8.12
6/18/2024 12:00:00 PM 25.64 78.152 0.233 7.95 54.3 8.42
6/18/2024 12:15:00 PM 25.94 78.692 0.233 7.99 55.07 8.68
6/18/2024 12:30:00 PM 26.14 79.052 0.233 8.05 55.33 8.82
6/18/2024 12:45:00 PM 26.45 79.61 0.233 8.1 54.62 9.03
6/18/2024 1:00:00 PM 26.77 80.186 0.233 8.16 55.31 9.13
6/18/2024 1:15:00 PM 27.04 80.672 0.233 8.22 52.79 9.38
6/18/2024 1:30:00 PM 27.27 81.086 0.233 8.28 92.04 9.45
6/18/2024 1:45:00 PM 27.56 81.608 0.233 8.36 54.73 9.64
6/18/2024 2:00:00 PM 27.84 82.112 0.233 8.43 55.22 9.71
6/18/2024 2:15:00 PM 28.06 82.508 0.233 8.51 53.39 9.8
6/18/2024 2:30:00 PM 28.16 82.688 0.233 8.58 51.94 9.95
6/18/2024 2:45:00 PM 28.37 83.066 0.233 8.64 52.53 10.04
6/18/2024 3:00:00 PM 28.68 83.624 0.233 8.71 52.22 10.15
6/18/2024 3:15:00 PM 28.68 83.624 0.233 8.77 52.03 10.17
6/18/2024 3:30:00 PM 28.74 83.732 0.233 8.83 51.61 10.13
6/18/2024 3:45:00 PM 28.83 83.894 0.233 8.88 51.88 10.17
6/18/2024 4:00:00 PM 29.03 84.25401 0.233 8.93 52.67 10.2
6/18/2024 4:15:00 PM 29.19 84.542 0.233 8.97 53.35 10.29
6/18/2024 4:30:00 PM 29.25 84.65 0.233 9.02 53.37 10.34
6/18/2024 4:45:00 PM 29.12 84.416 0.233 9.06 53.13 10.19
6/18/2024 5:00:00 PM 29.22 84.59599 0.233 9.07 47.8 10.26
6/18/2024 5:15:00 PM 29.28 84.704 0.233 9.1 45.69 10.26
6/18/2024 5:30:00 PM 29.26 84.668 0.233 9.12 45.74 10.24
6/18/2024 5:45:00 PM 29.18 84.524 0.233 9.13 45.98 10.1
6/18/2024 6:00:00 PM 29.2 84.56001 0.233 9.15 45.6 10.03
6/18/2024 6:15:00 PM 29.03 84.25401 0.233 9.15 46.91 10.05
6/18/2024 6:30:00 PM 28.99 84.182 0.231 9.15 48.2 9.93
6/18/2024 6:45:00 PM 28.92 84.056 0.233 9.14 48.44 9.84
6/18/2024 7:00:00 PM 28.8 83.84 0.233 9.13 48.58 9.7
6/18/2024 7:15:00 PM 28.7 83.66 0.234 9.11 48.26 9.54
6/18/2024 7:30:00 PM 28.59 83.462 0.233 9.08 50.83 9.45
6/18/2024 7:45:00 PM 28.48 83.264 0.234 9.04 50.42 9.27
6/18/2024 8:00:00 PM 28.37 83.066 0.234 9.01 52.46 9.17
6/18/2024 8:15:00 PM 28.25 82.85 0.234 8.98 53.08 9
6/18/2024 8:30:00 PM 28.17 82.706 0.234 8.93 53.23 8.83
6/18/2024 8:45:00 PM 28.07 82.526 0.233 8.89 54.26 8.72
6/18/2024 9:00:00 PM 27.99 82.382 0.234 8.85 57.76 8.55
6/18/2024 9:15:00 PM 27.9 82.22 0.235 8.81 47.42 8.45
6/18/2024 9:30:00 PM 27.82 82.076 0.231 8.75 48.55 8.31
6/18/2024 9:45:00 PM 27.75 81.95 0.235 8.71 47.78 8.2
6/18/2024 10:00:00 PM 27.66 81.788 0.235 8.65 48.56 8.05
6/18/2024 10:15:00 PM 27.57 81.626 0.235 8.6 48.45 7.9
6/18/2024 10:30:00 PM 27.51 81.518 0.235 8.55 49.46 7.81
6/18/2024 10:45:00 PM 27.42 81.356 0.235 8.49 44.75 7.68
6/18/2024 11:00:00 PM 27.36 81.248 0.235 8.43 47.57 7.57
6/18/2024 11:15:00 PM 27.29 81.122 0.236 8.38 110.5 7.4
6/18/2024 11:30:00 PM 27.22 80.996 0.236 8.33 47.63 7.32
6/18/2024 11:45:00 PM 27.12 80.816 0.236 8.28 47.81 7.19
6/19/2024 12:00:00 AM 27.04 80.672 0.235 8.23 41.88 7.12
6/19/2024 12:15:00 AM 26.96 80.528 0.236 8.18 43.05 7.05
6/19/2024 12:30:00 AM 26.89 80.402 0.237 8.14 42.61 6.95
6/19/2024 12:45:00 AM 26.81 80.258 0.237 8.1 43.72 6.81
6/19/2024 1:00:00 AM 26.73 80.114 0.237 8.06 44.27 6.7
6/19/2024 1:15:00 AM 26.67 80.006 0.237 8.02 44.43 6.65
6/19/2024 1:30:00 AM 26.58 79.844 0.237 7.98 44.38 6.55
6/19/2024 1:45:00 AM 26.52 79.736 0.237 7.95 41.45 6.37
6/19/2024 2:00:00 AM 26.46 79.628 0.237 7.92 42.12 6.37
6/19/2024 2:15:00 AM 26.4 79.52 0.237 7.9 40.67 6.33
6/19/2024 2:30:00 AM 26.33 79.394 0.237 7.87 40.26 6.29
6/19/2024 2:45:00 AM 26.28 79.304 0.237 7.85 40.29 6.23
6/19/2024 3:00:00 AM 26.21 79.17799 0.237 7.83 38.89 6.2
6/19/2024 3:15:00 AM 26.14 79.052 0.237 7.81 39.96 6.15
6/19/2024 3:30:00 AM 26.09 78.962 0.237 7.8 39.62 6.08
6/19/2024 3:45:00 AM 26.03 78.854 0.237 7.78 38.73 6.09
6/19/2024 4:00:00 AM 25.99 78.782 0.237 7.76 39.24 6.02
6/19/2024 4:15:00 AM 25.94 78.692 0.237 7.75 39.02 6.01
6/19/2024 4:30:00 AM 25.88 78.584 0.237 7.74 40.33 5.98
6/19/2024 4:45:00 AM 25.84 78.512 0.237 7.72 40.46 5.95
6/19/2024 5:00:00 AM 25.78 78.404 0.237 7.72 40.26 5.94
6/19/2024 5:15:00 AM 25.72 78.296 0.237 7.71 38.49 5.9
6/19/2024 5:30:00 AM 25.67 78.206 0.237 7.69 38.21 5.84
6/19/2024 5:45:00 AM 25.62 78.116 0.235 7.68 39.04 5.74
6/19/2024 6:00:00 AM 25.59 78.062 0.235 7.67 38.59 5.76
6/19/2024 6:15:00 AM 25.51 77.918 0.237 7.66 39.44 5.7
6/19/2024 6:30:00 AM 25.46 77.828 0.237 7.66 39.74 5.72
6/19/2024 6:45:00 AM 25.41 77.738 0.237 7.65 41.41 5.77
6/19/2024 7:00:00 AM 25.36 77.648 0.237 7.64 40.56 5.72
6/19/2024 7:15:00 AM 25.33 77.594 0.237 7.64 40.03 5.77
6/19/2024 7:30:00 AM 25.3 77.54 0.237 7.64 40.77 5.72
6/19/2024 7:45:00 AM 25.25 77.45 0.237 7.64 39.96 5.71
6/19/2024 8:00:00 AM 25.24 77.432 0.237 7.64 39.84 5.73
6/19/2024 8:15:00 AM 25.2 77.36 0.237 7.64 40.11 5.73
6/19/2024 8:30:00 AM 25.17 77.306 0.237 7.63 40.44 5.74
6/19/2024 8:45:00 AM 25.16 77.288 0.237 7.64 41.09 5.77
6/19/2024 9:00:00 AM 25.15 77.27 0.237 7.65 39.71 5.82
6/19/2024 9:15:00 AM 25.16 77.288 0.237 7.65 41.25 5.85
6/19/2024 9:30:00 AM 25.15 77.27 0.237 7.66 43.68 5.93
6/19/2024 9:45:00 AM 25.19 77.342 0.237 7.66 44.55 5.98
6/19/2024 10:00:00 AM 25.24 77.432 0.237 7.68 44.97 6.17
6/19/2024 10:15:00 AM 25.34 77.612 0.237 7.7 45.34 6.33
6/19/2024 10:30:00 AM 25.43 77.774 0.237 7.71 45.77 6.48
6/19/2024 10:45:00 AM 25.55 77.99 0.237 7.74 45.37 6.67
6/19/2024 11:00:00 AM 25.73 78.314 0.237 7.75 46.32 6.84
6/19/2024 11:15:00 AM 25.87 78.566 0.237 7.78 45.79 6.9
6/19/2024 11:30:00 AM 26.13 79.034 0.237 7.8 46.11 7.25
6/19/2024 11:45:00 AM 26.39 79.502 0.237 7.83 46.41 7.51
6/19/2024 12:00:00 PM 26.72 80.096 0.237 7.86 46.56 7.78
6/19/2024 12:15:00 PM 27.01 80.618 0.237 7.91 42.21 8.08
6/19/2024 12:30:00 PM 27.27 81.086 0.237 7.95 41.96 7.45
6/19/2024 12:45:00 PM 27.56 81.608 0.237 8 42.36 7.8
6/19/2024 1:00:00 PM 27.86 82.148 0.237 8.05 42.81 8.74
6/19/2024 1:15:00 PM 28.12 82.616 0.237 8.12 42.88 8.71
6/19/2024 1:30:00 PM 28.42 83.156 0.237 8.19 43.05 9.09
6/19/2024 1:45:00 PM 28.66 83.588 0.237 8.26 43.29 9.22
6/19/2024 2:00:00 PM 28.92 84.056 0.237 8.32 43.81 9.4
6/19/2024 2:15:00 PM 29.15 84.47 0.237 8.38 41.95 9.45
6/19/2024 2:30:00 PM 29.38 84.884 0.237 8.46 38.68 9.54
6/19/2024 2:45:00 PM 29.57 85.226 0.237 8.51 38.07 9.59
6/19/2024 3:00:00 PM 29.74 85.532 0.237 8.58 37.5 9.61
6/19/2024 3:15:00 PM 29.99 85.982 0.237 8.64 37.57 9.67
6/19/2024 3:30:00 PM 30.1 86.18 0.238 8.7 37.78 9.77
6/19/2024 3:45:00 PM 30.28 86.50401 0.237 8.75 38.94 9.82
6/19/2024 4:00:00 PM 30.41 86.738 0.237 8.81 37.58 9.85
6/19/2024 4:15:00 PM 30.48 86.864 0.237 8.87 37.98 9.87
6/19/2024 4:30:00 PM 30.48 86.864 0.237 8.9 38.5 9.83
6/19/2024 4:45:00 PM 30.5 86.9 0.237 8.94 39.41 9.92
6/19/2024 5:00:00 PM 30.53 86.954 0.236 8.96 38.8 9.89
6/19/2024 5:15:00 PM 30.52 86.936 0.237 8.98 42.52 9.83
6/19/2024 5:30:00 PM 30.35 86.63 0.237 9 40.64 9.76
6/19/2024 5:45:00 PM 30.24 86.432 0.238 9.02 36.75 9.75
6/19/2024 6:00:00 PM 30.05 86.09 0.237 9.02 37.27 9.66
6/19/2024 6:15:00 PM 29.95 85.91 0.237 9 37.36 9.55
6/19/2024 6:30:00 PM 29.87 85.76601 0.237 8.99 386.1 9.47
6/19/2024 6:45:00 PM 29.74 85.532 0.237 8.98 37.12 9.43
6/19/2024 7:00:00 PM 29.6 85.28 0.238 8.93 59.12 9.25
6/19/2024 7:15:00 PM 29.49 85.082 0.238 8.92 74.07 9.16
6/19/2024 7:30:00 PM 29.36 84.848 0.238 8.88 92.48 8.99
6/19/2024 7:45:00 PM 29.23 84.614 0.238 8.83 38.59 8.83
6/19/2024 8:00:00 PM 29.09 84.362 0.238 8.81 38.67 8.79
6/19/2024 8:15:00 PM 28.99 84.182 0.239 8.77 38.79 8.65
6/19/2024 8:30:00 PM 28.87 83.966 0.239 8.73 36.9 8.52
6/19/2024 8:45:00 PM 28.72 83.696 0.239 8.69 36.14 8.37
6/19/2024 9:00:00 PM 28.59 83.462 0.239 8.65 36.85 8.25
6/19/2024 9:15:00 PM 28.46 83.228 0.239 8.61 37.09 8.14
6/19/2024 9:30:00 PM 28.35 83.03 0.24 8.56 37.54 8.04
6/19/2024 9:45:00 PM 28.22 82.796 0.24 8.5 40.03 7.89
6/19/2024 10:00:00 PM 28.11 82.598 0.24 8.45 38.14 7.76
6/19/2024 10:15:00 PM 27.99 82.382 0.22 8.4 38.15 7.69
6/19/2024 10:30:00 PM 27.88 82.184 0.241 8.35 38.85 7.52
6/19/2024 10:45:00 PM 27.8 82.04 0.215 8.31 38.79 7.52
6/19/2024 11:00:00 PM 27.69 81.842 0.235 8.27 39.12 7.42
6/19/2024 11:15:00 PM 27.57 81.626 0.232 8.23 39.64 7.32
6/19/2024 11:30:00 PM 27.51 81.518 0.235 8.2 39.47 7.26
6/19/2024 11:45:00 PM 27.41 81.338 0.241 8.15 39.95 7.11
6/20/2024 12:00:00 AM 27.31 81.158 0.241 8.12 40.12 7.05
6/20/2024 12:15:00 AM 27.21 80.978 0.241 8.08 41.45 6.94
6/20/2024 12:30:00 AM 27.12 80.816 0.242 8.04 39.65 6.85
6/20/2024 12:45:00 AM 27.03 80.654 0.241 8.01 40.07 6.78
6/20/2024 1:00:00 AM 26.92 80.456 0.242 7.98 40.54 6.72
6/20/2024 1:15:00 AM 26.85 80.33 0.242 7.95 41.35 6.62
6/20/2024 1:30:00 AM 26.76 80.168 0.24 7.92 178.8 6.56
6/20/2024 1:45:00 AM 26.63 79.934 0.243 7.9 41.36 6.52
6/20/2024 2:00:00 AM 26.57 79.826 0.243 7.87 40.37 6.44
6/20/2024 2:15:00 AM 26.43 79.574 0.243 7.85 39.38 6.39
6/20/2024 2:30:00 AM 26.41 79.538 0.243 7.83 39.86 6.33
6/20/2024 2:45:00 AM 26.32 79.376 0.243 7.81 40.03 6.31
6/20/2024 3:00:00 AM 26.24 79.232 0.242 7.78 40.85 6.22
6/20/2024 3:15:00 AM 26.15 79.07 0.243 7.77 39.49 6.2
6/20/2024 3:30:00 AM 26.09 78.962 0.241 7.76 39.9 6.16
6/20/2024 3:45:00 AM 26 78.8 0.243 7.74 38.66 6.14
6/20/2024 4:00:00 AM 25.93 78.674 0.24 7.72 39.08 6.14
6/20/2024 4:15:00 AM 25.86 78.548 0.24 7.71 39.85 6.08
6/20/2024 4:30:00 AM 25.81 78.458 0.244 7.69 40.36 6.07
6/20/2024 4:45:00 AM 25.71 78.278 0.242 7.68 40.89 6.01
6/20/2024 5:00:00 AM 25.65 78.17 0.241 7.67 41.11 5.98
6/20/2024 5:15:00 AM 25.57 78.026 0.216 7.66 41.68 5.96
6/20/2024 5:30:00 AM 25.52 77.936 0.244 7.65 40.41 5.95
6/20/2024 5:45:00 AM 25.49 77.882 0.236 7.65 40.81 5.94
6/20/2024 6:00:00 AM 25.42 77.756 0.243 7.63 39.7 5.91
6/20/2024 6:15:00 AM 25.32 77.576 0.218 7.63 39.51 5.9
6/20/2024 6:30:00 AM 25.34 77.612 0.213 7.62 39.88 5.93
6/20/2024 6:45:00 AM 25.3 77.54 0.241 7.62 40.42 5.92
6/20/2024 7:00:00 AM 25.19 77.342 0.242 7.61 40.02 5.92
6/20/2024 7:15:00 AM 25.21 77.378 0.233 7.61 40.49 5.95
6/20/2024 7:30:00 AM 25.2 77.36 0.239 7.6 40.77 5.97
6/20/2024 7:45:00 AM 25.16 77.288 0.229 7.6 40.74 5.98
6/20/2024 8:00:00 AM 25.17 77.306 0.24 7.61 40.9 6.02
6/20/2024 8:15:00 AM 25.13 77.234 0.237 7.61 40.89 6.03
6/20/2024 8:30:00 AM 25.13 77.234 0.24 7.61 40.89 6.05
6/20/2024 8:45:00 AM 25.1 77.18 0.218 7.62 40.35 6.08
6/20/2024 9:00:00 AM 25.11 77.198 0.215 7.62 41.58 6.13
6/20/2024 9:15:00 AM 25.05 77.09 0.242 7.63 40.89 6.14
6/20/2024 9:30:00 AM 25.06 77.108 0.233 7.64 41.42 6.19
6/20/2024 9:45:00 AM 25.08 77.144 0.228 7.64 41.21 6.24
6/20/2024 10:00:00 AM 25.14 77.252 0.202 7.65 40.86 6.35
6/20/2024 10:15:00 AM 25.18 77.324 0.238 7.67 40.71 6.46
6/20/2024 10:30:00 AM 25.3 77.54 0.209 7.69 39.3 6.66
6/20/2024 10:45:00 AM 25.34 77.612 0.233 7.7 38.63 6.76
6/20/2024 11:00:00 AM 25.58 78.044 0.229 7.72 38.63 7.01
6/20/2024 11:15:00 AM 25.73 78.314 0.215 7.75 39.2 7.27
6/20/2024 11:30:00 AM 25.99 78.782 0.222 7.78 38.77 7.48
6/20/2024 11:45:00 AM 26.36 79.448 0.19 7.8 39.19 7.82
6/20/2024 12:00:00 PM 26.58 79.844 0.21 7.85 39.01 7.97
6/20/2024 12:15:00 PM 26.9 80.42 0.238 7.9 39.24 8.25
6/20/2024 12:30:00 PM 27.19 80.942 0.241 7.96 39.03 8.48
6/20/2024 12:45:00 PM 27.41 81.338 0.237 8.02 39.19 8.66
6/20/2024 1:00:00 PM 27.58 81.644 0.227 8.08 38.96 8.83
6/20/2024 1:15:00 PM 27.93 82.274 0.223 8.15 39.18 9
6/20/2024 1:30:00 PM 28.19 82.742 0.229 8.21 39.4 9.15
6/20/2024 1:45:00 PM 28.5 83.3 0.201 8.29 39.46 9.29
6/20/2024 2:00:00 PM 28.71 83.67799 0.235 8.35 86.37 9.43
6/20/2024 2:15:00 PM 28.94 84.092 0.217 8.42 39.06 9.53
6/20/2024 2:30:00 PM 29.26 84.668 0.194 8.48 38.7 9.65
6/20/2024 2:45:00 PM 29.44 84.992 0.23 8.55 38.56 9.73
6/20/2024 3:00:00 PM 29.6 85.28 0.232 8.61 42.04 9.79
6/20/2024 3:15:00 PM 29.81 85.658 0.198 8.65 38.66 9.89
6/20/2024 3:30:00 PM 29.97 85.946 0.176 8.71 38.77 9.96
6/20/2024 3:45:00 PM 30.2 86.36 0.173 8.77 38.5 10.07
6/20/2024 4:00:00 PM 30.33 86.594 0.152 8.82 38.6 10.09
6/20/2024 4:15:00 PM 30.42 86.756 0.193 8.86 38.52 10.21
6/20/2024 4:30:00 PM 30.57 87.026 0.198 8.89 38.44 10.19
6/20/2024 4:45:00 PM 30.58 87.044 0.183 8.95 38.65 10.21
6/20/2024 5:00:00 PM 30.61 87.098 0.199 8.96 38.78 10.19
6/20/2024 5:15:00 PM 30.61 87.098 0.14 8.97 42.24 10.12
6/20/2024 5:30:00 PM 30.53 86.954 0.19 9 55.18 10.05
6/20/2024 5:45:00 PM 30.47 86.84599 0.12 9 38.95 9.98
6/20/2024 6:00:00 PM 30.38 86.684 0.13 8.98 39.12 9.88
6/20/2024 6:15:00 PM 30.27 86.486 0.123 8.98 39.03 9.73
6/20/2024 6:30:00 PM 30.17 86.306 0.181 8.97 39.19 9.59
6/20/2024 6:45:00 PM 30.09 86.162 0.115 8.94 39.18 9.49
6/20/2024 7:00:00 PM 29.91 85.838 0.105 8.94 39.63 9.34
6/20/2024 7:15:00 PM 29.75 85.55 0.155 8.92 39.1 9.12
6/20/2024 7:30:00 PM 29.62 85.316 0.157 8.88 38.67 8.99
6/20/2024 7:45:00 PM 29.48 85.064 0.148 8.84 38.96 8.8
6/20/2024 8:00:00 PM 29.37 84.866 0.098 8.78 38.98 8.63
6/20/2024 8:15:00 PM 29.23 84.614 0.07 8.72 38.83 8.5
6/20/2024 8:30:00 PM 29.09 84.362 0.012 8.67 38.95 8.37
6/20/2024 8:45:00 PM 28.96 84.128 0.048 8.59 40.03 8.15
6/20/2024 9:00:00 PM 28.83 83.894 0.09 8.52 40.58 8.01
6/20/2024 9:15:00 PM 28.69 83.642 0.086 8.48 40.64 7.9
6/20/2024 9:30:00 PM 28.57 83.426 0.052 8.42 41.05 7.78
6/20/2024 9:45:00 PM 28.47 83.24599 0.096 8.37 39.95 7.7
6/20/2024 10:00:00 PM 28.33 82.994 0.026 8.32 40.36 7.56
6/20/2024 10:15:00 PM 28.23 82.814 0.082 8.28 40.87 7.46
6/20/2024 10:30:00 PM 28.13 82.634 0.01 8.23 41.56 7.37
6/20/2024 10:45:00 PM 28.05 82.49 0.03 8.2 40.53 7.31
6/20/2024 11:00:00 PM 27.93 82.274 0.056 8.15 136.9 7.15
6/20/2024 11:15:00 PM 27.85 82.13 0.024 8.11 40.86 7.07
6/20/2024 11:30:00 PM 27.76 81.968 0.068 8.08 41.61 6.97
6/20/2024 11:45:00 PM 27.64 81.752 0.055 8.04 40.76 6.91
6/21/2024 12:00:00 AM 27.56 81.608 0.037 8.03 41.3 6.81
6/21/2024 12:15:00 AM 27.46 81.42799 0.003 8.01 41.07 6.75
6/21/2024 12:30:00 AM 27.4 81.32 0.045 7.98 41.84 6.71
6/21/2024 12:45:00 AM 27.32 81.176 0.02 7.97 42.08 6.6
6/21/2024 1:00:00 AM 27.23 81.014 0.023 7.95 41.4 6.51
6/21/2024 1:15:00 AM 27.16 80.888 0.061 7.93 42.43 6.47
6/21/2024 1:30:00 AM 27.04 80.672 0.011 7.9 43.69 6.4
6/21/2024 1:45:00 AM 26.99 80.582 0.018 7.88 43.18 6.33
6/21/2024 2:00:00 AM 26.92 80.456 0.015 7.86 42.91 6.29
6/21/2024 2:15:00 AM 26.81 80.258 0.002 7.86 41.8 6.21
6/21/2024 2:30:00 AM 26.73 80.114 0.023 7.84 42.88 6.15
6/21/2024 2:45:00 AM 26.64 79.952 0.005 7.83 42.27 6.13
6/21/2024 3:00:00 AM 26.57 79.826 0.047 7.83 41.88 6.1
6/21/2024 3:15:00 AM 26.49 79.682 0.035 7.81 43.54 6.05
6/21/2024 3:30:00 AM 26.46 79.628 0.013 7.8 43.11 6.03
6/21/2024 3:45:00 AM 26.36 79.448 0.023 7.79 42.18 5.99
6/21/2024 4:00:00 AM 26.27 79.286 0.029 7.79 42.27 5.94
6/21/2024 4:15:00 AM 26.24 79.232 0.01 7.77 42.43 5.93
6/21/2024 4:30:00 AM 26.15 79.07 0.008 7.77 42.54 5.91
6/21/2024 4:45:00 AM 26.12 79.016 0.017 7.77 43.81 5.87
6/21/2024 5:00:00 AM 26 78.8 0.014 7.76 43.41 5.83
6/21/2024 5:15:00 AM 25.94 78.692 0.016 7.75 43.58 5.85
6/21/2024 5:30:00 AM 25.94 78.692 0.005 7.75 44.34 5.85
6/21/2024 5:45:00 AM 25.85 78.53 0.008 7.75 60.84 5.78
6/21/2024 6:00:00 AM 25.79 78.422 0 7.76 42.05 5.76
6/21/2024 6:15:00 AM 25.74 78.332 0 7.77 42.58 5.77
6/21/2024 6:30:00 AM 25.68 78.224 0 7.76 42.53 5.76
6/21/2024 6:45:00 AM 25.67 78.206 0.001 7.76 42.89 5.79
6/21/2024 7:00:00 AM 25.63 78.134 0.002 7.75 42.99 5.78
6/21/2024 7:15:00 AM 25.62 78.116 0 7.75 43.31 5.76
6/21/2024 7:30:00 AM 25.6 78.08 0.002 7.77 43.47 5.78
6/21/2024 7:45:00 AM 25.59 78.062 0.011 7.76 42.25 5.75
6/21/2024 8:00:00 AM 25.56 78.008 0.005 7.78 41.97 5.77
6/21/2024 8:15:00 AM 25.55 77.99 0.001 7.78 42.06 5.79
6/21/2024 8:30:00 AM 25.57 78.026 0.001 7.79 40.65 5.81
6/21/2024 8:45:00 AM 25.54 77.972 0.003 7.81 40.85 5.83
6/21/2024 9:00:00 AM 25.56 78.008 0.001 7.81 41.1 5.87
6/21/2024 9:15:00 AM 25.57 78.026 0.002 7.82 40.85 5.93
6/21/2024 9:30:00 AM 25.57 78.026 0.011 7.83 40.36 5.92
6/21/2024 9:45:00 AM 25.6 78.08 0.001 7.85 40.74 6.01
6/21/2024 10:00:00 AM 25.63 78.134 0.013 7.86 40.92 6.11
6/21/2024 10:15:00 AM 25.69 78.242 0.001 7.87 40.66 6.19
6/21/2024 10:30:00 AM 25.82 78.476 0.02 7.87 39.73 6.33
6/21/2024 10:45:00 AM 25.92 78.656 0.009 7.89 40.6 6.45
6/21/2024 11:00:00 AM 26.14 79.052 0.001 7.9 40.49 6.77
6/21/2024 11:15:00 AM 26.35 79.43 0.001 7.91 40.15 6.97
6/21/2024 11:30:00 AM 26.68 80.024 0.011 7.93 40.19 7.26
6/21/2024 11:45:00 AM 26.96 80.528 0.007 7.96 40.85 7.5
6/21/2024 12:00:00 PM 27.3 81.14 0.008 7.98 39.81 7.76
6/21/2024 12:15:00 PM 27.58 81.644 0.001 8.03 39.72 8.03
6/21/2024 12:30:00 PM 27.95 82.31 0.001 8.08 39.67 8.2
6/21/2024 12:45:00 PM 28.17 82.706 0.026 8.11 40.06 8.45
6/21/2024 1:00:00 PM 28.54 83.372 0.005 8.16 40.31 8.62
6/21/2024 1:15:00 PM 28.86 83.948 0.008 8.22 39.85 8.79
6/21/2024 1:30:00 PM 28.97 84.146 0.006 8.26 40.52 8.92
6/21/2024 1:45:00 PM 29.4 84.92 0.008 8.31 42.51 9.09
6/21/2024 2:00:00 PM 29.69 85.442 0.004 8.37 48.51 9.2
6/21/2024 2:15:00 PM 29.93 85.874 0.008 8.41 69.09 9.33
6/21/2024 2:30:00 PM 30.2 86.36 0.017 8.46 128 9.42
6/21/2024 2:45:00 PM 30.29 86.522 0.005 8.52 39.88 9.52
6/21/2024 3:00:00 PM 30.53 86.954 0.003 8.56 40.17 9.56
6/21/2024 3:15:00 PM 30.8 87.43999 0.002 8.62 44.32 9.66
6/21/2024 3:30:00 PM 30.97 87.74599 0.012 8.65 49.84 9.74
6/21/2024 3:45:00 PM 31.15 88.07 0.001 8.7 52.09 9.77
6/21/2024 4:00:00 PM 31.29 88.32201 0.003 8.74 56.71 9.86
6/21/2024 4:15:00 PM 31.39 88.502 0.002 8.78 42.02 9.92
6/21/2024 4:30:00 PM 31.57 88.826 0.015 8.82 38.97 9.89
6/21/2024 4:45:00 PM 31.61 88.89799 0.001 8.85 39.52 9.9
6/21/2024 5:00:00 PM 31.6 88.88 0 8.86 38.8 9.87
6/21/2024 5:15:00 PM 31.51 88.718 0.004 8.9 39.03 9.75
6/21/2024 5:30:00 PM 31.42 88.556 0 8.88 39 9.63
6/21/2024 5:45:00 PM 31.32 88.376 0.003 8.87 38.45 9.58
6/21/2024 6:00:00 PM 31.32 88.376 0.001 8.86 38.39 9.56
6/21/2024 6:15:00 PM 31.2 88.16 0.001 8.85 38.4 9.42
6/21/2024 6:30:00 PM 31.09 87.962 0 8.83 38.47 9.25
6/21/2024 6:45:00 PM 30.97 87.74599 0.001 8.79 38.14 9.17
6/21/2024 7:00:00 PM 30.84 87.512 0 8.8 38.38 8.98
6/21/2024 7:15:00 PM 30.68 87.224 0 8.76 38.63 8.84
6/21/2024 7:30:00 PM 30.58 87.044 0 8.7 39.18 8.65
6/21/2024 7:45:00 PM 30.45 86.81001 0 8.65 38.75 8.49
6/21/2024 8:00:00 PM 30.32 86.576 0 8.62 38.97 8.39
6/21/2024 8:15:00 PM 30.17 86.306 0 8.59 38.56 8.23
6/21/2024 8:30:00 PM 30.05 86.09 0 8.56 38.96 8.09
6/21/2024 8:45:00 PM 29.93 85.874 0 8.49 39.4 7.91
6/21/2024 9:00:00 PM 29.8 85.64 0 8.49 39.47 7.71
6/21/2024 9:15:00 PM 29.67 85.406 0 8.44 39.28 7.64
6/21/2024 9:30:00 PM 29.59 85.262 0 8.44 39.41 7.53
6/21/2024 9:45:00 PM 29.46 85.028 0 8.45 39.73 7.38
6/21/2024 10:00:00 PM 29.33 84.794 0 8.39 40.14 7.3
6/21/2024 10:15:00 PM 29.26 84.668 0 8.4 39.9 7.17
6/21/2024 10:30:00 PM 29.16 84.488 0 8.39 40.23 7.09
6/21/2024 10:45:00 PM 29.08 84.344 0 8.35 40.07 7.03
6/21/2024 11:00:00 PM 28.99 84.182 0 8.28 40.29 6.88
6/21/2024 11:15:00 PM 28.9 84.02 0 8.28 40.17 6.82
6/21/2024 11:30:00 PM 28.79 83.82201 0 8.33 40.77 6.71
6/21/2024 11:45:00 PM 28.74 83.732 0 8.3 40.61 6.61
6/22/2024 12:00:00 AM 28.65 83.57 0 8.3 40.11 6.54
6/22/2024 12:15:00 AM 28.6 83.48 0 8.23 40.86 6.44
6/22/2024 12:30:00 AM 28.5 83.3 0 8.29 41.12 6.41
6/22/2024 12:45:00 AM 28.43 83.174 0 8.26 41.18 6.25
6/22/2024 1:00:00 AM 28.36 83.048 0 8.32 41.71 6.21
6/22/2024 1:15:00 AM 28.28 82.904 0 8.29 42.04 6.18
6/22/2024 1:30:00 AM 28.19 82.742 0 8.28 41.97 6.12
6/22/2024 1:45:00 AM 28.14 82.652 0 8.28 41.46 5.99
6/22/2024 2:00:00 AM 28.04 82.472 0 8.18 40.88 5.99
6/22/2024 2:15:00 AM 27.98 82.364 0 8.25 40.98 5.92
6/22/2024 2:30:00 AM 27.91 82.238 0 8.23 41.04 5.86
6/22/2024 2:45:00 AM 27.84 82.112 0 8.26 41.79 5.79
6/22/2024 3:00:00 AM 27.76 81.968 0 8.28 41.79 5.77
6/22/2024 3:15:00 AM 27.67 81.806 0 8.29 42.94 5.73
6/22/2024 3:30:00 AM 27.6 81.68 0 8.27 42.78 5.69
6/22/2024 3:45:00 AM 27.54 81.57201 0 8.28 41.12 5.62
6/22/2024 4:00:00 AM 27.46 81.42799 0 8.22 41.36 5.6
6/22/2024 4:15:00 AM 27.41 81.338 0 8.3 42.2 5.59
6/22/2024 4:30:00 AM 27.34 81.212 0 8.24 42.7 5.57
6/22/2024 4:45:00 AM 27.27 81.086 0 8.28 43.08 5.54
6/22/2024 5:00:00 AM 27.23 81.014 0 8.28 43.77 5.49
6/22/2024 5:15:00 AM 27.17 80.906 0 8.23 44.65 5.5
6/22/2024 5:30:00 AM 27.1 80.78 0 8.28 44.68 5.44
6/22/2024 5:45:00 AM 27.04 80.672 0 8.19 45.54 5.42
6/22/2024 6:00:00 AM 26.99 80.582 0 8.23 44.8 5.36
6/22/2024 6:15:00 AM 26.96 80.528 0 8.18 46.3 5.39
6/22/2024 6:30:00 AM 26.87 80.366 0 8.28 47.29 5.4
6/22/2024 6:45:00 AM 26.85 80.33 0 8.26 48.39 5.39
6/22/2024 7:00:00 AM 26.83 80.294 0 8.24 48.65 5.41
6/22/2024 7:15:00 AM 26.84 80.312 0 8.24 48.39 5.32
6/22/2024 7:30:00 AM 26.79 80.222 0 8.21 43.91 5.31
6/22/2024 7:45:00 AM 26.79 80.222 0 8.2 43.45 5.3
6/22/2024 8:00:00 AM 26.77 80.186 0 8.22 43.62 5.37
6/22/2024 8:15:00 AM 26.8 80.24 0 8.23 44.07 5.44
6/22/2024 8:30:00 AM 26.8 80.24 0 8.24 43.2 5.5
6/22/2024 8:45:00 AM 26.78 80.204 0 8.3 43.33 5.53
6/22/2024 9:00:00 AM 26.78 80.204 0 8.29 41.4 5.53
6/22/2024 9:15:00 AM 26.8 80.24 0 8.28 41.37 5.63
6/22/2024 9:30:00 AM 26.83 80.294 0 8.27 41.08 5.69
6/22/2024 9:45:00 AM 26.88 80.384 0 8.33 41.18 5.8
6/22/2024 10:00:00 AM 26.9 80.42 0 8.23 39.94 5.79
6/22/2024 10:15:00 AM 27 80.6 0 8.26 41.94 6.04
6/22/2024 10:30:00 AM 27.12 80.816 0 8.29 40.14 6.25
6/22/2024 10:45:00 AM 27.23 81.014 0 8.27 39.71 6.44
6/22/2024 11:00:00 AM 27.37 81.266 0 8.27 39.66 6.65
6/22/2024 11:15:00 AM 27.6 81.68 0 8.25 39.74 6.91
6/22/2024 11:30:00 AM 27.88 82.184 0 8.26 39.72 7.19
6/22/2024 11:45:00 AM 28.15 82.67 0 8.27 39.81 7.43
6/22/2024 12:00:00 PM 28.47 83.24599 0 8.28 40.11 7.71
6/22/2024 12:15:00 PM 28.8 83.84 0 8.2 40.33 7.96
6/22/2024 12:30:00 PM 29.13 84.434 0 8.29 39.74 8.02
6/22/2024 12:45:00 PM 29.43 84.974 0 8.27 39.79 8.44
6/22/2024 1:00:00 PM 29.68 85.424 0 8.27 39.78 8.62
6/22/2024 1:15:00 PM 29.79 85.622 0 8.34 39.71 8.72
6/22/2024 1:30:00 PM 30.02 86.036 0 8.34 5204 8.84
6/22/2024 1:45:00 PM 30.27 86.486 0 8.42 39.5 9.03
6/22/2024 2:00:00 PM 30.65 87.17 0 8.37 39.5 9.19
6/22/2024 2:15:00 PM 30.72 87.296 0 8.41 39.24 9.18
6/22/2024 2:30:00 PM 30.82 87.476 0 8.51 39.47 9.23
6/22/2024 2:45:00 PM 31.04 87.872 0 8.53 39.74 9.36
6/22/2024 3:00:00 PM 31.11 87.998 0 8.56 39.51 9.36
6/22/2024 3:15:00 PM 31.34 88.412 0 8.56 39.67 9.48
6/22/2024 3:30:00 PM 31.56 88.808 0 8.58 39.87 9.55
6/22/2024 3:45:00 PM 31.67 89.006 0 8.6 46.05 9.67
6/22/2024 4:00:00 PM 31.92 89.456 0 8.62 39.11 9.73
6/22/2024 4:15:00 PM 32.09 89.762 0 8.6 39.15 9.76
6/22/2024 4:30:00 PM 32.24 90.032 0 8.58 40.11 9.81
6/22/2024 4:45:00 PM 32.28 90.104 0 8.66 38.8 9.84
6/22/2024 5:00:00 PM 32.23 90.014 0 8.67 38.93 9.68
6/22/2024 5:15:00 PM 32.03 89.654 0 8.65 39.24 9.4
6/22/2024 5:30:00 PM 31.99 89.582 0 8.67 39.03 9.4
6/22/2024 5:45:00 PM 31.8 89.24 0 8.64 39.24 9.11
6/22/2024 6:00:00 PM 31.17 88.106 0.001 8.69 45.74 8.63
6/22/2024 6:15:00 PM 31.05 87.89 0.001 8.7 42.43 8.46
6/22/2024 6:30:00 PM 31.03 87.854 0.035 8.65 48.92 8.44
6/22/2024 6:45:00 PM 30.94 87.692 0.046 8.61 208.9 8.33
6/22/2024 7:00:00 PM 30.82 87.476 0.068 8.54 350.7 8.16
6/22/2024 7:15:00 PM 30.74 87.332 0.169 8.49 467.8 8.03
6/22/2024 7:30:00 PM 30.62 87.116 0.2 8.46 613.1 7.92
6/22/2024 7:45:00 PM 30.5 86.9 0.2 8.41 832.4 7.79
6/22/2024 8:00:00 PM 30.37 86.666 0.256 8.36 1002 7.61
6/22/2024 8:15:00 PM 30.24 86.432 0.232 8.3 41.35 7.48
6/22/2024 8:30:00 PM 30.12 86.216 0.256 8.25 41.06 7.31
6/22/2024 8:45:00 PM 29.99 85.982 0.256 8.19 40.99 7.18
6/22/2024 9:00:00 PM 29.86 85.748 0.23 8.14 41.64 7.04
6/22/2024 9:15:00 PM 29.79 85.622 0.224 8.1 41.04 6.94
6/22/2024 9:30:00 PM 29.69 85.442 0.171 8.04 41.64 6.81
6/22/2024 9:45:00 PM 29.6 85.28 0.085 8 43.6 6.68
6/22/2024 10:00:00 PM 29.49 85.082 0.129 7.97 41.58 6.58
6/22/2024 10:15:00 PM 29.38 84.884 0.083 7.94 42.31 6.47
6/22/2024 10:30:00 PM 29.29 84.722 0.101 7.9 42.63 6.37
6/22/2024 10:45:00 PM 29.18 84.524 0.073 7.87 42.23 6.29
6/22/2024 11:00:00 PM 29.07 84.326 0.135 7.86 42.65 6.16
6/22/2024 11:15:00 PM 28.95 84.11 0.046 7.82 41.6 6.07
6/22/2024 11:30:00 PM 28.85 83.93 0.119 7.79 41.71 5.94
6/22/2024 11:45:00 PM 28.75 83.75 0.19 7.77 41.65 5.85
6/23/2024 12:00:00 AM 28.66 83.588 0.219 7.73 41.69 5.74
6/23/2024 12:15:00 AM 28.58 83.444 0.212 7.72 42.82 5.69
6/23/2024 12:30:00 AM 28.49 83.282 0.204 7.7 42.12 5.56
6/23/2024 12:45:00 AM 28.41 83.138 0.224 7.68 42.88 5.48
6/23/2024 1:00:00 AM 28.3 82.94 0.231 7.67 41.94 5.47
6/23/2024 1:15:00 AM 28.27 82.886 0.245 7.66 42.63 5.4
6/23/2024 1:30:00 AM 28.21 82.778 0.239 7.64 43.8 5.29
6/23/2024 1:45:00 AM 28.15 82.67 0.25 7.61 43 5.28
6/23/2024 2:00:00 AM 28.11 82.598 0.254 7.6 42.88 5.22
6/23/2024 2:15:00 AM 28.03 82.454 0.256 7.58 43.55 5.17
6/23/2024 2:30:00 AM 28 82.4 0.258 7.57 43.77 5.19
6/23/2024 2:45:00 AM 27.98 82.364 0.255 7.56 43.15 5.2
6/23/2024 3:00:00 AM 27.92 82.256 0.258 7.56 42.61 5.16
6/23/2024 3:15:00 AM 27.87 82.166 0.257 7.55 42.67 5.14
6/23/2024 3:30:00 AM 27.86 82.148 0.251 7.55 43.16 5.16
6/23/2024 3:45:00 AM 27.82 82.076 0.259 7.54 43.72 5.12
6/23/2024 4:00:00 AM 27.77 81.986 0.241 7.54 44.1 5.09
6/23/2024 4:15:00 AM 27.74 81.932 0.227 7.53 43.12 5.06
6/23/2024 4:30:00 AM 27.7 81.86 0.219 7.53 43.46 5.04
6/23/2024 4:45:00 AM 27.68 81.824 0.198 7.52 43.45 5.04
6/23/2024 5:00:00 AM 27.64 81.752 0.117 7.52 43.98 5.01
6/23/2024 5:15:00 AM 27.61 81.698 0.215 7.52 44.57 5
6/23/2024 5:30:00 AM 27.54 81.57201 0.121 7.52 43.62 4.95
6/23/2024 5:45:00 AM 27.51 81.518 0.142 7.52 42.58 4.94
6/23/2024 6:00:00 AM 27.44 81.392 0.144 7.51 42.73 4.91
6/23/2024 6:15:00 AM 27.43 81.374 0.084 7.51 42.98 4.92
6/23/2024 6:30:00 AM 27.39 81.302 0.098 7.51 43.39 4.92
6/23/2024 6:45:00 AM 27.38 81.284 0.124 7.51 43.49 4.92
6/23/2024 7:00:00 AM 27.34 81.212 0.085 7.52 42.7 4.92
6/23/2024 7:15:00 AM 27.33 81.194 0.05 7.52 42.88 4.91
6/23/2024 7:30:00 AM 27.3 81.14 0.043 7.53 42.68 4.91
6/23/2024 7:45:00 AM 27.32 81.176 0.031 7.54 42.08 4.98
6/23/2024 8:00:00 AM 27.34 81.212 0.026 7.56 40.99 5.01
6/23/2024 8:15:00 AM 27.32 81.176 0.048 7.57 41.68 5.02
6/23/2024 8:30:00 AM 27.33 81.194 0.012 7.58 41.73 5.09
6/23/2024 8:45:00 AM 27.33 81.194 0.045 7.59 41.44 5.09
6/23/2024 9:00:00 AM 27.34 81.212 0.002 7.61 40.34 5.21
6/23/2024 9:15:00 AM 27.36 81.248 0.011 7.62 40.64 5.25
6/23/2024 9:30:00 AM 27.36 81.248 0 7.64 41.34 5.26
6/23/2024 9:45:00 AM 27.36 81.248 0.015 7.66 41.73 5.37
6/23/2024 10:00:00 AM 27.41 81.338 0.016 7.68 41.54 5.48
6/23/2024 10:15:00 AM 27.47 81.446 0.003 7.68 41.81 5.61
6/23/2024 10:30:00 AM 27.54 81.57201 0.007 7.7 42.22 5.74
6/23/2024 10:45:00 AM 27.65 81.77 0.004 7.72 40.45 5.94
6/23/2024 11:00:00 AM 27.76 81.968 0.002 7.73 40.2 6.14
6/23/2024 11:15:00 AM 27.89 82.202 0.009 7.75 40.51 6.36
6/23/2024 11:30:00 AM 28.05 82.49 0.012 7.77 41.22 6.6
6/23/2024 11:45:00 AM 28.16 82.688 0.024 7.78 40.57 6.79
6/23/2024 12:00:00 PM 28.28 82.904 0.012 7.8 40.69 6.95
6/23/2024 12:15:00 PM 28.45 83.21001 0.007 7.81 41.07 7.19
6/23/2024 12:30:00 PM 28.52 83.336 0.008 7.83 41.04 7.31
6/23/2024 12:45:00 PM 28.67 83.606 0.039 7.87 40.88 7.49
6/23/2024 1:00:00 PM 28.82 83.876 0.028 7.89 42.58 7.68
6/23/2024 1:15:00 PM 28.87 83.966 0.04 7.92 40.98 7.77
6/23/2024 1:30:00 PM 28.91 84.038 0.036 7.95 41.17 7.9
6/23/2024 1:45:00 PM 29.09 84.362 0.027 7.99 41.07 8.1
6/23/2024 2:00:00 PM 29.24 84.632 0.088 8.03 41.22 8.26
6/23/2024 2:15:00 PM 29.19 84.542 0.076 8.08 41.23 8.31
6/23/2024 2:30:00 PM 29.28 84.704 0.077 8.12 41.08 8.38
6/23/2024 2:45:00 PM 29.25 84.65 0.058 8.15 41.61 8.39
6/23/2024 3:00:00 PM 29.36 84.848 0.028 8.18 41.58 8.55
6/23/2024 3:15:00 PM 29.45 85.01 0.05 8.22 41.7 8.3
6/23/2024 3:30:00 PM 29.47 85.046 0.039 8.26 40.97 8.6
6/23/2024 3:45:00 PM 29.53 85.15401 0.087 8.3 40.93 8.67
6/23/2024 4:00:00 PM 29.6 85.28 0.127 8.34 40.98 8.57
6/23/2024 4:15:00 PM 29.55 85.18999 0.032 8.36 58.91 8.66
6/23/2024 4:30:00 PM 29.53 85.15401 0.099 8.38 40.74 8.63
6/23/2024 4:45:00 PM 29.4 84.92 0.134 8.41 40.68 8.57
6/23/2024 5:00:00 PM 29.35 84.83 0.123 8.4 40.66 8.53
6/23/2024 5:15:00 PM 29.21 84.578 0.135 8.39 40.9 8.46
6/23/2024 5:30:00 PM 29.16 84.488 0.08 8.37 40.71 8.37
6/23/2024 5:45:00 PM 29.16 84.488 0.115 8.35 40.98 8.3
6/23/2024 6:00:00 PM 29.12 84.416 0.076 8.32 41.02 8.18
6/23/2024 6:15:00 PM 29.19 84.542 0.055 8.3 40.61 8.24
6/23/2024 6:30:00 PM 29.14 84.452 0.117 8.28 40.96 8.18
6/23/2024 6:45:00 PM 29.08 84.344 0.051 8.29 41.02 8.05
6/23/2024 7:00:00 PM 29.05 84.28999 0.066 8.28 41.24 7.98
6/23/2024 7:15:00 PM 29.04 84.272 0.042 8.27 41.1 7.95
6/23/2024 7:30:00 PM 28.96 84.128 0.082 8.26 41.91 7.84
6/23/2024 7:45:00 PM 28.87 83.966 0.083 8.24 41.87 7.67
6/23/2024 8:00:00 PM 28.78 83.804 0.05 8.2 42.09 7.59
6/23/2024 8:15:00 PM 28.72 83.696 0.079 8.18 41.53 7.48
6/23/2024 8:30:00 PM 28.67 83.606 0.051 8.15 41.31 7.4
6/23/2024 8:45:00 PM 28.59 83.462 0.03 8.12 40.38 7.27
6/23/2024 9:00:00 PM 28.51 83.318 0.034 8.1 40.58 7.11
6/23/2024 9:15:00 PM 28.45 83.21001 0.016 8.07 41.05 7
6/23/2024 9:30:00 PM 28.38 83.084 0.04 8.04 40.75 6.92
6/23/2024 9:45:00 PM 28.3 82.94 0.055 8.01 41.44 6.77
6/23/2024 10:00:00 PM 28.27 82.886 0.011 7.99 41.13 6.69
6/23/2024 10:15:00 PM 28.18 82.724 0.001 7.98 40.88 6.62
6/23/2024 10:30:00 PM 28.17 82.706 0.011 7.96 41.36 6.53
6/23/2024 10:45:00 PM 28.09 82.562 0.02 7.94 41.8 6.45
6/23/2024 11:00:00 PM 28 82.4 0.013 7.93 41.92 6.39
6/23/2024 11:15:00 PM 27.92 82.256 0.014 7.91 41.32 6.31
6/23/2024 11:30:00 PM 27.84 82.112 0.002 7.91 41.93 6.26
6/23/2024 11:45:00 PM 27.82 82.076 0.014 7.91 41.76 6.15
6/24/2024 12:00:00 AM 27.77 81.986 0.004 7.91 41.63 6.09
6/24/2024 12:15:00 AM 27.71 81.878 0 7.91 41.91 6.04
6/24/2024 12:30:00 AM 27.68 81.824 0.002 7.91 42.05 5.98
6/24/2024 12:45:00 AM 27.65 81.77 0.001 7.92 41.31 5.89
6/24/2024 1:00:00 AM 27.59 81.662 0 7.89 42.63 5.81
6/24/2024 1:15:00 AM 27.51 81.518 0.008 7.93 41.48 5.75
6/24/2024 1:30:00 AM 27.48 81.464 0 7.93 41.96 5.71
6/24/2024 1:45:00 AM 27.44 81.392 0 7.95 43.15 5.63
6/24/2024 2:00:00 AM 27.4 81.32 0 7.96 41.71 5.6
6/24/2024 2:15:00 AM 27.33 81.194 0 7.99 42.18 5.51
6/24/2024 2:30:00 AM 27.26 81.068 0 7.96 42.55 5.52
6/24/2024 2:45:00 AM 27.21 80.978 0 8.03 42.6 5.45
6/24/2024 3:00:00 AM 27.15 80.87 0 8.06 42.36 5.38
6/24/2024 3:15:00 AM 27.12 80.816 0 8.07 41.78 5.32
6/24/2024 3:30:00 AM 27.04 80.672 0 8.07 42.27 5.25
6/24/2024 3:45:00 AM 26.94 80.492 0 8.12 42.01 5.19
6/24/2024 4:00:00 AM 26.89 80.402 0 8.11 42.16 5.28
6/24/2024 4:15:00 AM 26.82 80.276 0 8.14 42.93 5.3
6/24/2024 4:30:00 AM 26.73 80.114 0 8.11 42.73 5.24
6/24/2024 4:45:00 AM 26.72 80.096 0 8.15 42.31 5.21
6/24/2024 5:00:00 AM 26.64 79.952 0 8.14 43.33 5.2
6/24/2024 5:15:00 AM 26.6 79.88 0 8.16 43.14 5.18
6/24/2024 5:30:00 AM 26.48 79.664 0 8.17 43.44 5.13
6/24/2024 5:45:00 AM 26.38 79.484 0 8.18 42.94 5.12
6/24/2024 6:00:00 AM 26.27 79.286 0 8.17 43 5.16
6/24/2024 6:15:00 AM 26.22 79.196 0 8.19 43.49 5.21
6/24/2024 6:30:00 AM 26.09 78.962 0 8.18 44.04 5.24
6/24/2024 6:45:00 AM 26.03 78.854 0 8.22 44.54 5.19
6/24/2024 7:00:00 AM 25.96 78.728 0 8.21 43.46 5.2
6/24/2024 7:15:00 AM 25.84 78.512 0 8.21 43.49 5.27
6/24/2024 7:30:00 AM 25.79 78.422 0 8.21 44.22 5.28
6/24/2024 7:45:00 AM 25.7 78.26 0 8.21 43.97 5.32
6/24/2024 8:00:00 AM 25.65 78.17 0 8.23 44.51 5.27
6/24/2024 8:15:00 AM 25.61 78.098 0 8.18 43.71 5.4
6/24/2024 8:30:00 AM 25.49 77.882 0 8.17 47.07 5.4
6/24/2024 8:45:00 AM 25.34 77.612 0 8.18 44.39 5.45
6/24/2024 9:00:00 AM 25.27 77.486 0 8.21 50.21 5.52
6/24/2024 9:15:00 AM 25.27 77.486 0 8.17 47.23 5.71
6/24/2024 9:30:00 AM 25.34 77.612 0.002 8.15 45.42 5.84
6/24/2024 9:45:00 AM 25.29 77.522 0 8.16 51.29 5.95
6/24/2024 10:00:00 AM 25.32 77.576 0 8.15 41.74 6.05
6/24/2024 10:15:00 AM 25.31 77.558 0 8.12 41.77 6.13
6/24/2024 10:30:00 AM 25.39 77.702 0 8.13 41.47 6.26
6/24/2024 10:45:00 AM 25.35 77.63 0 8.13 41.89 6.45
6/24/2024 11:00:00 AM 25.4 77.72 0.009 8.12 41.91 6.65
6/24/2024 11:15:00 AM 25.54 77.972 0 8.12 42.06 6.81
6/24/2024 11:30:00 AM 25.79 78.422 0 8.13 41.93 7.01
6/24/2024 11:45:00 AM 26.01 78.818 0 8.1 41.99 7.27
6/24/2024 12:00:00 PM 26.2 79.16 0.001 8.11 41.62 7.47
6/24/2024 12:15:00 PM 26.5 79.7 0 8.13 41.73 7.73
6/24/2024 12:30:00 PM 26.79 80.222 0 8.13 41.75 7.92
6/24/2024 12:45:00 PM 26.91 80.438 0 8.16 41.81 8.06
6/24/2024 1:00:00 PM 27.16 80.888 0 8.17 41.23 8.22
6/24/2024 1:15:00 PM 27.38 81.284 0 8.21 41.82 8.46
6/24/2024 1:30:00 PM 27.44 81.392 0 8.25 41.61 8.6
6/24/2024 1:45:00 PM 27.8 82.04 0.003 8.28 3272 8.77
6/24/2024 2:00:00 PM 27.99 82.382 0 8.31 41.65 8.87
6/24/2024 2:15:00 PM 27.8 82.04 0 8.36 41.53 8.99
6/24/2024 2:30:00 PM 28 82.4 0 8.39 41.58 9.07
6/24/2024 2:45:00 PM 28.18 82.724 0.001 8.42 41.58 9.13
6/24/2024 3:00:00 PM 28.47 83.24599 0 8.46 62.86 9.21
6/24/2024 3:15:00 PM 28.68 83.624 0 8.49 65.1 9.34
6/24/2024 3:30:00 PM 28.61 83.498 0 8.56 41.44 9.31
6/24/2024 3:45:00 PM 28.82 83.876 0 8.58 41.57 9.44
6/24/2024 4:00:00 PM 28.7 83.66 0 8.6 41.34 9.36
6/24/2024 4:15:00 PM 28.7 83.66 0 8.61 41.93 9.35
6/24/2024 4:30:00 PM 28.82 83.876 0 8.61 41.31 9.41
6/24/2024 4:45:00 PM 28.88 83.98399 0 8.66 41.25 9.42
6/24/2024 5:00:00 PM 29.01 84.218 0 8.69 40.82 9.46
6/24/2024 5:15:00 PM 29.01 84.218 0 8.68 41.13 9.36
6/24/2024 5:30:00 PM 28.83 83.894 0 8.73 41.41 9.28
6/24/2024 5:45:00 PM 28.93 84.074 0 8.7 41.04 9.19
6/24/2024 6:00:00 PM 28.71 83.67799 0 8.73 40.81 9.18
6/24/2024 6:15:00 PM 28.64 83.552 0 8.62 40.95 9.06
6/24/2024 6:30:00 PM 28.45 83.21001 0 8.56 41.76 8.73
6/24/2024 6:45:00 PM 28.3 82.94 0 8.22 47.26 8.64
6/24/2024 7:00:00 PM 28.13 82.634 0 8.25 50.99 8.65
6/24/2024 7:15:00 PM 27.97 82.346 0 8.25 54.23 8.46
6/24/2024 7:30:00 PM 27.85 82.13 0 8.18 40.87 8.34
6/24/2024 7:45:00 PM 27.68 81.824 0 8.13 40.83 8.21
6/24/2024 8:00:00 PM 27.54 81.57201 0 8.09 40.96 8.01
6/24/2024 8:15:00 PM 27.38 81.284 0 8.06 40.63 7.82
6/24/2024 8:30:00 PM 27.25 81.05 0 8.03 41.49 7.7
6/24/2024 8:45:00 PM 27.08 80.744 0 7.88 41.31 7.61
6/24/2024 9:00:00 PM 26.96 80.528 0 7.67 63.03 7.48
6/24/2024 9:15:00 PM 26.82 80.276 0 7.64 67.26 7.4
6/24/2024 9:30:00 PM 26.69 80.042 0 7.65 41.07 7.35
6/24/2024 9:45:00 PM 26.56 79.808 0 7.57 41.29 7.23
6/24/2024 10:00:00 PM 26.4 79.52 0 7.49 41.81 7.16
6/24/2024 10:15:00 PM 26.24 79.232 0 7.43 41.18 7.06
6/24/2024 10:30:00 PM 26.17 79.106 0 7.56 42.06 6.99
6/24/2024 10:45:00 PM 26.02 78.836 0 7.33 41.7 6.92
6/24/2024 11:00:00 PM 25.93 78.674 0 7.42 42.51 6.82
6/24/2024 11:15:00 PM 25.77 78.386 0 7.4 42.52 6.74
6/24/2024 11:30:00 PM 25.54 77.972 0 7.14 41.93 6.66
6/24/2024 11:45:00 PM 25.46 77.828 0 7.14 42.22 6.61
6/25/2024 12:00:00 AM 25.4 77.72 0 7.43 43.84 6.55
6/25/2024 12:15:00 AM 25.25 77.45 0 7.16 42.88 6.48
6/25/2024 12:30:00 AM 25.1 77.18 0 7.2 42.18 6.46
6/25/2024 12:45:00 AM 24.66 76.388 0 6.96 43 6.49
6/25/2024 1:00:00 AM 24.82 76.676 0 7.15 43.34 6.37
6/25/2024 1:15:00 AM 24.78 76.604 0 7.47 43.78 6.29
6/25/2024 1:30:00 AM 24.21 75.578 0 6.96 43.19 6.33
6/25/2024 1:45:00 AM 24.41 75.938 0 7.01 44.08 6.24
6/25/2024 2:00:00 AM 24.43 75.974 0 7.47 43.91 6.19
6/25/2024 2:15:00 AM 24.09 75.362 0 7.27 43.88 6.2
6/25/2024 2:30:00 AM 23.94 75.092 0 7.29 43.78 6.17
6/25/2024 2:45:00 AM 23.54 74.372 0 7.41 44.38 6.16
6/25/2024 3:00:00 AM 22.82 73.076 0 7.34 46.73 6.21
6/25/2024 3:15:00 AM 22.63 72.734 0 7.37 44.1 6.22
6/25/2024 3:30:00 AM 22.9 73.22 0 7.24 44.31 6.09
6/25/2024 3:45:00 AM 21.8 71.24 0 7.28 44.72 6.24
6/25/2024 4:00:00 AM 22.05 71.69 0 7.4 45.17 6.15
6/25/2024 4:15:00 AM 22.08 71.744 0 7.85 44.99 6.12
6/25/2024 4:30:00 AM 20.45 68.81 0 8.39 44.8 6.32
6/25/2024 4:45:00 AM 21.45 70.61 0 7.81 45.53 6.15
6/25/2024 5:00:00 AM 19.98 67.964 0 7.7 45.18 6.27
6/25/2024 5:15:00 AM 20.28 68.504 0 8.01 58.1 6.16
6/25/2024 5:30:00 AM 20.19 68.342 0 7.99 45.3 6.24
6/25/2024 5:45:00 AM 19.24 66.632 0 7.92 45.42 6.37
6/25/2024 6:00:00 AM 17.82 64.076 0 7.8 46.35 6.53
6/25/2024 6:15:00 AM 18.33 64.994 0 7.8 45.43 6.48
6/25/2024 6:30:00 AM 19.4 66.92 0 7.83 44.36 6.18
6/25/2024 6:45:00 AM 19.45 67.01 0 7.94 47.78 6.27
6/25/2024 7:00:00 AM 18.66 65.588 0 8.34 44.31 6.32
6/25/2024 7:15:00 AM 19.96 67.92799 0 7.92 44.38 6.23
6/25/2024 7:30:00 AM 19.75 67.55 0 7.82 44.14 6.2
6/25/2024 7:45:00 AM 20.3 68.54 0 7.99 44.02 6.18
6/25/2024 8:00:00 AM 20.32 68.576 0 7.79 44.1 6.22
6/25/2024 8:15:00 AM 20.55 68.99 0 7.82 44.62 6.2
6/25/2024 8:30:00 AM 20.71 69.278 0 7.82 44.13 6.26
6/25/2024 8:45:00 AM 20.85 69.53 0 7.91 44.59 6.24
6/25/2024 9:00:00 AM 21.23 70.214 0 7.89 44.16 6.24
6/25/2024 9:15:00 AM 21.15 70.07 0 7.96 44.2 6.27
6/25/2024 9:30:00 AM 21.5 70.7 0 8.03 43.75 6.23
6/25/2024 9:45:00 AM 21.54 70.772 0 7.78 43.45 6.42
6/25/2024 10:00:00 AM 21.8 71.24 0 7.88 43.03 6.41
6/25/2024 10:15:00 AM 22.32 72.176 0 8.06 43.56 6.57
6/25/2024 10:30:00 AM 21.32 70.376 0 7.66 44.3 6.84
6/25/2024 10:45:00 AM 20.13 68.234 0 8.48 45.01 7.3
6/25/2024 11:00:00 AM 21.62 70.916 0 7.66 43.06 7.3
6/25/2024 11:15:00 AM 21.43 70.574 0 8.28 43.28 7.73
6/25/2024 11:30:00 AM 21.92 71.456 0 7.94 43.26 7.94
6/25/2024 11:45:00 AM 22.24 72.032 0 8.13 43.5 8.2
6/25/2024 12:00:00 PM 20.97 69.746 0 11.54 43.47 8.7
6/25/2024 12:15:00 PM 22.41 72.338 0 11.05 43.94 8.72
6/25/2024 12:30:00 PM 22.5 72.5 0 11.33 44 8.96
6/25/2024 12:45:00 PM 23.45 74.21 0 9.75 41.62 9.04
6/25/2024 1:00:00 PM 24.12 75.416 0 15.24 43.82 9.25
6/25/2024 1:15:00 PM 24.46 76.028 0 11.89 44.41 9.33
6/25/2024 1:30:00 PM 24.76 76.568 0 12.51 41.54 9.42
6/25/2024 1:45:00 PM 24.87 76.766 0 13.31 41.99 9.62
6/25/2024 2:00:00 PM 25.3 77.54 0 15.32 41.57 9.88
6/25/2024 2:15:00 PM 25.85 78.53 0 16.29 41.66 9.96
6/25/2024 2:30:00 PM 25.98 78.764 0 16.32 41.99 10.11
6/25/2024 2:45:00 PM 25.36 77.648 0 14.89 42.17 10.4
6/25/2024 3:00:00 PM 25.88 78.584 0 12.46 42.79 10.46
6/25/2024 3:15:00 PM 26.16 79.088 0 14.58 42.19 10.5
6/25/2024 3:30:00 PM 25.99 78.782 0 13.75 42.39 10.54
6/25/2024 3:45:00 PM 26.59 79.862 0 14.22 42.96 10.48
6/25/2024 4:00:00 PM 27.57 81.626 0 12.83 41.66 10.4
6/25/2024 4:15:00 PM 27.66 81.788 0 13 41.73 10.51
6/25/2024 4:30:00 PM 27.14 80.852 0 12.58 41.82 10.58
6/25/2024 4:45:00 PM 26.99 80.582 0 12.67 42.64 10.55
6/25/2024 5:00:00 PM 26.74 80.132 0 11.93 41.82 10.68
6/25/2024 5:15:00 PM 26.38 79.484 0 11.67 42.63 10.72
6/25/2024 5:30:00 PM 26.42 79.556 0 11.14 47.01 10.66
6/25/2024 5:45:00 PM 27.06 80.708 0 9.72 42.94 10.55
6/25/2024 6:00:00 PM 27.06 80.708 0 9.23 43.8 10.39
6/25/2024 6:15:00 PM 27.34 81.212 0 9.15 41.53 10.23
6/25/2024 6:30:00 PM 27.14 80.852 0 9.84 74.34 9.97
6/25/2024 6:45:00 PM 27.25 81.05 0 10.08 62.48 9.76
6/25/2024 7:00:00 PM 26.99 80.582 0 11.02 47.62 9.67
6/25/2024 7:15:00 PM 26.96 80.528 0 11.5 73.86 9.29
6/25/2024 7:30:00 PM 26.6 79.88 0 11.27 67.41 9.2
6/25/2024 7:45:00 PM 26.64 79.952 0 11.49 95.08 8.97
6/25/2024 8:00:00 PM 26.57 79.826 0 10.55 83.37 8.86
6/25/2024 8:15:00 PM 26.23 79.214 0 10.49 102.1 8.74
6/25/2024 8:30:00 PM 25.97 78.746 0 10.21 103.6 8.68
6/25/2024 8:45:00 PM 25.63 78.134 0 10.64 101.7 8.48
6/25/2024 9:00:00 PM 25.3 77.54 0 11.02 109.9 8.5
6/25/2024 9:15:00 PM 24.91 76.838 0 11.1 99.51 8.38
6/25/2024 9:30:00 PM 24.99 76.982 0 11.01 96.93 8.18
6/25/2024 9:45:00 PM 24.62 76.316 0 11.7 122.7 8.01
6/25/2024 10:00:00 PM 24.32 75.776 0 11.97 24.3 7.91
6/25/2024 10:15:00 PM 24.3 75.74 0 11.58 52.98 7.91
6/25/2024 10:30:00 PM 23.9 75.02 0 12.47 38.64 7.8
6/25/2024 10:45:00 PM 23.81 74.858 0 12.17 37.08 7.75
6/25/2024 11:00:00 PM 23.62 74.516 0 13.28 36.4 7.77
6/25/2024 11:15:00 PM 22.99 73.382 0 14.24 38.19 7.8
6/25/2024 11:30:00 PM 22.66 72.788 0 14.15 38.84 7.89
6/25/2024 11:45:00 PM 22.49 72.482 0 14.18 41.36 7.99
6/26/2024 12:00:00 AM 22.31 72.158 0 12.35 37.4 7.96
6/26/2024 12:15:00 AM 21.93 71.474 0 14.33 43.68 8.18
6/26/2024 12:30:00 AM 21.87 71.366 0 11.66 39.38 8.11
6/26/2024 12:45:00 AM 21.46 70.628 0 14.78 47.46 8.14
6/26/2024 1:00:00 AM 21.56 70.808 0 10.83 35.89 8.13
6/26/2024 1:15:00 AM 21.34 70.412 0 13.31 86.83 8.25
6/26/2024 1:30:00 AM 21.09 69.962 0 13 43.03 8.32
6/26/2024 1:45:00 AM 21.19 70.142 0 11.07 37.8 8.27
6/26/2024 2:00:00 AM 20.91 69.638 0 12.42 42.4 8.23
6/26/2024 2:15:00 AM 20.78 69.404 0 12.36 41.75 8.23
6/26/2024 2:30:00 AM 21.52 70.736 0 9.36 61.52 8.14
6/26/2024 2:45:00 AM 20.95 69.71 0 11.56 54.57 8.16
6/26/2024 3:00:00 AM 21.13 70.034 0 8.96 58.89 7.38
6/26/2024 3:15:00 AM 21.03 69.854 0 11.42 101 6.77
6/26/2024 3:30:00 AM 21.08 69.944 0 9.23 426.8 6.73
6/26/2024 3:45:00 AM 21.21 70.17799 0 8.82 108.6 6.71
6/26/2024 4:00:00 AM 20.87 69.566 0 10.83 105.2 6.79
6/26/2024 4:15:00 AM 20.69 69.242 0 10.77 68.6 6.67
6/26/2024 4:30:00 AM 20.59 69.062 0 10.75 1900 6.63
6/26/2024 4:45:00 AM 21.03 69.854 0 7.63 3470 6.52
6/26/2024 5:00:00 AM 20.73 69.314 0 9.91 46.64 6.4
6/26/2024 5:15:00 AM 20.63 69.134 0 9.45 53.24 6.38
6/26/2024 5:30:00 AM 20.65 69.17 0 7.81 49.91 6.3
6/26/2024 5:45:00 AM 20.58 69.044 0 8.91 68.4 6.38
6/26/2024 6:00:00 AM 20.66 69.188 0 7.72 64.79 6.34
6/26/2024 6:15:00 AM 20.45 68.81 0 8.91 63.06 6.36
6/26/2024 6:30:00 AM 20.35 68.63 0 10.31 67.05 6.55
6/26/2024 6:45:00 AM 20.5 68.9 0 9.05 62.78 6.55
6/26/2024 7:00:00 AM 20.94 69.692 0 7.88 72.76 6.44
6/26/2024 7:15:00 AM 20.79 69.422 0 8.25 388.8 6.54
6/26/2024 7:30:00 AM 21.13 70.034 0 7.95 446.7 6.41
6/26/2024 7:45:00 AM 21.33 70.394 0 7.84 95.05 6.44
6/26/2024 8:00:00 AM 21.61 70.898 0 7.95 98.69 6.42
6/26/2024 8:15:00 AM 21.84 71.312 0 7.92 93.76 6.42
6/26/2024 8:30:00 AM 22.02 71.636 0 7.8 94.34 6.52
6/26/2024 8:45:00 AM 22.27 72.086 0 7.99 106.9 6.59
6/26/2024 9:00:00 AM 22.42 72.356 0 7.59 87.2 6.53
6/26/2024 9:15:00 AM 22.55 72.59 0 7.72 102.6 6.64
6/26/2024 9:30:00 AM 22.79 73.022 0 8.24 94.13 6.75
6/26/2024 9:45:00 AM 22.96 73.328 0 8.48 93.02 6.74
6/26/2024 10:00:00 AM 23.07 73.526 0 9.57 102 6.9
6/26/2024 10:15:00 AM 23.7 74.66 0 11.47 103.9 6.84
6/26/2024 10:30:00 AM 24.27 75.686 0 11.26 83.46 6.76
6/26/2024 10:45:00 AM 24.18 75.524 0 12.83 89.15 7.12
6/26/2024 11:00:00 AM 24.54 76.172 0 12.56 91.35 7.14
6/26/2024 11:15:00 AM 24.72 76.496 0 11.97 105.5 7.32
6/26/2024 11:30:00 AM 25.05 77.09 0 12.53 84.3 7.57
6/26/2024 11:45:00 AM 25.19 77.342 0 11.68 93.02 7.75
6/26/2024 12:00:00 PM 25.63 78.134 0 13.49 1002 7.93
6/26/2024 12:15:00 PM 25.83 78.494 0 12.28 101.3 8.31
6/26/2024 12:30:00 PM 26.09 78.962 0 14.25 107.2 8.65
6/26/2024 12:45:00 PM 26.25 79.25 0 13.6 80.14 8.78
6/26/2024 1:00:00 PM 26.87 80.366 0 14.39 98.2 8.81
6/26/2024 1:15:00 PM 26.77 80.186 0 13.36 104.3 9.07
6/26/2024 1:30:00 PM 26.85 80.33 0 14.6 89.03 9.32
6/26/2024 1:45:00 PM 27.01 80.618 0 13.44 102 9.4
6/26/2024 2:00:00 PM 27.23 81.014 0 13.67 90.72 9.51
6/26/2024 2:15:00 PM 27.56 81.608 0 10.78 111.9 9.47
6/26/2024 2:30:00 PM 27.66 81.788 0 12.19 74.96 9.63
6/26/2024 2:45:00 PM 27.8 82.04 0 11.68 92.3 9.86
6/26/2024 3:00:00 PM 27.97 82.346 0 12.17 77.73 9.92
6/26/2024 3:15:00 PM 28.38 83.084 0 13.78 124.9 9.96
6/26/2024 3:30:00 PM 28.51 83.318 0 12.83 89.95 10
6/26/2024 3:45:00 PM 28.68 83.624 0 14.04 91.28 10.02
6/26/2024 4:00:00 PM 28.59 83.462 0 11.51 92.03 10.17
6/26/2024 4:15:00 PM 29.28 84.704 0 12.11 106.1 10.28
6/26/2024 4:30:00 PM 29.2 84.56001 0 10.95 89.7 10.11
6/26/2024 4:45:00 PM 29.17 84.506 0 12.57 82.52 10.16
6/26/2024 5:00:00 PM 29.25 84.65 0 12.84 82.31 9.96
6/26/2024 5:15:00 PM 29.11 84.39799 0 11.9 94 9.75
6/26/2024 5:30:00 PM 28.74 83.732 0 12.03 86.5 9.72
6/26/2024 5:45:00 PM 24.65 76.37 0 15.43 48.92 10.48
6/26/2024 6:00:00 PM 25.11 77.198 0 11.86 48.21 9.95
6/26/2024 6:15:00 PM 25.44 77.792 0 13.39 50.23 9.67
6/26/2024 6:30:00 PM 25.17 77.306 0 11.12 46.11 9.74
6/26/2024 6:45:00 PM 25.03 77.054 0 8.93 45.39 9.86
6/26/2024 7:00:00 PM 25.1 77.18 0 9.34 45.1 9.61
6/26/2024 7:15:00 PM 25.14 77.252 0 8.52 45.43 9.5
6/26/2024 7:30:00 PM 24.99 76.982 0 9.72 44.7 9.39
6/26/2024 7:45:00 PM 25.3 77.54 0 8.13 44.87 9.06
6/26/2024 8:00:00 PM 25.32 77.576 0 7.61 45.48 9.02
6/26/2024 8:15:00 PM 24.8 76.64 0 7.26 44.84 8.93
6/26/2024 8:30:00 PM 25.36 77.648 0 7.71 45.06 8.64
6/26/2024 8:45:00 PM 25.07 77.126 0 8.18 44.65 8.43
6/26/2024 9:00:00 PM 24.78 76.604 0 7.83 45.15 8.33
6/26/2024 9:15:00 PM 24.88 76.784 0 7.53 45.31 8.21
6/26/2024 9:30:00 PM 24.57 76.226 0 7.71 45.36 8.15
6/26/2024 9:45:00 PM 24.43 75.974 0 7.97 45.18 7.98
6/26/2024 10:00:00 PM 24.57 76.226 0 7.98 45.56 7.85
6/26/2024 10:15:00 PM 25.23 77.414 0 7.12 45.82 7.47
6/26/2024 10:30:00 PM 24.79 76.622 0 7.2 45.71 7.53
6/26/2024 10:45:00 PM 25.6 78.08 0 7.13 272.5 7.35
6/26/2024 11:00:00 PM 25.45 77.81 0 6.84 45.59 7.23
6/26/2024 11:15:00 PM 25.24 77.432 0.028 8.05 55.13 7.5
6/26/2024 11:30:00 PM 25.15 77.27 0.217 8.03 102.7 7.4
6/26/2024 11:45:00 PM 25.22 77.396 0.229 7.93 92.25 7.21
6/27/2024 12:00:00 AM 25.39 77.702 0.241 7.86 75.98 7.01
6/27/2024 12:15:00 AM 25.33 77.594 0.242 7.82 68.58 6.88
6/27/2024 12:30:00 AM 25.37 77.666 0.247 7.78 57.58 6.8
6/27/2024 12:45:00 AM 25.27 77.486 0.248 7.77 57.69 6.74
6/27/2024 1:00:00 AM 25.16 77.288 0.248 7.75 55.39 6.65
6/27/2024 1:15:00 AM 25.09 77.162 0.247 7.74 53.08 6.6
6/27/2024 1:30:00 AM 25.01 77.018 0.247 7.71 54.67 6.56
6/27/2024 1:45:00 AM 24.92 76.856 0.247 7.69 55.64 6.49
6/27/2024 2:00:00 AM 24.87 76.766 0.247 7.68 53.81 6.43
6/27/2024 2:15:00 AM 24.81 76.658 0.247 7.66 55.17 6.38
6/27/2024 2:30:00 AM 24.74 76.532 0.247 7.62 54.79 6.29
6/27/2024 2:45:00 AM 24.69 76.442 0.248 7.63 53.75 6.29
6/27/2024 3:00:00 AM 24.63 76.334 0.249 7.62 54.71 6.24
6/27/2024 3:15:00 AM 24.57 76.226 0.249 7.59 55.05 6.19
6/27/2024 3:30:00 AM 24.51 76.118 0.25 7.59 61.42 6.11
6/27/2024 3:45:00 AM 24.45 76.01 0.25 7.58 59.67 6.05
6/27/2024 4:00:00 AM 24.4 75.92 0.25 7.57 62.78 5.96
6/27/2024 4:15:00 AM 24.34 75.812 0.25 7.55 71.9 5.94
6/27/2024 4:30:00 AM 24.29 75.722 0.25 7.53 215.1 5.92
6/27/2024 4:45:00 AM 24.34 75.812 0.25 7.53 69.82 5.94
6/27/2024 5:00:00 AM 24.28 75.704 0.25 7.52 69.96 5.9
6/27/2024 5:15:00 AM 24.25 75.65 0.249 7.52 70.81 5.9
6/27/2024 5:30:00 AM 24.22 75.596 0.25 7.51 73.31 5.88
6/27/2024 5:45:00 AM 24.2 75.56 0.25 7.51 65.68 5.91
6/27/2024 6:00:00 AM 24.18 75.524 0.251 7.52 64.77 5.88
6/27/2024 6:15:00 AM 24.12 75.416 0.251 7.52 70.58 5.86
6/27/2024 6:30:00 AM 24.11 75.398 0.251 7.51 78.92 5.85
6/27/2024 6:45:00 AM 24.08 75.344 0.25 7.51 84.61 5.83
6/27/2024 7:00:00 AM 24.04 75.272 0.249 7.51 85.9 5.81
6/27/2024 7:15:00 AM 24.01 75.218 0.248 7.51 79.9 5.78
6/27/2024 7:30:00 AM 23.99 75.182 0.247 7.5 83.25 5.74
6/27/2024 7:45:00 AM 23.93 75.074 0.247 7.51 89.74 5.73
6/27/2024 8:00:00 AM 23.88 74.984 0.246 7.51 88.94 5.72
6/27/2024 8:15:00 AM 23.85 74.93 0.245 7.49 71.98 5.71
6/27/2024 8:30:00 AM 23.79 74.82201 0.245 7.5 74.3 5.7
6/27/2024 8:45:00 AM 23.77 74.786 0.246 7.49 79.58 5.72
6/27/2024 9:00:00 AM 23.75 74.75 0.246 7.48 75.79 5.74
6/27/2024 9:15:00 AM 23.69 74.642 0.247 7.47 77.92 5.75
6/27/2024 9:30:00 AM 23.68 74.624 0.247 7.47 75.64 5.76
6/27/2024 9:45:00 AM 23.64 74.552 0.248 7.46 69.82 5.76
6/27/2024 10:00:00 AM 23.62 74.516 0.248 7.46 76.7 5.81
6/27/2024 10:15:00 AM 23.63 74.534 0.248 7.46 75.38 5.84
6/27/2024 10:30:00 AM 23.68 74.624 0.248 7.45 81.77 5.9
6/27/2024 10:45:00 AM 23.75 74.75 0.247 7.45 72.06 5.97
6/27/2024 11:00:00 AM 23.89 75.002 0.247 7.44 75.12 6.1
6/27/2024 11:15:00 AM 24.04 75.272 0.247 7.45 79.57 6.26
6/27/2024 11:30:00 AM 24.31 75.758 0.247 7.47 87.4 6.45
6/27/2024 11:45:00 AM 24.51 76.118 0.247 7.5 84.81 6.62
6/27/2024 12:00:00 PM 24.86 76.748 0.246 7.53 68.35 6.86
6/27/2024 12:15:00 PM 25.08 77.144 0.247 7.57 61.02 7.05
6/27/2024 12:30:00 PM 25.32 77.576 0.247 7.62 62.86 7.22
6/27/2024 12:45:00 PM 25.58 78.044 0.247 7.65 69.02 7.39
6/27/2024 1:00:00 PM 25.89 78.602 0.247 7.68 62.13 7.56
6/27/2024 1:15:00 PM 25.99 78.782 0.247 7.73 57.65 7.63
6/27/2024 1:30:00 PM 26.08 78.944 0.247 7.77 60.42 7.71
6/27/2024 1:45:00 PM 26.37 79.466 0.248 7.8 61.65 7.95
6/27/2024 2:00:00 PM 26.61 79.898 0.248 7.84 55.24 8.09
6/27/2024 2:15:00 PM 26.48 79.664 0.249 7.89 53.86 8.04
6/27/2024 2:30:00 PM 26.55 79.79 0.249 7.93 54.56 8.09
6/27/2024 2:45:00 PM 26.77 80.186 0.249 7.95 54.32 8.22
6/27/2024 3:00:00 PM 26.97 80.546 0.25 7.98 54.69 8.34
6/27/2024 3:15:00 PM 27.19 80.942 0.251 8 53.38 8.45
6/27/2024 3:30:00 PM 27.25 81.05 0.251 8.05 54.5 8.47
6/27/2024 3:45:00 PM 27.32 81.176 0.252 8.07 565.3 8.52
6/27/2024 4:00:00 PM 27.44 81.392 0.252 8.11 55.5 8.62
6/27/2024 4:15:00 PM 27.54 81.57201 0.252 8.14 51.25 8.66
6/27/2024 4:30:00 PM 27.63 81.734 0.253 8.14 51.84 8.7
6/27/2024 4:45:00 PM 27.56 81.608 0.253 8.18 52.73 8.69
6/27/2024 5:00:00 PM 27.52 81.536 0.253 8.2 55.03 8.65
6/27/2024 5:15:00 PM 27.63 81.734 0.253 8.22 54.34 8.74
6/27/2024 5:30:00 PM 27.61 81.698 0.253 8.21 54.51 8.7
6/27/2024 5:45:00 PM 27.55 81.59 0.254 8.21 54.75 8.62
6/27/2024 6:00:00 PM 27.44 81.392 0.254 8.21 54.85 8.52
6/27/2024 6:15:00 PM 27.35 81.23 0.254 8.2 55.68 8.41
6/27/2024 6:30:00 PM 27.26 81.068 0.254 8.15 50.42 8.3
6/27/2024 6:45:00 PM 27.19 80.942 0.254 8.14 50.07 8.25
6/27/2024 7:00:00 PM 27.1 80.78 0.254 8.12 50.04 8.17
6/27/2024 7:15:00 PM 27.01 80.618 0.254 8.1 50.58 8.06
6/27/2024 7:30:00 PM 26.89 80.402 0.254 8.09 50.82 7.98
6/27/2024 7:45:00 PM 26.8 80.24 0.254 8.07 51.39 7.87
6/27/2024 8:00:00 PM 26.7 80.06 0.254 8.05 51.53 7.67
6/27/2024 8:15:00 PM 26.61 79.898 0.254 8.03 50.1 7.66
6/27/2024 8:30:00 PM 26.51 79.718 0.254 8.03 52.31 7.56
6/27/2024 8:45:00 PM 26.42 79.556 0.254 8.02 51.61 7.47
6/27/2024 9:00:00 PM 26.32 79.376 0.253 8 51.1 7.36
6/27/2024 9:15:00 PM 26.23 79.214 0.253 7.99 52.69 7.3
6/27/2024 9:30:00 PM 26.15 79.07 0.252 7.97 51.15 7.23
6/27/2024 9:45:00 PM 26.07 78.926 0.252 7.96 51.74 7.17
6/27/2024 10:00:00 PM 26.01 78.818 0.252 7.95 52.92 7.11
6/27/2024 10:15:00 PM 25.92 78.656 0.249 7.94 62.87 7.03
6/27/2024 10:30:00 PM 25.86 78.548 0.25 7.92 52.56 6.99
6/27/2024 10:45:00 PM 25.76 78.368 0.251 7.92 53.42 6.92
6/27/2024 11:00:00 PM 25.71 78.278 0.25 7.9 53.3 6.88
6/27/2024 11:15:00 PM 25.62 78.116 0.25 7.89 54.21 6.83
6/27/2024 11:30:00 PM 25.54 77.972 0.25 7.87 53.22 6.77
6/27/2024 11:45:00 PM 25.48 77.864 0.25 7.86 53.36 6.72
6/28/2024 12:00:00 AM 25.41 77.738 0.25 7.85 53.83 6.68
6/28/2024 12:15:00 AM 25.33 77.594 0.251 7.84 54.83 6.63
6/28/2024 12:30:00 AM 25.28 77.504 0.251 7.83 53.02 6.61
6/28/2024 12:45:00 AM 25.2 77.36 0.252 7.83 53.33 6.56
6/28/2024 1:00:00 AM 25.15 77.27 0.252 7.82 54.37 6.54
6/28/2024 1:15:00 AM 25.07 77.126 0.253 7.81 54.86 6.49
6/28/2024 1:30:00 AM 25 77 0.254 7.81 54.42 6.48
6/28/2024 1:45:00 AM 24.94 76.892 0.255 7.8 55.91 6.44
6/28/2024 2:00:00 AM 24.87 76.766 0.256 7.8 55.96 6.42
6/28/2024 2:15:00 AM 24.8 76.64 0.259 7.79 55.93 6.4
6/28/2024 2:30:00 AM 24.72 76.496 0.26 7.79 56.57 6.37
6/28/2024 2:45:00 AM 24.64 76.352 0.262 7.79 57.17 6.35
6/28/2024 3:00:00 AM 24.58 76.244 0.264 7.79 56.13 6.33
6/28/2024 3:15:00 AM 24.5 76.1 0.266 7.79 54.45 6.31
6/28/2024 3:30:00 AM 24.42 75.956 0.268 7.79 54.98 6.29
6/28/2024 3:45:00 AM 24.34 75.812 0.269 7.79 54.3 6.26
6/28/2024 4:00:00 AM 24.25 75.65 0.271 7.79 54.62 6.24
6/28/2024 4:15:00 AM 24.16 75.488 0.272 7.79 55.8 6.23
6/28/2024 4:30:00 AM 24.08 75.344 0.274 7.78 56.2 6.2
6/28/2024 4:45:00 AM 23.98 75.164 0.275 7.78 57.07 6.19
6/28/2024 5:00:00 AM 23.9 75.02 0.278 7.78 55.54 6.17
6/28/2024 5:15:00 AM 23.81 74.858 0.279 7.78 54.64 6.15
6/28/2024 5:30:00 AM 23.73 74.714 0.281 7.79 54.64 6.13
6/28/2024 5:45:00 AM 23.64 74.552 0.283 7.79 56.56 6.12
6/28/2024 6:00:00 AM 23.54 74.372 0.284 7.79 56.46 6.11
6/28/2024 6:15:00 AM 23.47 74.246 0.285 7.8 54.35 6.1
6/28/2024 6:30:00 AM 23.41 74.138 0.286 7.8 54.24 6.1
6/28/2024 6:45:00 AM 23.35 74.03 0.288 7.79 164.1 6.09
6/28/2024 7:00:00 AM 23.28 73.904 0.289 7.79 130 6.08
6/28/2024 7:15:00 AM 23.21 73.778 0.289 7.79 53.17 6.07
6/28/2024 7:30:00 AM 23.16 73.688 0.29 7.79 55.63 6.08
6/28/2024 7:45:00 AM 23.12 73.616 0.291 7.78 53.27 6.09
6/28/2024 8:00:00 AM 23.07 73.526 0.291 7.78 145.8 6.09
6/28/2024 8:15:00 AM 23.03 73.454 0.291 7.79 52.16 6.1
6/28/2024 8:30:00 AM 22.99 73.382 0.292 7.78 51.82 6.11
6/28/2024 8:45:00 AM 22.97 73.346 0.292 7.78 53.29 6.13
6/28/2024 9:00:00 AM 22.92 73.256 0.291 7.77 51.37 6.15
6/28/2024 9:15:00 AM 22.93 73.274 0.291 7.76 50.98 6.19
6/28/2024 9:30:00 AM 22.91 73.238 0.291 7.75 51.31 6.25
6/28/2024 9:45:00 AM 22.89 73.202 0.29 7.74 51.08 6.31
6/28/2024 10:00:00 AM 22.91 73.238 0.29 7.71 51.6 6.39
6/28/2024 10:15:00 AM 22.98 73.364 0.29 7.68 52.23 6.5
6/28/2024 10:30:00 AM 23.06 73.508 0.289 7.66 51.48 6.6
6/28/2024 10:45:00 AM 23.17 73.706 0.288 7.63 50.98 6.8
6/28/2024 11:00:00 AM 23.23 73.814 0.288 7.6 51.19 6.87
6/28/2024 11:15:00 AM 23.33 73.994 0.287 7.56 51.48 6.99
6/28/2024 11:30:00 AM 23.49 74.282 0.286 7.56 51.53 7.18
6/28/2024 11:45:00 AM 23.66 74.588 0.285 7.53 52.34 7.36
6/28/2024 12:00:00 PM 23.91 75.038 0.284 7.54 50.9 7.57
6/28/2024 12:15:00 PM 24.18 75.524 0.283 7.52 50.75 7.75
6/28/2024 12:30:00 PM 24.36 75.848 0.282 7.52 50.69 7.95
6/28/2024 12:45:00 PM 24.66 76.388 0.281 7.51 51.36 8.13
6/28/2024 1:00:00 PM 24.98 76.964 0.28 7.54 50.65 8.36
6/28/2024 1:15:00 PM 25.24 77.432 0.279 7.59 50.14 8.55
6/28/2024 1:30:00 PM 25.39 77.702 0.278 7.66 51.9 8.71
6/28/2024 1:45:00 PM 25.46 77.828 0.277 7.75 53.35 8.86
6/28/2024 2:00:00 PM 25.82 78.476 0.276 7.83 51.63 9.07
6/28/2024 2:15:00 PM 26.02 78.836 0.275 7.88 50.86 9.23
6/28/2024 2:30:00 PM 26.11 78.998 0.274 7.94 49.62 9.35
6/28/2024 2:45:00 PM 26.24 79.232 0.273 8.07 51.37 9.49
6/28/2024 3:00:00 PM 26.32 79.376 0.272 8.19 400 9.56
6/28/2024 3:15:00 PM 26.49 79.682 0.271 8.25 49.65 9.66
6/28/2024 3:30:00 PM 26.7 80.06 0.27 8.32 50.96 9.74
6/28/2024 3:45:00 PM 26.81 80.258 0.269 8.36 51.53 9.81
6/28/2024 4:00:00 PM 26.92 80.456 0.269 8.43 49.11 9.85
6/28/2024 4:15:00 PM 27 80.6 0.268 8.51 49.59 9.88
6/28/2024 4:30:00 PM 27.07 80.726 0.267 8.57 49.61 9.92
6/28/2024 4:45:00 PM 27.14 80.852 0.266 8.62 50.41 9.93
6/28/2024 5:00:00 PM 27.04 80.672 0.265 8.68 49.82 9.91
6/28/2024 5:15:00 PM 26.86 80.348 0.265 8.67 49.07 9.74
6/28/2024 5:30:00 PM 26.89 80.402 0.264 8.65 45.91 9.79
6/28/2024 5:45:00 PM 26.92 80.456 0.263 8.68 44.37 9.82
6/28/2024 6:00:00 PM 26.72 80.096 0.262 8.69 49.47 9.71
6/28/2024 6:15:00 PM 26.68 80.024 0.261 8.7 50.61 9.59
6/28/2024 6:30:00 PM 26.56 79.808 0.261 8.7 50.75 9.54
6/28/2024 6:45:00 PM 26.39 79.502 0.26 8.69 51.01 9.44
6/28/2024 7:00:00 PM 26.29 79.32201 0.26 8.67 51.39 9.29
6/28/2024 7:15:00 PM 26.17 79.106 0.259 8.63 50.31 9.17
6/28/2024 7:30:00 PM 26.04 78.872 0.259 8.55 51.88 9.04
6/28/2024 7:45:00 PM 25.92 78.656 0.258 8.49 50.65 8.85
6/28/2024 8:00:00 PM 25.76 78.368 0.258 8.42 49.2 8.73
6/28/2024 8:15:00 PM 25.66 78.188 0.257 8.37 49.96 8.57
6/28/2024 8:30:00 PM 25.52 77.936 0.257 8.33 51.76 8.5
6/28/2024 8:45:00 PM 25.38 77.684 0.256 8.28 51.33 7.83
6/28/2024 9:00:00 PM 25.26 77.468 0.258 8.24 54.34 8.21
6/28/2024 9:15:00 PM 25.16 77.288 0.255 8.19 72.5 8.03
6/28/2024 9:30:00 PM 25.04 77.07201 0.255 8.15 50.06 7.97
6/28/2024 9:45:00 PM 24.97 76.946 0.255 8.13 51.21 7.91
6/28/2024 10:00:00 PM 24.86 76.748 0.255 8.09 51.73 7.77
6/28/2024 10:15:00 PM 24.77 76.586 0.254 8.06 51.3 7.62
6/28/2024 10:30:00 PM 24.67 76.406 0.254 8.03 51.85 7.55
6/28/2024 10:45:00 PM 24.63 76.334 0.254 8.01 51.05 7.43
6/28/2024 11:00:00 PM 24.54 76.172 0.254 7.99 51.65 7.36
6/28/2024 11:15:00 PM 24.46 76.028 0.253 7.96 52.07 7.27
6/28/2024 11:30:00 PM 24.35 75.83 0.253 7.93 50.19 7.18
6/28/2024 11:45:00 PM 24.27 75.686 0.253 7.89 51.53 7.13
6/29/2024 12:00:00 AM 24.22 75.596 0.252 7.87 51.61 7.04
6/29/2024 12:15:00 AM 24.12 75.416 0.247 7.84 51.39 6.97
6/29/2024 12:30:00 AM 24.07 75.326 0.252 7.81 52.2 6.9
6/29/2024 12:45:00 AM 24 75.2 0.252 7.79 54.41 6.83
6/29/2024 1:00:00 AM 23.91 75.038 0.252 7.77 51.54 6.77
6/29/2024 1:15:00 AM 23.89 75.002 0.252 7.74 52.92 6.72
6/29/2024 1:30:00 AM 23.83 74.894 0.251 7.72 53.1 6.68
6/29/2024 1:45:00 AM 23.77 74.786 0.251 7.7 51.62 6.62
6/29/2024 2:00:00 AM 23.74 74.732 0.251 7.69 1432 6.58
6/29/2024 2:15:00 AM 23.69 74.642 0.251 7.67 52.41 6.56
6/29/2024 2:30:00 AM 23.66 74.588 0.251 7.67 52.39 6.52
6/29/2024 2:45:00 AM 23.59 74.462 0.251 7.66 52.01 6.5
6/29/2024 3:00:00 AM 23.56 74.408 0.251 7.64 51.49 6.42
6/29/2024 3:15:00 AM 23.56 74.408 0.251 7.63 52.18 6.43
6/29/2024 3:30:00 AM 23.54 74.372 0.251 7.62 52.9 6.38
6/29/2024 3:45:00 AM 23.52 74.336 0.25 7.62 53.11 6.35
6/29/2024 4:00:00 AM 23.47 74.246 0.25 7.61 53.29 6.25
6/29/2024 4:15:00 AM 23.48 74.264 0.249 7.6 56.29 6.28
6/29/2024 4:30:00 AM 23.46 74.228 0.246 7.59 55.27 6.29
6/29/2024 4:45:00 AM 23.43 74.174 0.23 7.59 56.04 6.23
6/29/2024 5:00:00 AM 23.41 74.138 0.249 7.58 52.21 6.23
6/29/2024 5:15:00 AM 23.41 74.138 0.25 7.58 53.35 6.21
6/29/2024 5:30:00 AM 23.37 74.066 0.25 7.57 54.48 6.16
6/29/2024 5:45:00 AM 23.36 74.048 0.249 7.56 56.48 6.18
6/29/2024 6:00:00 AM 23.32 73.976 0.249 7.54 54.74 6.14
6/29/2024 6:15:00 AM 23.31 73.958 0.253 7.54 63.56 6.13
6/29/2024 6:30:00 AM 23.29 73.922 0.251 7.54 64.3 6.11
6/29/2024 6:45:00 AM 23.27 73.886 0.249 7.53 65.68 6.12
6/29/2024 7:00:00 AM 23.27 73.886 0.246 7.53 65.48 6.09
6/29/2024 7:15:00 AM 23.23 73.814 0.254 7.52 65.46 6.09
6/29/2024 7:30:00 AM 23.23 73.814 0.249 7.52 58.85 6.07
6/29/2024 7:45:00 AM 23.21 73.778 0.257 7.51 60.8 6.11
6/29/2024 8:00:00 AM 23.2 73.76 0.258 7.51 62.23 6.12
6/29/2024 8:15:00 AM 23.21 73.778 0.257 7.51 62.42 6.2
6/29/2024 8:30:00 AM 23.22 73.796 0.249 7.52 61 6.2
6/29/2024 8:45:00 AM 23.22 73.796 0.25 7.52 59.28 6.22
6/29/2024 9:00:00 AM 23.24 73.832 0.246 7.53 56.33 6.24
6/29/2024 9:15:00 AM 23.24 73.832 0.244 7.54 54.39 6.23
6/29/2024 9:30:00 AM 23.24 73.832 0.248 7.54 53.44 6.25
6/29/2024 9:45:00 AM 23.28 73.904 0.248 7.54 54.31 6.34
6/29/2024 10:00:00 AM 23.3 73.94 0.248 7.55 51.62 6.42
6/29/2024 10:15:00 AM 23.34 74.012 0.247 7.55 52.71 6.53
6/29/2024 10:30:00 AM 23.42 74.156 0.247 7.56 51.9 6.7
6/29/2024 10:45:00 AM 23.5 74.3 0.247 7.59 50.66 6.84
6/29/2024 11:00:00 AM 23.58 74.444 0.247 7.62 51.16 7.02
6/29/2024 11:15:00 AM 23.67 74.606 0.249 7.64 4889 7.14
6/29/2024 11:30:00 AM 23.76 74.768 0.25 7.67 50.86 7.32
6/29/2024 11:45:00 AM 23.82 74.876 0.249 7.71 51.82 7.46
6/29/2024 12:00:00 PM 23.89 75.002 0.247 7.74 50.91 7.58
6/29/2024 12:15:00 PM 23.96 75.128 0.253 7.76 51.35 7.74
6/29/2024 12:30:00 PM 23.99 75.182 0.247 7.79 51.39 7.77
6/29/2024 12:45:00 PM 24.04 75.272 0.247 7.81 51.84 7.89
6/29/2024 1:00:00 PM 24.09 75.362 0.247 7.84 50.61 8.04
6/29/2024 1:15:00 PM 24.15 75.47 0.258 7.87 52.17 8.18
6/29/2024 1:30:00 PM 24.19 75.542 0.247 7.89 52.82 8.26
6/29/2024 1:45:00 PM 24.22 75.596 0.247 7.92 52.73 8.34
6/29/2024 2:00:00 PM 24.24 75.632 0.247 7.95 52.76 8.33
6/29/2024 2:15:00 PM 24.26 75.668 0.247 7.97 52.28 8.37
6/29/2024 2:30:00 PM 24.27 75.686 0.247 7.98 53.46 8.42
6/29/2024 2:45:00 PM 24.28 75.704 0.247 8 53.18 8.41
6/29/2024 3:00:00 PM 24.32 75.776 0.247 8.02 53.62 8.5
6/29/2024 3:15:00 PM 24.35 75.83 0.247 8.04 53.58 8.55
6/29/2024 3:30:00 PM 24.37 75.866 0.247 8.06 50.23 8.53
6/29/2024 3:45:00 PM 24.46 76.028 0.248 8.08 50.9 8.68
6/29/2024 4:00:00 PM 24.47 76.046 0.248 8.1 51.16 8.63
6/29/2024 4:15:00 PM 24.5 76.1 0.248 8.12 193.5 8.64
6/29/2024 4:30:00 PM 24.51 76.118 0.248 8.13 49.09 8.58
6/29/2024 4:45:00 PM 24.55 76.19 0.248 8.15 48.67 8.61
6/29/2024 5:00:00 PM 24.58 76.244 0.249 8.16 48.83 8.69
6/29/2024 5:15:00 PM 24.58 76.244 0.249 8.18 48.79 8.56
6/29/2024 5:30:00 PM 24.6 76.28 0.249 8.19 49.33 8.57
6/29/2024 5:45:00 PM 24.6 76.28 0.249 8.19 49.79 8.54
6/29/2024 6:00:00 PM 24.6 76.28 0.25 8.19 48.61 8.47
6/29/2024 6:15:00 PM 24.59 76.262 0.25 8.19 48.72 8.4
6/29/2024 6:30:00 PM 24.56 76.208 0.25 8.17 48.84 8.31
6/29/2024 6:45:00 PM 24.47 76.046 0.246 8.19 430.7 8.2
6/29/2024 7:00:00 PM 24.4 75.92 0.245 8.19 49.41 8.05
6/29/2024 7:15:00 PM 24.39 75.902 0.246 8.16 52.7 7.95
6/29/2024 7:30:00 PM 24.36 75.848 0.246 8.12 55.09 7.9
6/29/2024 7:45:00 PM 24.35 75.83 0.247 8.1 51.66 7.86
6/29/2024 8:00:00 PM 24.32 75.776 0.247 8.08 51.5 7.74
6/29/2024 8:15:00 PM 24.29 75.722 0.247 8.04 50.76 7.68
6/29/2024 8:30:00 PM 24.26 75.668 0.247 8.02 50.25 7.59
6/29/2024 8:45:00 PM 24.23 75.614 0.248 8 50.27 7.53
6/29/2024 9:00:00 PM 24.19 75.542 0.248 7.98 51.06 7.4
6/29/2024 9:15:00 PM 24.16 75.488 0.248 7.95 51.13 7.3
6/29/2024 9:30:00 PM 24.13 75.434 0.248 7.93 51.61 7.23
6/29/2024 9:45:00 PM 24.1 75.38 0.248 7.9 51.83 7.13
6/29/2024 10:00:00 PM 24.06 75.308 0.247 7.88 708.5 7.07
6/29/2024 10:15:00 PM 24.02 75.236 0.247 7.86 51.92 6.95
6/29/2024 10:30:00 PM 23.99 75.182 0.248 7.84 837.9 6.87
6/29/2024 10:45:00 PM 23.96 75.128 0.248 7.82 52.73 6.77
6/29/2024 11:00:00 PM 23.93 75.074 0.248 7.8 51.2 6.69
6/29/2024 11:15:00 PM 23.9 75.02 0.248 7.79 1420 6.63
6/29/2024 11:30:00 PM 23.86 74.948 0.248 7.77 51.72 6.56
6/29/2024 11:45:00 PM 23.84 74.912 0.248 7.75 53.11 6.48
6/30/2024 12:00:00 AM 23.8 74.84 0.248 7.74 55.13 6.41
6/30/2024 12:15:00 AM 23.78 74.804 0.248 7.71 58.34 6.31
6/30/2024 12:30:00 AM 23.75 74.75 0.248 7.7 55.13 6.29
6/30/2024 12:45:00 AM 23.73 74.714 0.248 7.68 53.34 6.22
6/30/2024 1:00:00 AM 23.7 74.66 0.248 7.67 53.59 6.21
6/30/2024 1:15:00 AM 23.67 74.606 0.248 7.65 55.48 6.15
6/30/2024 1:30:00 AM 23.65 74.57 0.249 7.64 52.06 6.11
6/30/2024 1:45:00 AM 23.62 74.516 0.249 7.62 55.23 6.1
6/30/2024 2:00:00 AM 23.6 74.48 0.249 7.62 54.59 6.07
6/30/2024 2:15:00 AM 23.58 74.444 0.25 7.61 53.08 6.05
6/30/2024 2:30:00 AM 23.56 74.408 0.25 7.61 54.3 6.06
6/30/2024 2:45:00 AM 23.54 74.372 0.25 7.59 1175 5.99
6/30/2024 3:00:00 AM 23.52 74.336 0.25 7.59 54.46 6.01
6/30/2024 3:15:00 AM 23.51 74.318 0.25 7.58 57.1 6
6/30/2024 3:30:00 AM 23.48 74.264 0.25 7.58 56.94 6
6/30/2024 3:45:00 AM 23.47 74.246 0.25 7.57 61.18 6
6/30/2024 4:00:00 AM 23.45 74.21 0.249 7.57 58.55 5.97
6/30/2024 4:15:00 AM 23.43 74.174 0.249 7.56 60.29 5.96
6/30/2024 4:30:00 AM 23.41 74.138 0.248 7.55 63.98 5.94
6/30/2024 4:45:00 AM 23.4 74.12 0.247 7.55 68.23 5.95
6/30/2024 5:00:00 AM 23.37 74.066 0.247 7.54 75.12 5.95
6/30/2024 5:15:00 AM 23.34 74.012 0.247 7.54 81.02 5.91
6/30/2024 5:30:00 AM 23.33 73.994 0.247 7.53 57.07 5.92
6/30/2024 5:45:00 AM 23.29 73.922 0.247 7.53 58.24 5.93
6/30/2024 6:00:00 AM 23.27 73.886 0.247 7.52 58.71 5.93
6/30/2024 6:15:00 AM 23.24 73.832 0.243 7.52 58.13 5.93
6/30/2024 6:30:00 AM 23.25 73.85 0.232 7.52 61.51 5.95
6/30/2024 6:45:00 AM 23.21 73.778 0.25 7.51 57.34 5.95
6/30/2024 7:00:00 AM 23.19 73.742 0.251 7.51 60.79 5.97
6/30/2024 7:15:00 AM 23.17 73.706 0.252 7.51 65.1 5.98
6/30/2024 7:30:00 AM 23.16 73.688 0.253 7.52 595.1 6.01
6/30/2024 7:45:00 AM 23.16 73.688 0.253 7.53 58.4 6.02
6/30/2024 8:00:00 AM 23.16 73.688 0.253 7.53 58.34 6.06
6/30/2024 8:15:00 AM 23.17 73.706 0.253 7.53 81.88 6.1
6/30/2024 8:30:00 AM 23.18 73.724 0.252 7.54 60.81 6.11
6/30/2024 8:45:00 AM 23.21 73.778 0.251 7.54 58.4 6.15
6/30/2024 9:00:00 AM 23.24 73.832 0.25 7.55 58.38 6.21
6/30/2024 9:15:00 AM 23.28 73.904 0.249 7.55 57.31 6.27
6/30/2024 9:30:00 AM 23.32 73.976 0.249 7.56 329 6.33
6/30/2024 9:45:00 AM 23.36 74.048 0.248 7.56 56.71 6.36
6/30/2024 10:00:00 AM 23.42 74.156 0.248 7.56 477.1 6.45
6/30/2024 10:15:00 AM 23.47 74.246 0.248 7.51 55.08 6.53
6/30/2024 10:30:00 AM 23.53 74.354 0.247 7.57 55.25 6.59
6/30/2024 10:45:00 AM 23.62 74.516 0.247 7.54 56.24 6.69
6/30/2024 11:00:00 AM 23.73 74.714 0.247 7.58 56.69 6.8
6/30/2024 11:15:00 AM 23.89 75.002 0.247 7.58 57.26 6.96
6/30/2024 11:30:00 AM 24.13 75.434 0.243 7.61 58.19 7.12
6/30/2024 11:45:00 AM 24.35 75.83 0.247 7.64 68.64 7.31
6/30/2024 12:00:00 PM 24.56 76.208 0.247 7.68 1308 7.48
6/30/2024 12:15:00 PM 24.76 76.568 0.245 7.72 54.79 7.62
6/30/2024 12:30:00 PM 24.97 76.946 0.247 7.77 503.9 7.81
6/30/2024 12:45:00 PM 25.16 77.288 0.247 7.81 55.85 7.96
6/30/2024 1:00:00 PM 25.38 77.684 0.247 7.85 56.2 8.05
6/30/2024 1:15:00 PM 25.38 77.684 0.248 7.89 54.77 8.08
6/30/2024 1:30:00 PM 25.45 77.81 0.248 7.92 296.8 8.12
6/30/2024 1:45:00 PM 25.53 77.954 0.248 7.94 54.76 8.11
6/30/2024 2:00:00 PM 25.75 78.35 0.249 7.96 53.3 8.16
6/30/2024 2:15:00 PM 25.85 78.53 0.249 7.97 53.11 8.19
6/30/2024 2:30:00 PM 25.85 78.53 0.249 7.99 52.37 8.12
6/30/2024 2:45:00 PM 25.9 78.62 0.25 8 52.83 8
6/30/2024 3:00:00 PM 25.99 78.782 0.244 8 53.84 8.04
6/30/2024 3:15:00 PM 25.99 78.782 0.25 8 53.94 7.88
6/30/2024 3:30:00 PM 25.97 78.746 0.249 8 5204 8.06
6/30/2024 3:45:00 PM 26.03 78.854 0.248 7.99 55.21 8.04
6/30/2024 4:00:00 PM 26.03 78.854 0.248 7.99 53.56 8.03
6/30/2024 4:15:00 PM 26.06 78.908 0.247 7.99 54.19 8.05
6/30/2024 4:30:00 PM 25.97 78.746 0.247 8 55.75 8.01
6/30/2024 4:45:00 PM 25.93 78.674 0.248 8 53.63 8.02
6/30/2024 5:00:00 PM 25.97 78.746 0.249 8 54.58 8.05
6/30/2024 5:15:00 PM 25.97 78.746 0.25 8 55.44 8.05
6/30/2024 5:30:00 PM 25.98 78.764 0.252 7.99 57.45 8.04
6/30/2024 5:45:00 PM 25.96 78.728 0.254 8 61.92 8
6/30/2024 6:00:00 PM 25.92 78.656 0.257 7.99 65.55 7.94
6/30/2024 6:15:00 PM 25.9 78.62 0.258 7.99 58.95 7.9
6/30/2024 6:30:00 PM 25.83 78.494 0.263 7.98 299.4 7.83
6/30/2024 6:45:00 PM 25.78 78.404 0.267 7.95 59.27 7.76
6/30/2024 7:00:00 PM 25.72 78.296 0.27 7.94 58.17 7.69
6/30/2024 7:15:00 PM 25.67 78.206 0.274 7.93 60.84 7.63
6/30/2024 7:30:00 PM 25.62 78.116 0.277 7.93 64.23 7.53
6/30/2024 7:45:00 PM 25.58 78.044 0.279 7.92 59.15 7.47
6/30/2024 8:00:00 PM 25.53 77.954 0.282 7.91 57.71 7.38
6/30/2024 8:15:00 PM 25.49 77.882 0.284 7.89 56.23 7.34
6/30/2024 8:30:00 PM 25.44 77.792 0.286 7.88 55.72 7.28
6/30/2024 8:45:00 PM 25.39 77.702 0.288 7.87 55.62 7.22
6/30/2024 9:00:00 PM 25.38 77.684 0.289 7.87 57.71 7.17
6/30/2024 9:15:00 PM 25.34 77.612 0.29 7.86 61.65 7.12
6/30/2024 9:30:00 PM 25.28 77.504 0.29 7.85 58.51 7.07
6/30/2024 9:45:00 PM 25.24 77.432 0.29 7.84 58.46 7
6/30/2024 10:00:00 PM 25.19 77.342 0.289 7.83 58.25 6.97
6/30/2024 10:15:00 PM 25.13 77.234 0.288 7.83 119.6 6.92
6/30/2024 10:30:00 PM 25.07 77.126 0.287 7.82 700 6.87
6/30/2024 10:45:00 PM 25.05 77.09 0.285 7.81 58.7 6.83
6/30/2024 11:00:00 PM 24.99 76.982 0.283 7.8 57.92 6.77
6/30/2024 11:15:00 PM 24.95 76.91 0.281 7.79 60.76 6.74
6/30/2024 11:30:00 PM 24.87 76.766 0.278 7.79 60.67 6.7
6/30/2024 11:45:00 PM 24.8 76.64 0.276 7.78 63.34 6.65
7/1/2024 12:00:00 AM 24.73 76.514 0.273 7.77 61.32 6.61
7/1/2024 12:15:00 AM 24.67 76.406 0.27 7.76 60.52 6.56
7/1/2024 12:30:00 AM 24.61 76.298 0.267 7.76 60.73 6.51
7/1/2024 12:45:00 AM 24.52 76.136 0.265 7.75 62.84 6.46
7/1/2024 1:00:00 AM 24.44 75.992 0.262 7.74 62.49 6.42
7/1/2024 1:15:00 AM 24.36 75.848 0.26 7.73 62.11 6.38
7/1/2024 1:30:00 AM 24.24 75.632 0.257 7.73 62.71 6.34
7/1/2024 1:45:00 AM 24.18 75.524 0.254 7.72 63.7 6.31
7/1/2024 2:00:00 AM 24.07 75.326 0.253 7.72 62.79 6.27
7/1/2024 2:15:00 AM 24.01 75.218 0.25 7.71 61.66 6.23
7/1/2024 2:30:00 AM 23.92 75.056 0.248 7.7 62.2 6.2
7/1/2024 2:45:00 AM 23.85 74.93 0.246 7.7 65.34 6.18
7/1/2024 3:00:00 AM 23.76 74.768 0.244 7.7 63.23 6.13
7/1/2024 3:15:00 AM 23.65 74.57 0.243 7.7 65.37 6.12
7/1/2024 3:30:00 AM 23.59 74.462 0.241 7.7 64.58 6.09
7/1/2024 3:45:00 AM 23.5 74.3 0.239 7.7 66.24 6.08
7/1/2024 4:00:00 AM 23.42 74.156 0.238 7.72 69.24 6.04
7/1/2024 4:15:00 AM 23.35 74.03 0.237 7.72 90.47 6.04
7/1/2024 4:30:00 AM 23.29 73.922 0.236 7.71 64.94 6.03
7/1/2024 4:45:00 AM 23.22 73.796 0.235 7.71 4508 6.01
7/1/2024 5:00:00 AM 23.16 73.688 0.234 7.71 68.68 6.02
7/1/2024 5:15:00 AM 23.08 73.544 0.233 7.71 68.02 5.99
7/1/2024 5:30:00 AM 23.02 73.436 0.232 7.71 64.92 6
7/1/2024 5:45:00 AM 22.94 73.292 0.232 7.7 67.02 5.98
7/1/2024 6:00:00 AM 22.87 73.166 0.231 7.7 69.67 5.95
7/1/2024 6:15:00 AM 22.8 73.04 0.231 7.69 68.53 5.96
7/1/2024 6:30:00 AM 22.75 72.95 0.23 7.69 68.53 5.96
7/1/2024 6:45:00 AM 22.69 72.842 0.23 7.69 70.47 5.96
7/1/2024 7:00:00 AM 22.64 72.752 0.229 7.68 67.64 5.97
7/1/2024 7:15:00 AM 22.59 72.662 0.221 7.68 67.8 5.98
7/1/2024 7:30:00 AM 22.53 72.554 0.217 7.67 68.57 5.99
7/1/2024 7:45:00 AM 22.51 72.518 0.226 7.67 68.59 6.01
7/1/2024 8:00:00 AM 22.48 72.464 0.227 7.66 69.62 6.02
7/1/2024 8:15:00 AM 22.44 72.392 0.227 7.66 70.8 6.04
7/1/2024 8:30:00 AM 22.39 72.302 0.227 7.65 69.47 6.06
7/1/2024 8:45:00 AM 22.35 72.23 0.227 7.64 69.94 6.07
7/1/2024 9:00:00 AM 22.34 72.212 0.226 7.63 71.47 6.12
7/1/2024 9:15:00 AM 22.34 72.212 0.226 7.63 69.67 6.19
7/1/2024 9:30:00 AM 22.3 72.14 0.226 7.63 70.37 6.22
7/1/2024 9:45:00 AM 22.33 72.194 0.225 7.62 69.56 6.3
7/1/2024 10:00:00 AM 22.34 72.212 0.225 7.62 64.61 6.38
7/1/2024 10:15:00 AM 22.35 72.23 0.225 7.62 64.33 6.45
7/1/2024 10:30:00 AM 22.31 72.158 0.225 7.62 64.41 6.5
7/1/2024 10:45:00 AM 22.33 72.194 0.225 7.6 67.08 6.55
7/1/2024 11:00:00 AM 22.37 72.266 0.224 7.58 67.91 6.64
7/1/2024 11:15:00 AM 22.49 72.482 0.224 7.57 69.34 6.79
7/1/2024 11:30:00 AM 22.67 72.806 0.224 7.57 70.13 6.97
7/1/2024 11:45:00 AM 22.87 73.166 0.224 7.58 66.61 7.12
7/1/2024 12:00:00 PM 22.99 73.382 0.223 7.6 656.2 7.29
7/1/2024 12:15:00 PM 23.32 73.976 0.223 7.61 63.56 7.51
7/1/2024 12:30:00 PM 23.42 74.156 0.223 7.65 63.89 7.69
7/1/2024 12:45:00 PM 23.59 74.462 0.223 7.69 64.01 7.86
7/1/2024 1:00:00 PM 23.82 74.876 0.223 7.7 68.92 8.04
7/1/2024 1:15:00 PM 23.95 75.11 0.223 7.75 63.13 8.16
7/1/2024 1:30:00 PM 24.1 75.38 0.223 7.77 69.69 8.29
7/1/2024 1:45:00 PM 24.32 75.776 0.223 7.81 62.67 8.43
7/1/2024 2:00:00 PM 24.24 75.632 0.223 7.85 133.3 8.48
7/1/2024 2:15:00 PM 24.38 75.884 0.223 7.88 61.41 8.56
7/1/2024 2:30:00 PM 24.75 76.55 0.223 7.9 62.06 8.76
7/1/2024 2:45:00 PM 24.96 76.92799 0.223 7.95 62.44 8.86
7/1/2024 3:00:00 PM 25.08 77.144 0.223 7.99 62.25 8.96
7/1/2024 3:15:00 PM 25.35 77.63 0.223 8.03 63.86 9.12
7/1/2024 3:30:00 PM 25.56 78.008 0.223 8.08 64.37 9.25
7/1/2024 3:45:00 PM 25.7 78.26 0.223 8.11 65.51 9.32
7/1/2024 4:00:00 PM 25.8 78.44 0.223 8.17 65.56 9.35
7/1/2024 4:15:00 PM 25.85 78.53 0.223 8.22 63.99 9.39
7/1/2024 4:30:00 PM 25.74 78.332 0.223 8.24 64.22 9.34
7/1/2024 4:45:00 PM 25.73 78.314 0.223 8.28 66.28 9.35
7/1/2024 5:00:00 PM 25.61 78.098 0.223 8.3 64.55 9.26
7/1/2024 5:15:00 PM 25.68 78.224 0.223 8.3 60.24 9.3
7/1/2024 5:30:00 PM 25.64 78.152 0.223 8.32 59.42 9.23
7/1/2024 5:45:00 PM 25.6 78.08 0.223 8.36 59.79 9.2
7/1/2024 6:00:00 PM 25.52 77.936 0.223 8.38 58.78 9.09
7/1/2024 6:15:00 PM 25.48 77.864 0.223 8.38 58.75 9.03
7/1/2024 6:30:00 PM 25.42 77.756 0.224 8.38 59.75 8.94
7/1/2024 6:45:00 PM 25.36 77.648 0.224 8.38 59.81 8.85
7/1/2024 7:00:00 PM 25.21 77.378 0.224 8.37 59.89 8.76
7/1/2024 7:15:00 PM 25.12 77.216 0.224 8.35 59.08 8.63
7/1/2024 7:30:00 PM 25.02 77.036 0.224 8.3 57.32 8.47
7/1/2024 7:45:00 PM 24.92 76.856 0.225 8.24 58.33 8.35
7/1/2024 8:00:00 PM 24.81 76.658 0.225 8.19 58.38 8.21
7/1/2024 8:15:00 PM 24.71 76.478 0.225 8.14 57.14 8.08
7/1/2024 8:30:00 PM 24.59 76.262 0.225 8.09 57.72 7.97
7/1/2024 8:45:00 PM 24.49 76.082 0.225 8.05 57.41 7.82
7/1/2024 9:00:00 PM 24.38 75.884 0.226 7.98 57.61 7.7
7/1/2024 9:15:00 PM 24.28 75.704 0.226 7.94 57.31 7.59
7/1/2024 9:30:00 PM 24.21 75.578 0.226 7.91 62.63 7.49
7/1/2024 9:45:00 PM 24.09 75.362 0.226 7.88 57.29 7.37
7/1/2024 10:00:00 PM 24.04 75.272 0.226 7.85 58.18 7.3
7/1/2024 10:15:00 PM 23.97 75.146 0.227 7.83 58.16 7.21
7/1/2024 10:30:00 PM 23.87 74.966 0.227 7.81 57.93 7.18
7/1/2024 10:45:00 PM 23.81 74.858 0.227 7.79 58.23 7.09
7/1/2024 11:00:00 PM 23.72 74.696 0.227 7.76 59.75 7.01
7/1/2024 11:15:00 PM 23.66 74.588 0.228 7.74 60.94 6.95
7/1/2024 11:30:00 PM 23.6 74.48 0.228 7.72 62.43 6.87
7/1/2024 11:45:00 PM 23.51 74.318 0.228 7.7 63.71 6.85
7/2/2024 12:00:00 AM 23.42 74.156 0.228 7.68 59.47 6.77
7/2/2024 12:15:00 AM 23.35 74.03 0.228 7.66 3746 6.71
7/2/2024 12:30:00 AM 23.26 73.868 0.229 7.64 56.68 6.62
7/2/2024 12:45:00 AM 23.18 73.724 0.229 7.62 60.16 6.62
7/2/2024 1:00:00 AM 23.15 73.67 0.229 7.61 59.67 6.56
7/2/2024 1:15:00 AM 23.04 73.472 0.229 7.56 183.9 6.56
7/2/2024 1:30:00 AM 23 73.4 0.229 7.54 56.87 6.49
7/2/2024 1:45:00 AM 22.89 73.202 0.229 7.53 59 6.48
7/2/2024 2:00:00 AM 22.84 73.112 0.229 7.56 59.41 6.48
7/2/2024 2:15:00 AM 22.8 73.04 0.23 7.52 59.68 6.47
7/2/2024 2:30:00 AM 22.7 72.86 0.23 7.5 59.64 6.42
7/2/2024 2:45:00 AM 22.64 72.752 0.23 7.48 58.51 6.43
7/2/2024 3:00:00 AM 22.57 72.626 0.23 7.48 59.24 6.41
7/2/2024 3:15:00 AM 22.53 72.554 0.23 7.47 59.01 6.44
7/2/2024 3:30:00 AM 22.42 72.356 0.23 7.46 59.81 6.41
7/2/2024 3:45:00 AM 22.41 72.338 0.23 7.45 59.88 6.39
7/2/2024 4:00:00 AM 22.28 72.104 0.231 7.45 60 6.42
7/2/2024 4:15:00 AM 22.2 71.96 0.231 7.43 61.49 6.4
7/2/2024 4:30:00 AM 22.16 71.888 0.231 7.41 57.98 6.35
7/2/2024 4:45:00 AM 22.08 71.744 0.231 7.39 58.13 6.37
7/2/2024 5:00:00 AM 22.03 71.654 0.231 7.38 59.49 6.38
7/2/2024 5:15:00 AM 21.95 71.51 0.231 7.35 118.7 6.39
7/2/2024 5:30:00 AM 21.91 71.438 0.231 7.34 60.99 6.35
7/2/2024 5:45:00 AM 21.84 71.312 0.231 7.34 58.07 6.37
7/2/2024 6:00:00 AM 21.78 71.204 0.231 7.32 59.22 6.36
7/2/2024 6:15:00 AM 21.74 71.132 0.231 7.3 58.89 6.39
7/2/2024 6:30:00 AM 21.65 70.97 0.231 7.28 59.8 6.38
7/2/2024 6:45:00 AM 21.57 70.826 0.231 7.28 60.09 6.38
7/2/2024 7:00:00 AM 21.56 70.808 0.231 7.25 60.52 6.4
7/2/2024 7:15:00 AM 21.49 70.682 0.231 7.24 61.42 6.41
7/2/2024 7:30:00 AM 21.45 70.61 0.231 7.19 60.88 6.38
7/2/2024 7:45:00 AM 21.47 70.646 0.231 7.2 61.32 6.42
7/2/2024 8:00:00 AM 21.45 70.61 0.231 7.15 58.74 6.43
7/2/2024 8:15:00 AM 21.41 70.538 0.231 7.16 60.27 6.42
7/2/2024 8:30:00 AM 21.39 70.502 0.231 7.14 59.7 6.43
7/2/2024 8:45:00 AM 21.4 70.52 0.231 7.15 58.15 6.46
7/2/2024 9:00:00 AM 21.39 70.502 0.231 7.15 58.52 6.45
7/2/2024 9:15:00 AM 21.42 70.556 0.231 7.18 1686 6.51
7/2/2024 9:30:00 AM 21.44 70.592 0.231 7.16 58.27 6.57
7/2/2024 9:45:00 AM 21.48 70.664 0.231 7.15 57.88 6.61
7/2/2024 10:00:00 AM 21.52 70.736 0.231 7.12 57.85 6.7
7/2/2024 10:15:00 AM 21.63 70.934 0.231 7.13 57.98 6.81
7/2/2024 10:30:00 AM 21.7 71.06 0.23 7.15 59.45 6.9
7/2/2024 10:45:00 AM 21.88 71.384 0.23 7.11 120.8 7.1
7/2/2024 11:00:00 AM 21.97 71.546 0.23 7.14 58.72 7.21
7/2/2024 11:15:00 AM 22.2 71.96 0.23 7.23 58.99 7.39
7/2/2024 11:30:00 AM 22.44 72.392 0.23 7.25 58.84 7.63
7/2/2024 11:45:00 AM 22.74 72.932 0.23 7.34 59.49 7.81
7/2/2024 12:00:00 PM 23.03 73.454 0.23 7.39 5205 8.06
7/2/2024 12:15:00 PM 23.3 73.94 0.23 7.44 58.42 8.28
7/2/2024 12:30:00 PM 23.45 74.21 0.23 7.55 58.54 8.42
7/2/2024 12:45:00 PM 23.68 74.624 0.23 7.62 1061 8.65
7/2/2024 1:00:00 PM 23.94 75.092 0.23 7.66 5205 8.83
7/2/2024 1:15:00 PM 24.2 75.56 0.23 7.75 2067 8.96
7/2/2024 1:30:00 PM 24.53 76.154 0.23 7.81 57.36 9.16
7/2/2024 1:45:00 PM 24.86 76.748 0.23 7.84 57.59 9.38
7/2/2024 2:00:00 PM 25.19 77.342 0.23 7.92 57.74 9.53
7/2/2024 2:15:00 PM 25.48 77.864 0.23 8 3587 9.72
7/2/2024 2:30:00 PM 25.74 78.332 0.23 8.09 55.83 9.87
7/2/2024 2:45:00 PM 25.82 78.476 0.23 8.15 56.41 9.85
7/2/2024 3:00:00 PM 25.91 78.638 0.23 8.22 55.35 9.98
7/2/2024 3:15:00 PM 26.1 78.98 0.23 8.29 54.88 10.08
7/2/2024 3:30:00 PM 26.09 78.962 0.23 8.35 54.94 10.17
7/2/2024 3:45:00 PM 26.37 79.466 0.23 8.4 59.67 10.26
7/2/2024 4:00:00 PM 26.36 79.448 0.23 8.47 55.46 10.26
7/2/2024 4:15:00 PM 26.29 79.32201 0.23 8.5 56.12 10.17
7/2/2024 4:30:00 PM 26.34 79.412 0.23 8.53 56.09 10.22
7/2/2024 4:45:00 PM 26.28 79.304 0.23 8.59 55.19 10.19
7/2/2024 5:00:00 PM 26.34 79.412 0.23 8.62 55.64 10.2
7/2/2024 5:15:00 PM 26.25 79.25 0.23 8.66 55.68 10.09
7/2/2024 5:30:00 PM 26.28 79.304 0.23 8.66 55.59 10.04
7/2/2024 5:45:00 PM 26.14 79.052 0.231 8.69 55.93 9.93
7/2/2024 6:00:00 PM 26.15 79.07 0.231 8.65 56.35 9.88
7/2/2024 6:15:00 PM 26.06 78.908 0.231 8.67 55.34 9.81
7/2/2024 6:30:00 PM 26.05 78.89 0.231 8.69 5205 9.75
7/2/2024 6:45:00 PM 25.92 78.656 0.231 8.71 56.04 9.66
7/2/2024 7:00:00 PM 25.85 78.53 0.231 8.71 58.67 9.57
7/2/2024 7:15:00 PM 25.76 78.368 0.232 8.69 56.35 9.45
7/2/2024 7:30:00 PM 25.64 78.152 0.232 8.64 56.24 9.28
7/2/2024 7:45:00 PM 25.55 77.99 0.232 8.58 54.72 9.14
7/2/2024 8:00:00 PM 25.46 77.828 0.232 8.51 56.18 9.03
7/2/2024 8:15:00 PM 25.38 77.684 0.233 8.46 56.36 8.89
7/2/2024 8:30:00 PM 25.29 77.522 0.233 8.43 55.64 8.74
7/2/2024 8:45:00 PM 25.19 77.342 0.233 8.39 56.28 8.6
7/2/2024 9:00:00 PM 25.11 77.198 0.233 8.35 56.24 8.47
7/2/2024 9:15:00 PM 25.04 77.07201 0.233 8.3 59.94 8.35
7/2/2024 9:30:00 PM 24.96 76.92799 0.233 8.25 77.23 8.22
7/2/2024 9:45:00 PM 24.89 76.802 0.233 8.2 5205 8.07
7/2/2024 10:00:00 PM 24.8 76.64 0.234 8.15 452.5 7.97
7/2/2024 10:15:00 PM 24.7 76.46 0.234 8.1 59.21 7.83
7/2/2024 10:30:00 PM 24.66 76.388 0.234 8.06 215 7.75
7/2/2024 10:45:00 PM 24.61 76.298 0.234 8.03 56.23 7.6
7/2/2024 11:00:00 PM 24.49 76.082 0.234 7.99 56.66 7.49
7/2/2024 11:15:00 PM 24.42 75.956 0.235 7.95 60.74 7.39
7/2/2024 11:30:00 PM 24.35 75.83 0.235 7.91 157 7.29
7/2/2024 11:45:00 PM 24.24 75.632 0.235 7.89 56.69 7.2
7/3/2024 12:00:00 AM 24.15 75.47 0.235 7.85 56.94 7.14
7/3/2024 12:15:00 AM 24.07 75.326 0.235 7.82 58.03 7.06
7/3/2024 12:30:00 AM 23.98 75.164 0.236 7.8 58.99 6.97
7/3/2024 12:45:00 AM 23.9 75.02 0.236 7.78 310.3 6.91
7/3/2024 1:00:00 AM 23.79 74.82201 0.236 7.74 535.9 6.84
7/3/2024 1:15:00 AM 23.73 74.714 0.236 7.72 56.73 6.77
7/3/2024 1:30:00 AM 23.66 74.588 0.236 7.69 60.21 6.71
7/3/2024 1:45:00 AM 23.56 74.408 0.237 7.67 250.3 6.68
7/3/2024 2:00:00 AM 23.48 74.264 0.237 7.65 58.28 6.64
7/3/2024 2:15:00 AM 23.42 74.156 0.237 7.63 58.55 6.6
7/3/2024 2:30:00 AM 23.35 74.03 0.237 7.61 58.37 6.58
7/3/2024 2:45:00 AM 23.29 73.922 0.237 7.59 59.14 6.54
7/3/2024 3:00:00 AM 23.22 73.796 0.238 7.56 60.7 6.53
7/3/2024 3:15:00 AM 23.16 73.688 0.238 7.56 60.52 6.49
7/3/2024 3:30:00 AM 23.1 73.58 0.238 7.55 60.32 6.48
7/3/2024 3:45:00 AM 23.05 73.49 0.238 7.54 191.8 6.46
7/3/2024 4:00:00 AM 22.97 73.346 0.238 7.51 60.48 6.44
7/3/2024 4:15:00 AM 22.95 73.31 0.239 7.52 60.61 6.44
7/3/2024 4:30:00 AM 22.9 73.22 0.239 7.51 62.12 6.42
7/3/2024 4:45:00 AM 22.85 73.13 0.239 7.49 63.25 6.4
7/3/2024 5:00:00 AM 22.8 73.04 0.239 7.48 63.11 6.39
7/3/2024 5:15:00 AM 22.72 72.896 0.239 7.47 63.78 6.36
7/3/2024 5:30:00 AM 22.72 72.896 0.24 7.47 66.21 6.37
7/3/2024 5:45:00 AM 22.65 72.77 0.24 7.46 61.39 6.36
7/3/2024 6:00:00 AM 22.59 72.662 0.24 7.46 61.59 6.33
7/3/2024 6:15:00 AM 22.54 72.57201 0.24 7.45 1731 6.33
7/3/2024 6:30:00 AM 22.48 72.464 0.241 7.44 774.3 6.37
7/3/2024 6:45:00 AM 22.47 72.446 0.241 7.43 60.2 6.36
7/3/2024 7:00:00 AM 22.43 72.374 0.241 7.42 61.66 6.37
7/3/2024 7:15:00 AM 22.39 72.302 0.242 7.42 60.46 6.36
7/3/2024 7:30:00 AM 22.37 72.266 0.242 7.38 59.27 6.38
7/3/2024 7:45:00 AM 22.35 72.23 0.242 7.42 60.1 6.39
7/3/2024 8:00:00 AM 22.34 72.212 0.242 7.37 66.34 6.4
7/3/2024 8:15:00 AM 22.33 72.194 0.243 7.42 60.54 6.42
7/3/2024 8:30:00 AM 22.33 72.194 0.243 7.43 96.47 6.45
7/3/2024 8:45:00 AM 22.33 72.194 0.243 7.44 59.89 6.47
7/3/2024 9:00:00 AM 22.32 72.176 0.243 7.44 60.02 6.5
7/3/2024 9:15:00 AM 22.31 72.158 0.244 7.45 60.44 6.53
7/3/2024 9:30:00 AM 22.33 72.194 0.244 7.46 375.2 6.59
7/3/2024 9:45:00 AM 22.36 72.248 0.244 7.48 57.11 6.65
7/3/2024 10:00:00 AM 22.4 72.32 0.244 7.49 58.19 6.77
7/3/2024 10:15:00 AM 22.49 72.482 0.244 7.51 57.68 6.89
7/3/2024 10:30:00 AM 22.6 72.68 0.245 7.53 59.93 7.04
7/3/2024 10:45:00 AM 22.7 72.86 0.245 7.56 58.28 7.2
7/3/2024 11:00:00 AM 22.89 73.202 0.245 7.58 58.65 7.35
7/3/2024 11:15:00 AM 23.08 73.544 0.245 7.61 59.07 7.62
7/3/2024 11:30:00 AM 23.34 74.012 0.245 7.64 59.06 7.85
7/3/2024 11:45:00 AM 23.65 74.57 0.246 7.66 57.88 8.09
7/3/2024 12:00:00 PM 23.94 75.092 0.246 7.71 58.22 8.33
7/3/2024 12:15:00 PM 24.26 75.668 0.246 7.78 58.38 8.57
7/3/2024 12:30:00 PM 24.62 76.316 0.246 7.83 58.55 8.8
7/3/2024 12:45:00 PM 24.9 76.82 0.246 7.9 57.54 9.04
7/3/2024 1:00:00 PM 25.23 77.414 0.244 7.96 57.15 9.23
7/3/2024 1:15:00 PM 25.5 77.9 0.246 8.03 57.36 9.46
7/3/2024 1:30:00 PM 25.79 78.422 0.246 8.11 56.77 9.67
7/3/2024 1:45:00 PM 25.98 78.764 0.247 8.19 56.93 9.87
7/3/2024 2:00:00 PM 26.24 79.232 0.245 8.26 189.1 10.02
7/3/2024 2:15:00 PM 26.52 79.736 0.247 8.34 57 10.16
7/3/2024 2:30:00 PM 26.75 80.15 0.246 8.42 55.79 10.29
7/3/2024 2:45:00 PM 26.94 80.492 0.247 8.5 55.4 10.34
7/3/2024 3:00:00 PM 27.18 80.924 0.246 8.57 56.05 10.43
7/3/2024 3:15:00 PM 27.39 81.302 0.248 8.64 55.69 10.51
7/3/2024 3:30:00 PM 27.51 81.518 0.245 8.71 806.9 10.54
7/3/2024 3:45:00 PM 27.6 81.68 0.249 8.77 55.69 10.57
7/3/2024 4:00:00 PM 27.59 81.662 0.249 8.81 49.53 10.54
7/3/2024 4:15:00 PM 27.67 81.806 0.249 8.84 56.68 10.49
7/3/2024 4:30:00 PM 27.78 82.004 0.249 8.9 56.34 10.61
7/3/2024 4:45:00 PM 27.84 82.112 0.25 8.96 56.55 10.66
7/3/2024 5:00:00 PM 27.85 82.13 0.25 9 56.03 10.67
7/3/2024 5:15:00 PM 27.83 82.094 0.25 9.03 56.12 10.71
7/3/2024 5:30:00 PM 27.71 81.878 0.25 9.04 56.12 10.56
7/3/2024 5:45:00 PM 27.69 81.842 0.251 9.02 56.6 10.48
7/3/2024 6:00:00 PM 27.63 81.734 0.25 9.05 56.71 10.44
7/3/2024 6:15:00 PM 27.49 81.482 0.252 9.07 55.4 10.33
7/3/2024 6:30:00 PM 27.43 81.374 0.252 9.07 55.57 10.27
7/3/2024 6:45:00 PM 27.33 81.194 0.252 9.06 48.4 10.16
7/3/2024 7:00:00 PM 27.13 80.834 0.252 9.06 46.39 10.05
7/3/2024 7:15:00 PM 27.04 80.672 0.252 9.03 54.24 9.88
7/3/2024 7:30:00 PM 26.92 80.456 0.253 8.99 54.38 9.67
7/3/2024 7:45:00 PM 26.78 80.204 0.253 8.94 54.67 9.52
7/3/2024 8:00:00 PM 26.69 80.042 0.253 8.89 55.18 9.38
7/3/2024 8:15:00 PM 26.55 79.79 0.254 8.86 71.71 9.2
7/3/2024 8:30:00 PM 26.43 79.574 0.254 8.81 76.34 9.05
7/3/2024 8:45:00 PM 26.35 79.43 0.254 8.78 55.71 8.89
7/3/2024 9:00:00 PM 26.24 79.232 0.255 8.73 54.67 8.7
7/3/2024 9:15:00 PM 26.11 78.998 0.255 8.68 54.8 8.54
7/3/2024 9:30:00 PM 25.97 78.746 0.255 8.59 55.55 8.39
7/3/2024 9:45:00 PM 25.87 78.566 0.213 8.52 55.9 8.21
7/3/2024 10:00:00 PM 25.78 78.404 0.214 8.47 56.06 8.08
7/3/2024 10:15:00 PM 25.67 78.206 0.256 8.4 422.4 7.93
7/3/2024 10:30:00 PM 25.59 78.062 0.256 8.34 60.05 7.79
7/3/2024 10:45:00 PM 25.51 77.918 0.243 8.28 66.45 7.69
7/3/2024 11:00:00 PM 25.42 77.756 0.256 8.22 56.02 7.55
7/3/2024 11:15:00 PM 25.33 77.594 0.256 8.18 56.55 7.45
7/3/2024 11:30:00 PM 25.25 77.45 0.256 8.13 57.13 7.34
7/3/2024 11:45:00 PM 25.18 77.324 0.254 8.08 57.21 7.21
7/4/2024 12:00:00 AM 25.09 77.162 0.255 8.03 56.6 7.12
7/4/2024 12:15:00 AM 25.04 77.07201 0.256 7.98 56.69 7.04
7/4/2024 12:30:00 AM 24.97 76.946 0.256 7.94 57.23 6.92
7/4/2024 12:45:00 AM 24.91 76.838 0.255 7.91 56.74 6.85
7/4/2024 1:00:00 AM 24.83 76.694 0.256 7.88 56.65 6.75
7/4/2024 1:15:00 AM 24.79 76.622 0.258 7.84 56.32 6.68
7/4/2024 1:30:00 AM 24.7 76.46 0.258 7.82 56.44 6.6
7/4/2024 1:45:00 AM 24.66 76.388 0.258 7.78 54.74 6.52
7/4/2024 2:00:00 AM 24.61 76.298 0.253 7.76 55.81 6.48
7/4/2024 2:15:00 AM 24.56 76.208 0.259 7.74 55.58 6.4
7/4/2024 2:30:00 AM 24.47 76.046 0.259 7.7 55.51 6.36
7/4/2024 2:45:00 AM 24.44 75.992 0.259 7.69 1015 6.32
7/4/2024 3:00:00 AM 24.39 75.902 0.255 7.66 56.11 6.28
7/4/2024 3:15:00 AM 24.32 75.776 0.26 7.66 55.14 6.23
7/4/2024 3:30:00 AM 24.31 75.758 0.259 7.65 55.59 6.2
7/4/2024 3:45:00 AM 24.2 75.56 0.257 7.63 56.42 6.19
7/4/2024 4:00:00 AM 24.15 75.47 0.26 7.62 55.58 6.15
7/4/2024 4:15:00 AM 24.13 75.434 0.26 7.6 55.86 6.12
7/4/2024 4:30:00 AM 24.09 75.362 0.256 7.58 56.68 6.11
7/4/2024 4:45:00 AM 24.07 75.326 0.259 7.57 57.23 6.08
7/4/2024 5:00:00 AM 24 75.2 0.259 7.58 56.06 6.06
7/4/2024 5:15:00 AM 23.99 75.182 0.26 7.58 60.08 6.02
7/4/2024 5:30:00 AM 23.95 75.11 0.259 7.58 56.58 6.03
7/4/2024 5:45:00 AM 23.9 75.02 0.259 7.58 56.98 6
7/4/2024 6:00:00 AM 23.85 74.93 0.256 7.54 56.53 6
7/4/2024 6:15:00 AM 23.83 74.894 0.259 7.56 57.18 6
7/4/2024 6:30:00 AM 23.83 74.894 0.259 7.55 57.09 6.01
7/4/2024 6:45:00 AM 23.79 74.82201 0.259 7.53 57.23 6.02
7/4/2024 7:00:00 AM 23.79 74.82201 0.26 7.56 57.85 6.03
7/4/2024 7:15:00 AM 23.76 74.768 0.255 7.53 58.2 6.04
7/4/2024 7:30:00 AM 23.77 74.786 0.258 7.56 58.51 6.05
7/4/2024 7:45:00 AM 23.77 74.786 0.253 7.55 58.77 6.09
7/4/2024 8:00:00 AM 23.77 74.786 0.239 7.56 58.87 6.15
7/4/2024 8:15:00 AM 23.82 74.876 0.261 7.56 59.42 6.23
7/4/2024 8:30:00 AM 23.82 74.876 0.258 7.59 59.82 6.28
7/4/2024 8:45:00 AM 23.83 74.894 0.261 7.59 55.67 6.32
7/4/2024 9:00:00 AM 23.89 75.002 0.26 7.6 56.4 6.46
7/4/2024 9:15:00 AM 23.92 75.056 0.26 7.62 56.64 6.54
7/4/2024 9:30:00 AM 23.95 75.11 0.26 7.65 56.47 6.61
7/4/2024 9:45:00 AM 23.95 75.11 0.26 7.66 56.28 6.69
7/4/2024 10:00:00 AM 24.03 75.254 0.262 7.68 55.81 6.85
7/4/2024 10:15:00 AM 24.1 75.38 0.251 7.71 55.54 7.02
7/4/2024 10:30:00 AM 24.16 75.488 0.256 7.73 55.4 7.17
7/4/2024 10:45:00 AM 24.26 75.668 0.259 7.76 54.98 7.33
7/4/2024 11:00:00 AM 24.38 75.884 0.256 7.79 53.84 7.56
7/4/2024 11:15:00 AM 24.54 76.172 0.236 7.83 53.96 7.83
7/4/2024 11:30:00 AM 24.77 76.586 0.262 7.87 54.91 8.14
7/4/2024 11:45:00 AM 25.05 77.09 0.255 7.92 54.91 8.38
7/4/2024 12:00:00 PM 25.33 77.594 0.257 7.99 95.32 8.69
7/4/2024 12:15:00 PM 25.54 77.972 0.253 8.04 54.4 8.89
7/4/2024 12:30:00 PM 25.92 78.656 0.258 8.13 57.12 9.22
7/4/2024 12:45:00 PM 26.21 79.17799 0.248 8.24 212.1 9.46
7/4/2024 1:00:00 PM 26.48 79.664 0.244 8.33 54.18 9.66
7/4/2024 1:15:00 PM 26.61 79.898 0.245 8.43 57.39 9.82
7/4/2024 1:30:00 PM 26.94 80.492 0.224 8.52 57.89 10
7/4/2024 1:45:00 PM 27.2 80.96 0.215 8.61 59.94 10.18
7/4/2024 2:00:00 PM 27.36 81.248 0.257 8.7 317 10.26
7/4/2024 2:15:00 PM 27.67 81.806 0.259 8.79 55.38 10.37
7/4/2024 2:30:00 PM 27.84 82.112 0.262 8.87 54.26 10.49
7/4/2024 2:45:00 PM 28.12 82.616 0.262 8.91 54.43 10.52
7/4/2024 3:00:00 PM 28.27 82.886 0.262 8.98 77.32 10.75
7/4/2024 3:15:00 PM 28.5 83.3 0.262 9.03 52.78 10.8
7/4/2024 3:30:00 PM 28.72 83.696 0.261 9.08 53.17 10.79
7/4/2024 3:45:00 PM 28.92 84.056 0.248 9.12 53.04 10.99
7/4/2024 4:00:00 PM 29.02 84.236 0.251 9.17 53.14 10.95
7/4/2024 4:15:00 PM 29.21 84.578 0.258 9.18 437.6 11
7/4/2024 4:30:00 PM 29.38 84.884 0.204 9.22 52.71 11.14
7/4/2024 4:45:00 PM 29.46 85.028 0.252 9.3 52.94 11.18
7/4/2024 5:00:00 PM 29.36 84.848 0.235 9.27 48.81 10.99
7/4/2024 5:15:00 PM 29.2 84.56001 0.253 9.27 48.24 10.88
7/4/2024 5:30:00 PM 29.06 84.308 0.174 9.25 48.49 10.76
7/4/2024 5:45:00 PM 28.96 84.128 0.222 9.23 53.09 10.52
7/4/2024 6:00:00 PM 28.83 83.894 0.155 9.22 53.82 10.57
7/4/2024 6:15:00 PM 28.72 83.696 0.201 9.19 1097 10.32
7/4/2024 6:30:00 PM 28.64 83.552 0.211 9.19 1119 10.11
7/4/2024 6:45:00 PM 28.59 83.462 0.247 9.19 52.72 9.97
7/4/2024 7:00:00 PM 28.51 83.318 0.253 9.14 82.91 9.75
7/4/2024 7:15:00 PM 28.43 83.174 0.252 9.09 53.12 9.55
7/4/2024 7:30:00 PM 28.35 83.03 0.224 9.05 375.1 9.34
7/4/2024 7:45:00 PM 28.29 82.922 0.222 9 54.15 9.13
7/4/2024 8:00:00 PM 28.21 82.778 0.189 8.95 53.59 8.98
7/4/2024 8:15:00 PM 28.14 82.652 0.256 8.9 107.8 8.8
7/4/2024 8:30:00 PM 28.07 82.526 0.238 8.86 53.45 8.61
7/4/2024 8:45:00 PM 28 82.4 0.241 8.79 53.3 8.44
7/4/2024 9:00:00 PM 27.93 82.274 0.188 8.74 53.79 8.27
7/4/2024 9:15:00 PM 27.86 82.148 0.243 8.68 56.29 8.1
7/4/2024 9:30:00 PM 27.79 82.022 0.248 8.61 63.93 7.92
7/4/2024 9:45:00 PM 27.73 81.914 0.223 8.55 2182 7.75
7/4/2024 10:00:00 PM 27.66 81.788 0.114 8.48 82.86 7.6
7/4/2024 10:15:00 PM 27.6 81.68 0.131 8.42 54.08 7.46
7/4/2024 10:30:00 PM 27.54 81.57201 0.229 8.36 53.69 7.29
7/4/2024 10:45:00 PM 27.48 81.464 0.172 8.29 53.85 7.15
7/4/2024 11:00:00 PM 27.43 81.374 0.179 8.24 54.26 7
7/4/2024 11:15:00 PM 27.38 81.284 0.176 8.18 4874 6.88
7/4/2024 11:30:00 PM 27.31 81.158 0.116 8.13 54.12 6.74
7/4/2024 11:45:00 PM 27.27 81.086 0.206 8.07 394.9 6.62
7/5/2024 12:00:00 AM 27.21 80.978 0.252 8.03 61.17 6.52
7/5/2024 12:15:00 AM 27.17 80.906 0.197 7.99 54.78 6.42
7/5/2024 12:30:00 AM 27.09 80.762 0.23 7.95 70.89 6.3
7/5/2024 12:45:00 AM 27.05 80.69 0.263 7.91 60.3 6.2
7/5/2024 1:00:00 AM 27 80.6 0.261 7.88 97.68 6.14
7/5/2024 1:15:00 AM 26.94 80.492 0.266 7.85 54.92 6.06
7/5/2024 1:30:00 AM 26.89 80.402 0.264 7.82 73.76 5.96
7/5/2024 1:45:00 AM 26.84 80.312 0.266 7.79 53.38 5.92
7/5/2024 2:00:00 AM 26.79 80.222 0.264 7.76 57.89 5.86
7/5/2024 2:15:00 AM 26.73 80.114 0.265 7.74 54.77 5.83
7/5/2024 2:30:00 AM 26.7 80.06 0.25 7.72 56.14 5.74
7/5/2024 2:45:00 AM 26.65 79.97 0.266 7.7 55.03 5.72
7/5/2024 3:00:00 AM 26.59 79.862 0.264 7.68 55.82 5.65
7/5/2024 3:15:00 AM 26.55 79.79 0.263 7.67 56.77 5.62
7/5/2024 3:30:00 AM 26.49 79.682 0.266 7.66 57.28 5.59
7/5/2024 3:45:00 AM 26.45 79.61 0.266 7.64 58.71 5.55
7/5/2024 4:00:00 AM 26.4 79.52 0.266 7.62 58.89 5.52
7/5/2024 4:15:00 AM 26.37 79.466 0.266 7.6 57.02 5.5
7/5/2024 4:30:00 AM 26.32 79.376 0.266 7.58 58.18 5.47
7/5/2024 4:45:00 AM 26.28 79.304 0.265 7.58 55.32 5.48
7/5/2024 5:00:00 AM 26.24 79.232 0.266 7.56 55.36 5.42
7/5/2024 5:15:00 AM 26.22 79.196 0.263 7.55 57.51 5.4
7/5/2024 5:30:00 AM 26.17 79.106 0.266 7.56 57.07 5.4
7/5/2024 5:45:00 AM 26.12 79.016 0.266 7.54 56.48 5.37
7/5/2024 6:00:00 AM 26.11 78.998 0.263 7.53 911 5.35
7/5/2024 6:15:00 AM 26.07 78.926 0.26 7.51 886.5 5.36
7/5/2024 6:30:00 AM 26.06 78.908 0.26 7.51 55.65 5.35
7/5/2024 6:45:00 AM 26.02 78.836 0.265 7.5 57.5 5.36
7/5/2024 7:00:00 AM 26.01 78.818 0.26 7.5 56.78 5.36
7/5/2024 7:15:00 AM 26 78.8 0.262 7.5 55.87 5.37
7/5/2024 7:30:00 AM 25.99 78.782 0.264 7.52 55.79 5.4
7/5/2024 7:45:00 AM 25.97 78.746 0.256 7.51 56.04 5.4
7/5/2024 8:00:00 AM 25.96 78.728 0.263 7.51 55.91 5.43
7/5/2024 8:15:00 AM 25.95 78.71 0.264 7.52 56.32 5.44
7/5/2024 8:30:00 AM 25.96 78.728 0.264 7.53 56.68 5.51
7/5/2024 8:45:00 AM 25.99 78.782 0.256 7.53 58.34 5.59
7/5/2024 9:00:00 AM 25.98 78.764 0.259 7.54 57.05 5.61
7/5/2024 9:15:00 AM 25.98 78.764 0.221 7.55 1083 5.71
7/5/2024 9:30:00 AM 26.06 78.908 0.244 7.57 56.65 5.79
7/5/2024 9:45:00 AM 26.07 78.926 0.252 7.58 57.06 5.89
7/5/2024 10:00:00 AM 26.1 78.98 0.257 7.59 59.13 5.98
7/5/2024 10:15:00 AM 26.14 79.052 0.264 7.61 54.78 6.06
7/5/2024 10:30:00 AM 26.21 79.17799 0.264 7.63 56.99 6.21
7/5/2024 10:45:00 AM 26.3 79.34 0.255 7.66 56.03 6.42
7/5/2024 11:00:00 AM 26.38 79.484 0.246 7.7 55.62 6.56
7/5/2024 11:15:00 AM 26.46 79.628 0.256 7.72 54.88 6.71
7/5/2024 11:30:00 AM 26.7 80.06 0.235 7.75 995.1 7.02
7/5/2024 11:45:00 AM 26.71 80.078 0.263 7.78 53.86 7.09
7/5/2024 12:00:00 PM 26.98 80.564 0.257 7.83 54 7.38
7/5/2024 12:15:00 PM 27.17 80.906 0.261 7.87 53.96 7.54
7/5/2024 12:30:00 PM 27.5 81.5 0.265 7.91 54.26 7.86
7/5/2024 12:45:00 PM 27.7 81.86 0.218 7.96 56.57 8.06
7/5/2024 1:00:00 PM 28.01 82.418 0.239 8.01 53.54 8.25
7/5/2024 1:15:00 PM 28.25 82.85 0.245 8.08 54.08 8.48
7/5/2024 1:30:00 PM 28.37 83.066 0.246 8.14 55.12 8.65
7/5/2024 1:45:00 PM 28.25 82.85 0.26 8.21 53.92 8.6
7/5/2024 2:00:00 PM 28.25 82.85 0.222 8.27 53.92 8.84
7/5/2024 2:15:00 PM 28.33 82.994 0.155 8.33 54.18 8.97
7/5/2024 2:30:00 PM 28.43 83.174 0.192 8.42 54.09 9.18
7/5/2024 2:45:00 PM 28.5 83.3 0.169 8.47 53.44 9.25
7/5/2024 3:00:00 PM 28.63 83.534 0.181 8.53 53.91 9.36
7/5/2024 3:15:00 PM 28.7 83.66 0.176 8.58 53.91 9.48
7/5/2024 3:30:00 PM 28.82 83.876 0.165 8.66 54.27 9.59
7/5/2024 3:45:00 PM 28.91 84.038 0.168 8.7 54.48 9.71
7/5/2024 4:00:00 PM 29.11 84.39799 0.09 8.77 57.2 9.82
7/5/2024 4:15:00 PM 29.12 84.416 0.134 8.82 53.66 9.86
7/5/2024 4:30:00 PM 29.11 84.39799 0.105 8.84 64.94 9.79
7/5/2024 4:45:00 PM 29.11 84.39799 0.057 8.85 54.02 9.78
7/5/2024 5:00:00 PM 29.15 84.47 0.098 8.87 54.41 9.81
7/5/2024 5:15:00 PM 29.17 84.506 0.083 8.9 54.79 9.82
7/5/2024 5:30:00 PM 29.24 84.632 0.065 8.93 55.21 9.85
7/5/2024 5:45:00 PM 29.3 84.74 0.124 8.95 55.2 9.81
7/5/2024 6:00:00 PM 29.27 84.686 0.083 8.98 54.03 9.75
7/5/2024 6:15:00 PM 29.27 84.686 0.093 8.96 54.95 9.65
7/5/2024 6:30:00 PM 29.26 84.668 0.1 8.96 55.18 9.56
7/5/2024 6:45:00 PM 29.29 84.722 0.065 8.94 53.54 9.49
7/5/2024 7:00:00 PM 29.24 84.632 0.118 8.92 54.35 9.39
7/5/2024 7:15:00 PM 29.17 84.506 0.126 8.9 54.08 9.18
7/5/2024 7:30:00 PM 29.09 84.362 0.134 8.86 54.54 8.96
7/5/2024 7:45:00 PM 29.01 84.218 0.091 8.82 55.01 8.8
7/5/2024 8:00:00 PM 28.93 84.074 0.138 8.77 54.44 8.65
7/5/2024 8:15:00 PM 28.86 83.948 0.11 8.73 54.8 8.52
7/5/2024 8:30:00 PM 28.79 83.82201 0.14 8.68 54.25 8.33
7/5/2024 8:45:00 PM 28.72 83.696 0.117 8.64 53.52 7.97
7/5/2024 9:00:00 PM 28.64 83.552 0.171 8.56 55.68 7.85
7/5/2024 9:15:00 PM 28.56 83.408 0.129 8.5 55.21 7.68
7/5/2024 9:30:00 PM 28.51 83.318 0.118 8.44 54.22 7.15
7/5/2024 9:45:00 PM 28.43 83.174 0.139 8.39 55.54 7.35
7/5/2024 10:00:00 PM 28.36 83.048 0.151 8.32 55.22 7.06
7/5/2024 10:15:00 PM 28.31 82.958 0.147 8.26 55.76 6.86
7/5/2024 10:30:00 PM 28.25 82.85 0.141 8.2 55.52 6.45
7/5/2024 10:45:00 PM 28.2 82.76 0.148 8.14 56.96 6.74
7/5/2024 11:00:00 PM 28.14 82.652 0.119 8.11 58.96 6.62
7/5/2024 11:15:00 PM 28.07 82.526 0.152 8.05 55.93 6.58
7/5/2024 11:30:00 PM 28.04 82.472 0.196 8 54.04 6.47
7/5/2024 11:45:00 PM 27.97 82.346 0.23 7.95 54.43 6.35
7/6/2024 12:00:00 AM 27.93 82.274 0.263 7.91 55.4 6.25
7/6/2024 12:15:00 AM 27.89 82.202 0.273 7.87 333.8 6.14
7/6/2024 12:30:00 AM 27.86 82.148 0.274 7.86 58.7 6
7/6/2024 12:45:00 AM 27.83 82.094 0.274 7.84 58.38 5.86
7/6/2024 1:00:00 AM 27.79 82.022 0.273 7.81 59.62 5.55
7/6/2024 1:15:00 AM 27.75 81.95 0.275 7.78 60.63 4.81
7/6/2024 1:30:00 AM 27.72 81.896 0.274 7.75 64.72 5.57
7/6/2024 1:45:00 AM 27.68 81.824 0.275 7.73 55.89 5.52
7/6/2024 2:00:00 AM 27.63 81.734 0.274 7.71 58.76 5.44
7/6/2024 2:15:00 AM 27.6 81.68 0.274 7.7 58.91 5.4
7/6/2024 2:30:00 AM 27.56 81.608 0.275 7.68 58.59 5.35
7/6/2024 2:45:00 AM 27.52 81.536 0.274 7.66 57.18 5.31
7/6/2024 3:00:00 AM 27.5 81.5 0.275 7.64 58.06 5.23
7/6/2024 3:15:00 AM 27.43 81.374 0.274 7.62 58.27 5.2
7/6/2024 3:30:00 AM 27.4 81.32 0.275 7.6 56.38 5.19
7/6/2024 3:45:00 AM 27.34 81.212 0.274 7.59 2170 5.14
7/6/2024 4:00:00 AM 27.3 81.14 0.273 7.58 56.97 5.15
7/6/2024 4:15:00 AM 27.25 81.05 0.275 7.57 57.23 5.16
7/6/2024 4:30:00 AM 27.23 81.014 0.274 7.56 58.91 5.17
7/6/2024 4:45:00 AM 27.18 80.924 0.275 7.55 58.77 5.18
7/6/2024 5:00:00 AM 27.17 80.906 0.274 7.53 63.05 5.15
7/6/2024 5:15:00 AM 27.17 80.906 0.274 7.53 57.52 5.14
7/6/2024 5:30:00 AM 27.13 80.834 0.275 7.52 59.36 5.14
7/6/2024 5:45:00 AM 27.11 80.798 0.275 7.52 59.28 5.14
7/6/2024 6:00:00 AM 27.12 80.816 0.276 7.51 57.98 5.15
7/6/2024 6:15:00 AM 27.08 80.744 0.275 7.51 60.78 5.14
7/6/2024 6:30:00 AM 27.03 80.654 0.275 7.51 63.1 5.19
7/6/2024 6:45:00 AM 27.05 80.69 0.275 7.51 58.89 5.15
7/6/2024 7:00:00 AM 27 80.6 0.275 7.51 60.12 5.16
7/6/2024 7:15:00 AM 26.97 80.546 0.276 7.51 58.62 5.15
7/6/2024 7:30:00 AM 26.98 80.564 0.275 7.5 57.88 5.19
7/6/2024 7:45:00 AM 26.96 80.528 0.275 7.5 58.35 5.18
7/6/2024 8:00:00 AM 26.97 80.546 0.275 7.5 58.96 5.22
7/6/2024 8:15:00 AM 26.95 80.51 0.274 7.5 58.23 5.22
7/6/2024 8:30:00 AM 26.96 80.528 0.275 7.51 58.1 5.27
7/6/2024 8:45:00 AM 26.96 80.528 0.274 7.51 56.53 5.25
7/6/2024 9:00:00 AM 26.95 80.51 0.275 7.51 57.16 5.33
7/6/2024 9:15:00 AM 26.98 80.564 0.275 7.52 56.44 5.43
7/6/2024 9:30:00 AM 26.99 80.582 0.275 7.53 57.78 5.56
7/6/2024 9:45:00 AM 26.98 80.564 0.274 7.54 57.16 5.67
7/6/2024 10:00:00 AM 27.06 80.708 0.275 7.55 57.23 5.85
7/6/2024 10:15:00 AM 27.08 80.744 0.275 7.57 57.81 5.92
7/6/2024 10:30:00 AM 27.17 80.906 0.275 7.58 57.98 6.07
7/6/2024 10:45:00 AM 27.25 81.05 0.274 7.61 57.32 6.24
7/6/2024 11:00:00 AM 27.41 81.338 0.275 7.64 57.32 6.37
7/6/2024 11:15:00 AM 27.55 81.59 0.274 7.67 60.43 6.64
7/6/2024 11:30:00 AM 27.78 82.004 0.274 7.71 57.63 6.92
7/6/2024 11:45:00 AM 27.92 82.256 0.274 7.75 58.73 7.1
7/6/2024 12:00:00 PM 28.23 82.814 0.273 7.79 57.85 7.26
7/6/2024 12:15:00 PM 28.48 83.264 0.273 7.83 57.52 7.61
7/6/2024 12:30:00 PM 28.68 83.624 0.273 7.88 57.5 7.79
7/6/2024 12:45:00 PM 28.89 84.002 0.274 7.94 239.9 8.01
7/6/2024 1:00:00 PM 28.98 84.164 0.274 7.98 57.47 8.06
7/6/2024 1:15:00 PM 29.12 84.416 0.273 8.03 57.2 8.19
7/6/2024 1:30:00 PM 29.34 84.812 0.272 8.07 57.35 8.39
7/6/2024 1:45:00 PM 29.63 85.334 0.273 8.13 75.16 8.55
7/6/2024 2:00:00 PM 29.88 85.784 0.272 8.18 57.28 8.83
7/6/2024 2:15:00 PM 30.07 86.126 0.272 8.25 57.92 8.93
7/6/2024 2:30:00 PM 30.23 86.414 0.272 8.32 58.09 9.1
7/6/2024 2:45:00 PM 30.37 86.666 0.271 8.4 58.45 9.16
7/6/2024 3:00:00 PM 30.53 86.954 0.271 8.44 58.83 9.23
7/6/2024 3:15:00 PM 30.75 87.35 0.27 8.5 57.65 9.42
7/6/2024 3:30:00 PM 31.03 87.854 0.27 8.55 57.93 9.55
7/6/2024 3:45:00 PM 31.19 88.142 0.269 8.62 60.75 9.7
7/6/2024 4:00:00 PM 31.34 88.412 0.269 8.68 180.9 9.78
7/6/2024 4:15:00 PM 31.48 88.664 0.268 8.71 58.78 9.76
7/6/2024 4:30:00 PM 31.4 88.52 0.268 8.75 59.09 9.71
7/6/2024 4:45:00 PM 31.28 88.304 0.268 8.75 59.65 9.63
7/6/2024 5:00:00 PM 31.31 88.358 0.267 8.76 59.52 9.55
7/6/2024 5:15:00 PM 31.07 87.926 0.266 8.77 60.14 9.39
7/6/2024 5:30:00 PM 30.91 87.638 0.266 8.75 62.48 9.24
7/6/2024 5:45:00 PM 30.86 87.548 0.265 8.73 62.54 9.08
7/6/2024 6:00:00 PM 30.76 87.368 0.264 8.72 60.38 8.93
7/6/2024 6:15:00 PM 30.63 87.134 0.263 8.7 60.77 8.79
7/6/2024 6:30:00 PM 30.51 86.918 0.262 8.66 61.82 8.54
7/6/2024 6:45:00 PM 30.43 86.774 0.262 8.62 62.14 8.37
7/6/2024 7:00:00 PM 30.32 86.576 0.261 8.58 62.06 8.21
7/6/2024 7:15:00 PM 30.23 86.414 0.26 8.54 62.94 8.07
7/6/2024 7:30:00 PM 30.14 86.252 0.26 8.48 63.93 7.89
7/6/2024 7:45:00 PM 30.05 86.09 0.259 8.44 83.97 7.74
7/6/2024 8:00:00 PM 29.96 85.92799 0.258 8.38 62.29 7.59
7/6/2024 8:15:00 PM 29.86 85.748 0.258 8.34 63.08 7.4
7/6/2024 8:30:00 PM 29.77 85.586 0.257 8.3 63.16 7.25
7/6/2024 8:45:00 PM 29.67 85.406 0.257 8.24 64.15 7.13
7/6/2024 9:00:00 PM 29.57 85.226 0.256 8.19 64.81 7.02
7/6/2024 9:15:00 PM 29.48 85.064 0.256 8.14 59.81 6.83
7/6/2024 9:30:00 PM 29.4 84.92 0.255 8.09 60.24 6.73
7/6/2024 9:45:00 PM 29.32 84.776 0.255 8.05 60.33 6.64
7/6/2024 10:00:00 PM 29.24 84.632 0.254 8 450.4 6.5
7/6/2024 10:15:00 PM 29.16 84.488 0.254 7.96 60.94 6.35
7/6/2024 10:30:00 PM 29.09 84.362 0.253 7.92 59.96 6.3
7/6/2024 10:45:00 PM 29.03 84.25401 0.253 7.88 61.27 6.19
7/6/2024 11:00:00 PM 28.94 84.092 0.252 7.85 61.7 6.12
7/6/2024 11:15:00 PM 28.86 83.948 0.252 7.81 59.39 6.02
7/6/2024 11:30:00 PM 28.78 83.804 0.251 7.78 63.03 5.95
7/6/2024 11:45:00 PM 28.65 83.57 0.251 7.75 60.17 5.87
7/7/2024 12:00:00 AM 28.6 83.48 0.252 7.72 68.3 5.78
7/7/2024 12:15:00 AM 28.54 83.372 0.251 7.69 61.38 5.7
7/7/2024 12:30:00 AM 28.45 83.21001 0.251 7.67 60.14 5.64
7/7/2024 12:45:00 AM 28.34 83.012 0.251 7.64 59.08 5.57
7/7/2024 1:00:00 AM 28.26 82.868 0.251 7.62 59.89 5.53
7/7/2024 1:15:00 AM 28.19 82.742 0.251 7.6 60.38 5.47
7/7/2024 1:30:00 AM 28.11 82.598 0.25 7.58 60.15 5.41
7/7/2024 1:45:00 AM 28.02 82.436 0.25 7.56 61.31 5.38
7/7/2024 2:00:00 AM 27.93 82.274 0.25 7.54 61.34 5.34
7/7/2024 2:15:00 AM 27.87 82.166 0.25 7.53 63.63 5.31
7/7/2024 2:30:00 AM 27.8 82.04 0.25 7.49 60.01 5.3
7/7/2024 2:45:00 AM 27.72 81.896 0.25 7.48 2059 5.26
7/7/2024 3:00:00 AM 27.66 81.788 0.249 7.47 60.58 5.25
7/7/2024 3:15:00 AM 27.59 81.662 0.249 7.45 61.96 5.22
7/7/2024 3:30:00 AM 27.53 81.554 0.249 7.44 61.59 5.22
7/7/2024 3:45:00 AM 27.45 81.41 0.249 7.43 63.64 5.24
7/7/2024 4:00:00 AM 27.4 81.32 0.249 7.42 62.13 5.21
7/7/2024 4:15:00 AM 27.36 81.248 0.249 7.4 63.53 5.19
7/7/2024 4:30:00 AM 27.25 81.05 0.249 7.39 64.68 5.17
7/7/2024 4:45:00 AM 27.21 80.978 0.249 7.38 65.58 5.17
7/7/2024 5:00:00 AM 27.16 80.888 0.249 7.37 67.29 5.16
7/7/2024 5:15:00 AM 27.08 80.744 0.249 7.36 66.2 5.15
7/7/2024 5:30:00 AM 27.01 80.618 0.249 7.32 64.11 5.15
7/7/2024 5:45:00 AM 26.95 80.51 0.248 7.35 64.77 5.14
7/7/2024 6:00:00 AM 26.91 80.438 0.248 7.32 66.42 5.14
7/7/2024 6:15:00 AM 26.84 80.312 0.248 7.32 68.49 5.16
7/7/2024 6:30:00 AM 26.78 80.204 0.248 7.31 67.8 5.16
7/7/2024 6:45:00 AM 26.73 80.114 0.248 7.33 68.27 5.14
7/7/2024 7:00:00 AM 26.69 80.042 0.248 7.36 69.4 5.17
7/7/2024 7:15:00 AM 26.64 79.952 0.248 7.36 69.73 5.16
7/7/2024 7:30:00 AM 26.6 79.88 0.248 7.37 68.64 5.2
7/7/2024 7:45:00 AM 26.59 79.862 0.248 7.38 64.56 5.21
7/7/2024 8:00:00 AM 26.55 79.79 0.248 7.38 61.31 5.22
7/7/2024 8:15:00 AM 26.53 79.754 0.248 7.4 60.51 5.22
7/7/2024 8:30:00 AM 26.51 79.718 0.248 7.41 61.23 5.26
7/7/2024 8:45:00 AM 26.5 79.7 0.248 7.42 713.6 5.27
7/7/2024 9:00:00 AM 26.5 79.7 0.248 7.42 59.65 5.32
7/7/2024 9:15:00 AM 26.49 79.682 0.248 7.43 66.71 5.34
7/7/2024 9:30:00 AM 26.49 79.682 0.248 7.43 60.07 5.39
7/7/2024 9:45:00 AM 26.51 79.718 0.248 7.45 60.81 5.49
7/7/2024 10:00:00 AM 26.52 79.736 0.247 7.46 61.99 5.59
7/7/2024 10:15:00 AM 26.6 79.88 0.247 7.46 62.96 5.67
7/7/2024 10:30:00 AM 26.68 80.024 0.247 7.47 64.66 5.82
7/7/2024 10:45:00 AM 26.84 80.312 0.247 7.49 88.21 6.08
7/7/2024 11:00:00 AM 26.98 80.564 0.247 7.52 64.83 6.31
7/7/2024 11:15:00 AM 27.2 80.96 0.247 7.55 64.68 6.56
7/7/2024 11:30:00 AM 27.37 81.266 0.247 7.58 62.51 6.83
7/7/2024 11:45:00 AM 27.64 81.752 0.247 7.62 61.55 7.09
7/7/2024 12:00:00 PM 27.97 82.346 0.246 7.66 92.69 7.33
7/7/2024 12:15:00 PM 28.04 82.472 0.246 7.71 60.92 7.5
7/7/2024 12:30:00 PM 28.29 82.922 0.246 7.75 59.9 7.73
7/7/2024 12:45:00 PM 28.6 83.48 0.246 7.8 60.45 7.96
7/7/2024 1:00:00 PM 28.91 84.038 0.246 7.86 62.69 8.19
7/7/2024 1:15:00 PM 29.23 84.614 0.246 7.91 62.57 8.38
7/7/2024 1:30:00 PM 29.49 85.082 0.246 7.98 61.66 8.6
7/7/2024 1:45:00 PM 29.82 85.676 0.246 8.07 63.02 8.85
7/7/2024 2:00:00 PM 30 86 0.247 8.15 62.99 9
7/7/2024 2:15:00 PM 30.34 86.612 0.247 8.25 63.43 9.16
7/7/2024 2:30:00 PM 30.58 87.044 0.247 8.35 146.1 9.29
7/7/2024 2:45:00 PM 30.85 87.53 0.247 8.43 306.2 9.38
7/7/2024 3:00:00 PM 31.1 87.98 0.247 8.51 59.88 9.46
7/7/2024 3:15:00 PM 31.27 88.286 0.247 8.59 62.79 9.54
7/7/2024 3:30:00 PM 31.4 88.52 0.247 8.65 63.4 9.64
7/7/2024 3:45:00 PM 31.27 88.286 0.247 8.69 64.3 9.63
7/7/2024 4:00:00 PM 31.44 88.592 0.247 8.73 62 9.7
7/7/2024 4:15:00 PM 31.62 88.916 0.247 8.78 57.82 9.72
7/7/2024 4:30:00 PM 31.69 89.042 0.246 8.84 65.24 9.69
7/7/2024 4:45:00 PM 31.59 88.862 0.247 8.86 62.7 9.62
7/7/2024 5:00:00 PM 31.61 88.89799 0.246 8.87 63.16 9.5
7/7/2024 5:15:00 PM 31.32 88.376 0.247 8.9 64.78 9.41
7/7/2024 5:30:00 PM 31.17 88.106 0.247 8.86 66.86 9.27
7/7/2024 5:45:00 PM 31.13 88.034 0.246 8.85 67.18 9.23
7/7/2024 6:00:00 PM 31.08 87.944 0.246 8.83 71.55 9.14
7/7/2024 6:15:00 PM 30.93 87.674 0.247 8.82 70.01 9.05
7/7/2024 6:30:00 PM 30.84 87.512 0.249 8.8 89.63 8.96
7/7/2024 6:45:00 PM 30.7 87.26 0.249 8.8 113.5 8.79
7/7/2024 7:00:00 PM 30.53 86.954 0.233 8.76 69.26 8.63
7/7/2024 7:15:00 PM 30.37 86.666 0.25 8.73 71.46 8.5
7/7/2024 7:30:00 PM 30.24 86.432 0.242 8.68 70.18 8.3
7/7/2024 7:45:00 PM 30.08 86.144 0.249 8.61 71.45 8.12
7/7/2024 8:00:00 PM 29.94 85.892 0.252 8.55 69.84 7.96
7/7/2024 8:15:00 PM 29.79 85.622 0.252 8.5 70.93 7.79
7/7/2024 8:30:00 PM 29.64 85.35201 0.252 8.43 72.29 7.61
7/7/2024 8:45:00 PM 29.52 85.136 0.252 8.36 72.71 7.46
7/7/2024 9:00:00 PM 29.37 84.866 0.253 8.29 72.92 7.29
7/7/2024 9:15:00 PM 29.25 84.65 0.252 8.23 71.31 7.13
7/7/2024 9:30:00 PM 29.13 84.434 0.253 8.16 71.47 6.97
7/7/2024 9:45:00 PM 29 84.2 0.254 8.1 72.24 6.82
7/7/2024 10:00:00 PM 28.9 84.02 0.253 8.05 125.3 6.67
7/7/2024 10:15:00 PM 28.83 83.894 0.248 7.99 105 6.54
7/7/2024 10:30:00 PM 28.73 83.714 0.235 7.93 74.01 6.42
7/7/2024 10:45:00 PM 28.63 83.534 0.214 7.88 69.37 6.32
7/7/2024 11:00:00 PM 28.56 83.408 0.184 7.84 69.23 6.21
7/7/2024 11:15:00 PM 28.46 83.228 0.19 7.8 71.02 6.07
7/7/2024 11:30:00 PM 28.37 83.066 0.161 7.76 76.3 6.02
7/7/2024 11:45:00 PM 28.28 82.904 0.129 7.72 73.32 5.94
7/8/2024 12:00:00 AM 28.19 82.742 0.123 7.7 74.98 5.88
7/8/2024 12:15:00 AM 28.11 82.598 0.154 7.66 75.27 5.77
7/8/2024 12:30:00 AM 28.02 82.436 0.118 7.64 76.56 5.72
7/8/2024 12:45:00 AM 27.93 82.274 0.036 7.62 77.99 5.66
7/8/2024 1:00:00 AM 27.79 82.022 0.074 7.6 79.79 5.62
7/8/2024 1:15:00 AM 27.75 81.95 0.028 7.57 81.69 5.56
7/8/2024 1:30:00 AM 27.62 81.716 0.026 7.56 81.92 5.52
7/8/2024 1:45:00 AM 27.52 81.536 0.003 7.55 78.19 5.47
7/8/2024 2:00:00 AM 27.44 81.392 0.005 7.55 79.26 5.39
7/8/2024 2:15:00 AM 27.37 81.266 0.022 7.55 85.61 5.37
7/8/2024 2:30:00 AM 27.3 81.14 0.005 7.56 71.57 5.34
7/8/2024 2:45:00 AM 27.18 80.924 0 7.54 71.12 5.3
7/8/2024 3:00:00 AM 27.07 80.726 0.002 7.55 72.68 5.26
7/8/2024 3:15:00 AM 26.97 80.546 0 7.57 73.4 5.24
7/8/2024 3:30:00 AM 26.9 80.42 0 7.6 76.08 5.23
7/8/2024 3:45:00 AM 26.85 80.33 0 7.57 76.22 5.25
7/8/2024 4:00:00 AM 26.75 80.15 0 7.59 74.33 5.23
7/8/2024 4:15:00 AM 26.65 79.97 0 7.61 77.71 5.22
7/8/2024 4:30:00 AM 26.61 79.898 0 7.6 79.72 5.22
7/8/2024 4:45:00 AM 26.52 79.736 0 7.59 77.1 5.19
7/8/2024 5:00:00 AM 26.45 79.61 0 7.58 79.5 5.18
7/8/2024 5:15:00 AM 26.41 79.538 0 7.56 80.07 5.15
7/8/2024 5:30:00 AM 26.34 79.412 0 7.59 82.2 5.14
7/8/2024 5:45:00 AM 26.29 79.32201 0 7.57 201.9 5.1
7/8/2024 6:00:00 AM 26.23 79.214 0 7.58 90.86 5.08
7/8/2024 6:15:00 AM 26.18 79.124 0 7.56 89.18 5.09
7/8/2024 6:30:00 AM 26.11 78.998 0 7.53 89.55 5.12
7/8/2024 6:45:00 AM 26.06 78.908 0 7.44 90.11 5.12
7/8/2024 7:00:00 AM 25.98 78.764 0 7.38 88.68 5.16
7/8/2024 7:15:00 AM 25.98 78.764 0 7.31 85.7 5.2
7/8/2024 7:30:00 AM 25.98 78.764 0 7.28 85.88 5.2
7/8/2024 7:45:00 AM 25.96 78.728 0 7.31 87.67 5.26
7/8/2024 8:00:00 AM 26 78.8 0 7.39 154.1 5.3
7/8/2024 8:15:00 AM 25.97 78.746 0 7.41 87.04 5.32
7/8/2024 8:30:00 AM 26.02 78.836 0 7.42 85.69 5.37
7/8/2024 8:45:00 AM 26.02 78.836 0 7.48 86.79 5.38
7/8/2024 9:00:00 AM 26.04 78.872 0 7.5 86.61 5.44
7/8/2024 9:15:00 AM 26.03 78.854 0 7.67 86.22 5.47
7/8/2024 9:30:00 AM 26.1 78.98 0 7.75 86.37 5.56
7/8/2024 9:45:00 AM 26.14 79.052 0 7.87 86.41 5.67
7/8/2024 10:00:00 AM 26.19 79.142 0 7.95 90.28 5.76
7/8/2024 10:15:00 AM 26.22 79.196 0 8.03 87.1 5.93
7/8/2024 10:30:00 AM 26.33 79.394 0 8.01 88.84 6.09
7/8/2024 10:45:00 AM 26.44 79.592 0 8.04 89.84 6.29
7/8/2024 11:00:00 AM 26.57 79.826 0 8.03 89.15 6.47
7/8/2024 11:15:00 AM 26.77 80.186 0 8.06 89.84 6.75
7/8/2024 11:30:00 AM 27.04 80.672 0 7.82 88.79 7.03
7/8/2024 11:45:00 AM 27.35 81.23 0 7.33 89.24 7.32
7/8/2024 12:00:00 PM 27.6 81.68 0 6.99 89.77 7.63
7/8/2024 12:15:00 PM 27.96 82.328 0 7.2 88.34 7.94
7/8/2024 12:30:00 PM 28.3 82.94 0 7.21 77.69 8.24
7/8/2024 12:45:00 PM 28.55 83.39 0 6.87 78.11 8.5
7/8/2024 1:00:00 PM 28.84 83.912 0 6.9 78.24 8.76
7/8/2024 1:15:00 PM 29.21 84.578 0 6.71 80.61 9.02
7/8/2024 1:30:00 PM 29.53 85.15401 0 6.7 80.68 9.25
7/8/2024 1:45:00 PM 29.8 85.64 0 6.86 77.75 9.49
7/8/2024 2:00:00 PM 29.95 85.91 0 6.61 74.74 9.67
7/8/2024 2:15:00 PM 30.06 86.108 0 6.67 74.88 9.77
7/8/2024 2:30:00 PM 30.16 86.288 0 6.71 74.03 9.86
7/8/2024 2:45:00 PM 30.43 86.774 0 6.65 75 10.03
7/8/2024 3:00:00 PM 30.47 86.84599 0 6.79 82.62 10.12
7/8/2024 3:15:00 PM 30.42 86.756 0 6.85 210.1 10.17
7/8/2024 3:30:00 PM 30.54 86.972 0 6.53 2113 10.25
7/8/2024 3:45:00 PM 30.55 86.99 0 7.71 75.2 10.34
7/8/2024 4:00:00 PM 30.36 86.64799 0 8.12 74.79 10.32
7/8/2024 4:15:00 PM 29.97 85.946 0 8.37 75.33 10.35
7/8/2024 4:30:00 PM 30.67 87.206 0 8.11 75.78 10.24
7/8/2024 4:45:00 PM 30.26 86.468 0 8.38 86.6 10.31
7/8/2024 5:00:00 PM 30.63 87.134 0 8.38 110.7 10.24
7/8/2024 5:15:00 PM 30.75 87.35 0 8.46 154.4 10.19
7/8/2024 5:30:00 PM 30.66 87.188 0 8.1 227.2 10.15
7/8/2024 5:45:00 PM 30.77 87.386 0 7.51 326.7 10.03
7/8/2024 6:00:00 PM 30.62 87.116 0 7.65 353.3 9.89
7/8/2024 6:15:00 PM 30.56 87.008 0 7.47 395.9 9.71
7/8/2024 6:30:00 PM 30.47 86.84599 0 7.57 413.5 9.51
7/8/2024 6:45:00 PM 30.36 86.64799 0 7.48 433.5 9.36
7/8/2024 7:00:00 PM 30.34 86.612 0 7.48 432.7 9.21
7/8/2024 7:15:00 PM 30.28 86.50401 0 7.33 411.7 8.95
7/8/2024 7:30:00 PM 30.15 86.27 0 7.82 78.55 8.77
7/8/2024 7:45:00 PM 29.99 85.982 0 7.87 79.61 8.58
7/8/2024 8:00:00 PM 29.93 85.874 0 7.93 80.28 8.4
7/8/2024 8:15:00 PM 29.81 85.658 0 7.67 81.45 8.25
7/8/2024 8:30:00 PM 29.54 85.172 0 7.8 70.52 8.09
7/8/2024 8:45:00 PM 29.31 84.758 0 7.97 71.88 7.93
7/8/2024 9:00:00 PM 29.4 84.92 0 7.78 71.94 7.71
7/8/2024 9:15:00 PM 28.25 82.85 0 8.08 77.35 7.55
7/8/2024 9:30:00 PM 28.29 82.922 0 8.11 77.99 7.49
7/8/2024 9:45:00 PM 27.21 80.978 0 8.84 81.32 7.5
7/8/2024 10:00:00 PM 27.21 80.978 0 9.29 79.35 7.3
7/8/2024 10:15:00 PM 28.17 82.706 0 8.1 79.02 7.01
7/8/2024 10:30:00 PM 25.62 78.116 0 11.34 79.1 7.22
7/8/2024 10:45:00 PM 25.18 77.324 0 10.68 79.33 7.1
7/8/2024 11:00:00 PM 25.27 77.486 0 10.87 78.52 6.97
7/8/2024 11:15:00 PM 26.46 79.628 0 8.69 75.2 6.69
7/8/2024 11:30:00 PM 25.93 78.674 0 10.34 74.74 6.6
7/8/2024 11:45:00 PM 26.08 78.944 0 10.07 75.74 6.47
7/9/2024 12:00:00 AM 26.15 79.07 0 9.49 77.52 6.31
7/9/2024 12:15:00 AM 24.77 76.586 0 10.22 74.55 6.4
7/9/2024 12:30:00 AM 25.62 78.116 0 9.73 72.65 6.24
7/9/2024 12:45:00 AM 25.23 77.414 0 10.3 71.47 6.14
7/9/2024 1:00:00 AM 25.48 77.864 0 10.11 71.13 6.04
7/9/2024 1:15:00 AM 25.64 78.152 0 9.76 70.8 5.93
7/9/2024 1:30:00 AM 25.56 78.008 0 9.82 66.25 5.84
7/9/2024 1:45:00 AM 25.44 77.792 0 9.23 66.18 5.8
7/9/2024 2:00:00 AM 25.16 77.288 0 10.28 65.81 5.75
7/9/2024 2:15:00 AM 25.09 77.162 0 10.27 67.1 5.7
7/9/2024 2:30:00 AM 25.28 77.504 0 9.4 64.19 5.62
7/9/2024 2:45:00 AM 25.21 77.378 0 8.95 62.9 5.57
7/9/2024 3:00:00 AM 24.53 76.154 0 10.7 70.61 5.5
7/9/2024 3:15:00 AM 24.26 75.668 0 10.56 62.96 5.58
7/9/2024 3:30:00 AM 24.84 76.712 0 8.93 76.45 5.51
7/9/2024 3:45:00 AM 24.59 76.262 0 9.38 62.86 5.48
7/9/2024 4:00:00 AM 24.45 76.01 0 9.95 67.44 5.47
7/9/2024 4:15:00 AM 23.98 75.164 0 9.7 62.2 5.49
7/9/2024 4:30:00 AM 24.1 75.38 0 11.29 62.39 5.31
7/9/2024 4:45:00 AM 24.1 75.38 0 9.81 66.6 5.39
7/9/2024 5:00:00 AM 23.83 74.894 0 10.3 67.05 5.39
7/9/2024 5:15:00 AM 23.85 74.93 0 8.2 73.79 5.34
7/9/2024 5:30:00 AM 23.86 74.948 0 8.82 82.68 5.36
7/9/2024 5:45:00 AM 23.75 74.75 0 8.34 73.92 5.38
7/9/2024 6:00:00 AM 23.68 74.624 0 8.71 72.62 5.39
7/9/2024 6:15:00 AM 23.88 74.984 0 8.98 68.97 5.29
7/9/2024 6:30:00 AM 23.54 74.372 0 9.23 68.71 5.23
7/9/2024 6:45:00 AM 23.86 74.948 0 8.23 72.63 5.24
7/9/2024 7:00:00 AM 23.96 75.128 0 8.21 71.79 5.06
7/9/2024 7:15:00 AM 23.91 75.038 0 8.16 71.29 5.14
7/9/2024 7:30:00 AM 24.75 76.55 0 7.61 61.96 5.12
7/9/2024 7:45:00 AM 24.77 76.586 0 7.76 62.08 5.08
7/9/2024 8:00:00 AM 24.91 76.838 0 7.77 61.45 5.2
7/9/2024 8:15:00 AM 25.27 77.486 0 7.78 61.63 5.13
7/9/2024 8:30:00 AM 25.33 77.594 0 8.02 72 5.13
7/9/2024 8:45:00 AM 25.72 78.296 0 8.81 61.69 5.25
7/9/2024 9:00:00 AM 25.87 78.566 0 8.39 68.89 5.38
7/9/2024 9:15:00 AM 26.02 78.836 0 8.53 66.61 5.45
7/9/2024 9:30:00 AM 26.19 79.142 0 9.34 74.09 5.39
7/9/2024 9:45:00 AM 26.29 79.32201 0 9.63 62.9 5.73
7/9/2024 10:00:00 AM 26.54 79.772 0 9.73 62.57 5.77
7/9/2024 10:15:00 AM 26.79 80.222 0 10.22 61.95 5.95
7/9/2024 10:30:00 AM 26.91 80.438 0 8.84 79.84 6.13
7/9/2024 10:45:00 AM 27.05 80.69 0 10.43 67.45 6.44
7/9/2024 11:00:00 AM 27.24 81.032 0 10.83 67.12 6.59
7/9/2024 11:15:00 AM 27.38 81.284 0 10.47 74.85 6.9
7/9/2024 11:30:00 AM 27.68 81.824 0 11.41 67.22 7.2
7/9/2024 11:45:00 AM 27.77 81.986 0 11.44 64.08 7.45
7/9/2024 12:00:00 PM 28.02 82.436 0 12.09 71.83 7.7
7/9/2024 12:15:00 PM 28.39 83.102 0 12.35 63.64 7.95
7/9/2024 12:30:00 PM 28.42 83.156 0 11.2 67.38 8.36
7/9/2024 12:45:00 PM 28.69 83.642 0 10.84 70.27 8.51
7/9/2024 1:00:00 PM 28.75 83.75 0 12.59 77.74 8.77
7/9/2024 1:15:00 PM 29.07 84.326 0 12.08 85.3 9.05
7/9/2024 1:30:00 PM 29.21 84.578 0 11.9 85.24 9.21
7/9/2024 1:45:00 PM 29.43 84.974 0 12.88 94.08 9.36
7/9/2024 2:00:00 PM 29.62 85.316 0 11.76 91.77 9.49
7/9/2024 2:15:00 PM 28.82 83.876 0 12.34 96.46 9.86
7/9/2024 2:30:00 PM 28.62 83.51601 0 17.43 107.7 10.31
7/9/2024 2:45:00 PM 29.98 85.964 0 23.64 133.4 10.23
7/9/2024 3:00:00 PM 30.39 86.702 0 32.22 163.1 10.11
7/9/2024 3:15:00 PM 30.53 86.954 0 26.59 145 10.35
7/9/2024 3:30:00 PM 30.83 87.494 0 32.5 127.9 10.2
7/9/2024 3:45:00 PM 31.16 88.088 0 20.31 57.48 10.19
7/9/2024 4:00:00 PM 30.96 87.728 0 19.87 77.52 10.3
7/9/2024 4:15:00 PM 30.86 87.548 0 20.01 47.59 10.36
7/9/2024 4:30:00 PM 30.88 87.584 0 19.2 62.98 10.44
7/9/2024 4:45:00 PM 31.77 89.186 0 15.86 53.12 10.05
7/9/2024 5:00:00 PM 31.34 88.412 0 14.18 55.49 9.74
7/9/2024 5:15:00 PM 31.77 89.186 0 14.75 43.76 9.63
7/9/2024 5:30:00 PM 31.93 89.474 0 13.46 46.45 9.54
7/9/2024 5:45:00 PM 31.29 88.32201 0 12.62 43.45 7.27
7/9/2024 6:00:00 PM 31.42 88.556 0 14.56 49.52 6.71
7/9/2024 6:15:00 PM 31.84 89.312 0 10.45 48.57 6.63
7/9/2024 6:30:00 PM 31.98 89.564 0 10.3 43.5 6.83
7/9/2024 6:45:00 PM 31.76 89.168 0 11.5 43.46 7.05
7/9/2024 7:00:00 PM 31.44 88.592 0 10.79 43.3 7.26
7/9/2024 7:15:00 PM 30.65 87.17 0 11.9 43.51 7.41
7/9/2024 7:30:00 PM 30.23 86.414 0 12.54 55.6 7.31
7/9/2024 7:45:00 PM 29.9 85.82 0 12.65 62.02 7.35
7/9/2024 8:00:00 PM 29.81 85.658 0 12.92 64.73 7.44
7/9/2024 8:15:00 PM 29.61 85.298 0 14.23 66.26 7.68
7/9/2024 8:30:00 PM 29.13 84.434 0 12.8 68.52 7.68
7/9/2024 8:45:00 PM 29.09 84.362 0 14.74 72.4 7.96
7/9/2024 9:00:00 PM 28.82 83.876 0 16.3 67.63 7.9
7/9/2024 9:15:00 PM 28.33 82.994 0 16.75 97.09 7.86
7/9/2024 9:30:00 PM 28.23 82.814 0 16.1 180.7 7.8
7/9/2024 9:45:00 PM 28.12 82.616 0 16.05 105.2 7.69
7/9/2024 10:00:00 PM 27.9 82.22 0 16.08 218.3 7.56
7/9/2024 10:15:00 PM 27.61 81.698 0 16.02 185 7.46
7/9/2024 10:30:00 PM 27.44 81.392 0 16.99 248.3 7.38
7/9/2024 10:45:00 PM 27.27 81.086 0 17.67 59.59 7.25
7/9/2024 11:00:00 PM 27.14 80.852 0 16.77 86.74 7.21
7/9/2024 11:15:00 PM 26.98 80.564 0 17.73 42.08 7.08
7/9/2024 11:30:00 PM 26.71 80.078 0 17.62 56.17 7.05
7/9/2024 11:45:00 PM 26.61 79.898 0 16 81.78 6.97
7/10/2024 12:00:00 AM 26.59 79.862 0 15.84 103.5 6.83
7/10/2024 12:15:00 AM 26.38 79.484 0 14.39 89.43 6.76
7/10/2024 12:30:00 AM 26.37 79.466 0 15.11 81.48 6.67
7/10/2024 12:45:00 AM 26.18 79.124 0 15.23 87.59 6.58
7/10/2024 1:00:00 AM 26.02 78.836 0 16.35 111.1 6.49
7/10/2024 1:15:00 AM 25.93 78.674 0 15.37 109.5 6.41
7/10/2024 1:30:00 AM 25.89 78.602 0 15.33 110.9 6.37
7/10/2024 1:45:00 AM 25.71 78.278 0 16.09 104.1 6.2
7/10/2024 2:00:00 AM 25.75 78.35 0 18.3 119.2 6.15
7/10/2024 2:15:00 AM 25.62 78.116 0 15.01 119.2 6.01
7/10/2024 2:30:00 AM 25.62 78.116 0 14.78 125.7 5.94
7/10/2024 2:45:00 AM 25.71 78.278 0 17.66 119.6 5.89
7/10/2024 3:00:00 AM 25.44 77.792 0 16.03 111.2 5.85
7/10/2024 3:15:00 AM 25.25 77.45 0 17.14 102.7 5.86
7/10/2024 3:30:00 AM 25.19 77.342 0 17.94 112.9 5.83
7/10/2024 3:45:00 AM 25.12 77.216 0 16.33 106.1 5.82
7/10/2024 4:00:00 AM 25.12 77.216 0 16.78 116.3 5.71
7/10/2024 4:15:00 AM 25.01 77.018 0 16.66 116.9 5.81
7/10/2024 4:30:00 AM 25.02 77.036 0 15.86 130.3 5.73
7/10/2024 4:45:00 AM 24.99 76.982 0 15.44 96.58 5.76
7/10/2024 5:00:00 AM 24.98 76.964 0 14.91 90.52 5.74
7/10/2024 5:15:00 AM 24.69 76.442 0 13.14 96.39 5.86
7/10/2024 5:30:00 AM 24.63 76.334 0 12.41 102.3 5.84
7/10/2024 5:45:00 AM 24.63 76.334 0 13.97 90.61 5.78
7/10/2024 6:00:00 AM 24.92 76.856 0 12.94 84.66 5.82
7/10/2024 6:15:00 AM 24.83 76.694 0 13.2 74.83 5.82
7/10/2024 6:30:00 AM 24.56 76.208 0 16.04 99 5.91
7/10/2024 6:45:00 AM 24.99 76.982 0 12.9 72.37 5.79
7/10/2024 7:00:00 AM 24.81 76.658 0 11.65 79.63 5.79
7/10/2024 7:15:00 AM 24.81 76.658 0 12.3 80.99 5.81
7/10/2024 7:30:00 AM 24.96 76.92799 0 11.58 78.98 5.88
7/10/2024 7:45:00 AM 25.42 77.756 0 11.01 82.06 5.76
7/10/2024 8:00:00 AM 25.78 78.404 0 10.83 76.67 5.75
7/10/2024 8:15:00 AM 26.19 79.142 0 11.17 77.53 5.8
7/10/2024 8:30:00 AM 26.62 79.916 0 12.63 86.18 5.79
7/10/2024 8:45:00 AM 26.97 80.546 0 14.18 87.57 5.72
7/10/2024 9:00:00 AM 27.32 81.176 0 15.42 113.5 5.86
7/10/2024 9:15:00 AM 27.59 81.662 0 16.08 99.15 5.9
7/10/2024 9:30:00 AM 27.84 82.112 0 18.39 100.7 5.92
7/10/2024 9:45:00 AM 28.13 82.634 0 17.53 125.4 6.03
7/10/2024 10:00:00 AM 28.31 82.958 0 17.05 126.2 6.09
7/10/2024 10:15:00 AM 28.55 83.39 0 17.4 108.6 6.07
7/10/2024 10:30:00 AM 28.83 83.894 0 28.45 87.94 6.16
7/10/2024 10:45:00 AM 29.23 84.614 0 29.53 128.5 6.26
7/10/2024 11:00:00 AM 29.42 84.956 0 19.2 100.8 6.53
7/10/2024 11:15:00 AM 29.75 85.55 0 20.76 137.8 6.63
7/10/2024 11:30:00 AM 29.55 85.18999 0 21.05 126.6 6.9
7/10/2024 11:45:00 AM 30 86 0 19.9 140.7 7.08
7/10/2024 12:00:00 PM 30.16 86.288 0 20.01 103.7 7.37
7/10/2024 12:15:00 PM 30.31 86.558 0 17.83 103 7.56
7/10/2024 12:30:00 PM 30.73 87.314 0 16.71 2459 7.88
7/10/2024 12:45:00 PM 30.72 87.296 0 17.12 4902 8.1
7/10/2024 1:00:00 PM 31.05 87.89 0 15.86 5061 8.29
7/10/2024 1:15:00 PM 31.3 88.34 0 16.89 5085 8.52
7/10/2024 1:30:00 PM 31.37 88.466 0 15.85 5020 8.74
7/10/2024 1:45:00 PM 31.53 88.75401 0 16.37 5190 8.79
7/10/2024 2:00:00 PM 31.65 88.97 0 16.59 5204 9.04
7/10/2024 2:15:00 PM 31.44 88.592 0 16.08 5203 9.17
7/10/2024 2:30:00 PM 31.58 88.844 0 16.59 5203 9.21
7/10/2024 2:45:00 PM 31.59 88.862 0 15.05 5203 9.21
7/10/2024 3:00:00 PM 31.56 88.808 0 14.7 5203 9.23
7/10/2024 3:15:00 PM 31.62 88.916 0 15.37 5203 9.3
7/10/2024 3:30:00 PM 31.6 88.88 0 17.48 5203 9.2
7/10/2024 3:45:00 PM 31.67 89.006 0 17.07 5203 9.28
7/10/2024 4:00:00 PM 31.79 89.222 0 18.09 5203 9.31
7/10/2024 4:15:00 PM 31.63 88.934 0 15.5 5203 9.37
7/10/2024 4:30:00 PM 32.03 89.654 0 13.78 5203 9.3
7/10/2024 4:45:00 PM 32.23 90.014 0 13.03 5203 9.2
7/10/2024 5:00:00 PM 32.36 90.248 0 14.47 5203 9.31
7/10/2024 5:15:00 PM 32.16 89.888 0 14.33 5203 9.35
7/10/2024 5:30:00 PM 31.58 88.844 0 14.5 5203 9.03
7/10/2024 5:45:00 PM 31.49 88.682 0 12.95 5203 8.84
7/10/2024 6:00:00 PM 31.27 88.286 0 12.2 5203 8.74
7/10/2024 6:15:00 PM 31.03 87.854 0 15.97 5203 8.58
7/10/2024 6:30:00 PM 30.89 87.60201 0 16.57 5203 8.33
7/10/2024 6:45:00 PM 30.67 87.206 0 17.08 5203 7.94
7/10/2024 7:00:00 PM 30.55 86.99 0 16.85 5203 7.62
7/10/2024 7:15:00 PM 30.36 86.64799 0 17.19 5203 7.34
7/10/2024 7:30:00 PM 30.23 86.414 0 18.07 5203 7.19
7/10/2024 7:45:00 PM 30.08 86.144 0 18.94 5203 7.12
7/10/2024 8:00:00 PM 29.99 85.982 0 18.58 5203 7.06
7/10/2024 8:15:00 PM 29.89 85.802 0 19.9 5204 7.13
7/10/2024 8:30:00 PM 29.71 85.478 0 20.18 5204 7.21
7/10/2024 8:45:00 PM 29.51 85.118 0 19.82 5204 7.23
7/10/2024 9:00:00 PM 29.31 84.758 0 20.44 5204 7.34
7/10/2024 9:15:00 PM 29.25 84.65 0 21.51 5204 7.4
7/10/2024 9:30:00 PM 28.6 83.48 0 21.61 5204 7.47
7/10/2024 9:45:00 PM 26.74 80.132 0 26.33 5204 7.8
7/10/2024 10:00:00 PM 26.85 80.33 0 25.14 5204 7.8
7/10/2024 10:15:00 PM 26.61 79.898 0 20.82 5204 7.89
7/10/2024 10:30:00 PM 26.6 79.88 0 17.63 5204 7.85
7/10/2024 10:45:00 PM 26.53 79.754 0 15.74 5205 7.86
7/10/2024 11:00:00 PM 26.62 79.916 0 13.52 5205 7.84
7/10/2024 11:15:00 PM 26.34 79.412 0 14.2 5203 7.9
7/10/2024 11:30:00 PM 26.22 79.196 0 15.38 5104 7.91
7/10/2024 11:45:00 PM 26.29 79.32201 0 15.82 4963 7.9
7/11/2024 12:00:00 AM 26.22 79.196 0 12.51 4823 7.92
7/11/2024 12:15:00 AM 26 78.8 0 16.78 4555 7.96
7/11/2024 12:30:00 AM 25.73 78.314 0 15.42 4462 8
7/11/2024 12:45:00 AM 25.65 78.17 0 16.9 4621 7.99
7/11/2024 1:00:00 AM 25.13 77.234 0 16.78 4461 8.1
7/11/2024 1:15:00 AM 24.76 76.568 0 15.91 4344 8.15
7/11/2024 1:30:00 AM 24.57 76.226 0 18.97 4399 8.16
7/11/2024 1:45:00 AM 24.24 75.632 0 19.68 4531 8.27
7/11/2024 2:00:00 AM 24 75.2 0 21.08 4688 8.33
7/11/2024 2:15:00 AM 23.97 75.146 0 22.82 5126 8.34
7/11/2024 2:30:00 AM 24.11 75.398 0 21.61 5176 8.35

These are provisional data and have not been subject to a quality assurance process, but rather are the raw data reported by the instrument.
H: value is above sensor operating range
L: value is below sensor operating range
Offline: station is not reporting data
NC: parameter is not collected at site

Data Availability & Limitations

Uncertainty and potential for error can be associated with environmental monitoring data. Provisional data have not been subject to a quality assurance process, but rather are the raw data reported by the instrument. Data users are cautioned to consider carefully the provisional nature of the information before using it for decisions that concern personal or public safety or the conduct of business that involves substantial monetary or operational consequences.

Approved data are currently available by request by emailing: [email protected]. Approved data have been subject to a quality assurance process to correct for equipment or fouling drift. Data recorded during equipment malfunctions have been removed.

View Historical Stations that have been discontinued.